<?xml version="1.0" encoding="UTF-8" standalone="no" ?>
<gpx xmlns="http://www.topografix.com/GPX/1/1" creator="MapSource 6.16.3" version="1.1" xmlns:xsi="http://www.w3.org/2001/XMLSchema-instance" xsi:schemaLocation="http://www.topografix.com/GPX/1/1 http://www.topografix.com/GPX/1/1/gpx.xsd">

  <metadata>
    <link href="http://www.garmin.com">
      <text>Garmin International</text>
    </link>
    <time>2013-08-30T15:54:19Z</time>
    <bounds maxlat="18.998380657285452" maxlon="-98.473190981894732" minlat="18.928443482145667" minlon="-98.52655696682632"/>
  </metadata>

  <trk>
    <name>ACTIVE LOG</name>
    <extensions>
      <gpxx:TrackExtension xmlns:gpxx="http://www.garmin.com/xmlschemas/GpxExtensions/v3">
        <gpxx:DisplayColor>Red</gpxx:DisplayColor>
      </gpxx:TrackExtension>
    </extensions>
    <trkseg>
      <trkpt lat="18.982328558340669" lon="-98.506213082000613">
        <ele>2010.734619140625</ele>
        <time>2013-08-27T20:34:45Z</time>
      </trkpt>
    </trkseg>
  </trk>

  <trk>
    <name>ACTIVE LOG 002</name>
    <extensions>
      <gpxx:TrackExtension xmlns:gpxx="http://www.garmin.com/xmlschemas/GpxExtensions/v3">
        <gpxx:DisplayColor>Red</gpxx:DisplayColor>
      </gpxx:TrackExtension>
    </extensions>
    <trkseg>
      <trkpt lat="18.936624974012375" lon="-98.473190981894732">
        <ele>2011.696044921875</ele>
        <time>2013-08-29T18:17:43Z</time>
      </trkpt>
      <trkpt lat="18.936595134437084" lon="-98.473275890573859">
        <ele>2012.1767578125</ele>
        <time>2013-08-29T18:17:45Z</time>
      </trkpt>
      <trkpt lat="18.936456078663468" lon="-98.47369808703661">
        <ele>2009.292724609375</ele>
        <time>2013-08-29T18:17:55Z</time>
      </trkpt>
      <trkpt lat="18.93645565956831" lon="-98.473687022924423">
        <ele>2008.331298828125</ele>
        <time>2013-08-29T18:17:57Z</time>
      </trkpt>
      <trkpt lat="18.936471417546272" lon="-98.473679143935442">
        <ele>2004.486083984375</ele>
        <time>2013-08-29T18:18:12Z</time>
      </trkpt>
      <trkpt lat="18.936469573527575" lon="-98.473679563030601">
        <ele>2003.044189453125</ele>
        <time>2013-08-29T18:18:26Z</time>
      </trkpt>
      <trkpt lat="18.936474099755287" lon="-98.473668750375509">
        <ele>2004.005615234375</ele>
        <time>2013-08-29T18:18:52Z</time>
      </trkpt>
      <trkpt lat="18.936475021764636" lon="-98.473669337108731">
        <ele>2004.005615234375</ele>
        <time>2013-08-29T18:19:00Z</time>
      </trkpt>
      <trkpt lat="18.936625057831407" lon="-98.47367268987">
        <ele>2004.966796875</ele>
        <time>2013-08-29T18:19:06Z</time>
      </trkpt>
      <trkpt lat="18.937076590955257" lon="-98.473480995744467">
        <ele>2004.966796875</ele>
        <time>2013-08-29T18:19:15Z</time>
      </trkpt>
      <trkpt lat="18.937520161271095" lon="-98.473335485905409">
        <ele>2004.486083984375</ele>
        <time>2013-08-29T18:19:24Z</time>
      </trkpt>
      <trkpt lat="18.937842529267073" lon="-98.473217133432627">
        <ele>2004.966796875</ele>
        <time>2013-08-29T18:19:29Z</time>
      </trkpt>
      <trkpt lat="18.938090382143855" lon="-98.473270861431956">
        <ele>2005.927978515625</ele>
        <time>2013-08-29T18:19:34Z</time>
      </trkpt>
      <trkpt lat="18.938137488439679" lon="-98.473401116207242">
        <ele>2006.40869140625</ele>
        <time>2013-08-29T18:19:36Z</time>
      </trkpt>
      <trkpt lat="18.93818836659193" lon="-98.47356129437685">
        <ele>2007.850830078125</ele>
        <time>2013-08-29T18:19:38Z</time>
      </trkpt>
      <trkpt lat="18.938279058784246" lon="-98.473921129480004">
        <ele>2009.292724609375</ele>
        <time>2013-08-29T18:19:42Z</time>
      </trkpt>
      <trkpt lat="18.93842582590878" lon="-98.474405016750097">
        <ele>2010.734619140625</ele>
        <time>2013-08-29T18:19:48Z</time>
      </trkpt>
      <trkpt lat="18.938448876142502" lon="-98.474483387544751">
        <ele>2011.696044921875</ele>
        <time>2013-08-29T18:19:49Z</time>
      </trkpt>
      <trkpt lat="18.938617436215281" lon="-98.475108845159411">
        <ele>2014.580078125</ele>
        <time>2013-08-29T18:19:56Z</time>
      </trkpt>
      <trkpt lat="18.938671834766865" lon="-98.475293666124344">
        <ele>2013.61865234375</ele>
        <time>2013-08-29T18:19:58Z</time>
      </trkpt>
      <trkpt lat="18.93873319029808" lon="-98.475443031638861">
        <ele>2014.580078125</ele>
        <time>2013-08-29T18:20:00Z</time>
      </trkpt>
      <trkpt lat="18.938818769529462" lon="-98.475529532879591">
        <ele>2015.54150390625</ele>
        <time>2013-08-29T18:20:02Z</time>
      </trkpt>
      <trkpt lat="18.939106939360499" lon="-98.475476475432515">
        <ele>2016.9833984375</ele>
        <time>2013-08-29T18:20:06Z</time>
      </trkpt>
      <trkpt lat="18.939178436994553" lon="-98.475442277267575">
        <ele>2017.944580078125</ele>
        <time>2013-08-29T18:20:07Z</time>
      </trkpt>
      <trkpt lat="18.939559226855636" lon="-98.475204147398472">
        <ele>2020.82861328125</ele>
        <time>2013-08-29T18:20:12Z</time>
      </trkpt>
      <trkpt lat="18.940223827958107" lon="-98.474862752482295">
        <ele>2023.23193359375</ele>
        <time>2013-08-29T18:20:20Z</time>
      </trkpt>
      <trkpt lat="18.940442930907011" lon="-98.474804665893316">
        <ele>2025.154296875</ele>
        <time>2013-08-29T18:20:23Z</time>
      </trkpt>
      <trkpt lat="18.940785247832537" lon="-98.474544156342745">
        <ele>2028.03857421875</ele>
        <time>2013-08-29T18:20:29Z</time>
      </trkpt>
      <trkpt lat="18.940837550908327" lon="-98.474408537149429">
        <ele>2029.48046875</ele>
        <time>2013-08-29T18:20:31Z</time>
      </trkpt>
      <trkpt lat="18.940874682739377" lon="-98.474181722849607">
        <ele>2030.922607421875</ele>
        <time>2013-08-29T18:20:36Z</time>
      </trkpt>
      <trkpt lat="18.941037291660905" lon="-98.473979718983173">
        <ele>2032.364501953125</ele>
        <time>2013-08-29T18:20:41Z</time>
      </trkpt>
      <trkpt lat="18.941272990778089" lon="-98.473920291289687">
        <ele>2034.287109375</ele>
        <time>2013-08-29T18:20:45Z</time>
      </trkpt>
      <trkpt lat="18.941456722095609" lon="-98.474015174433589">
        <ele>2036.209716796875</ele>
        <time>2013-08-29T18:20:48Z</time>
      </trkpt>
      <trkpt lat="18.941863076761365" lon="-98.474073344841599">
        <ele>2039.093505859375</ele>
        <time>2013-08-29T18:20:54Z</time>
      </trkpt>
      <trkpt lat="18.941936334595084" lon="-98.474053479731083">
        <ele>2040.054931640625</ele>
        <time>2013-08-29T18:20:55Z</time>
      </trkpt>
      <trkpt lat="18.942304216325283" lon="-98.474056497216225">
        <ele>2043.41943359375</ele>
        <time>2013-08-29T18:21:00Z</time>
      </trkpt>
      <trkpt lat="18.942523151636124" lon="-98.474194463342428">
        <ele>2044.380859375</ele>
        <time>2013-08-29T18:21:03Z</time>
      </trkpt>
      <trkpt lat="18.942669918760657" lon="-98.474297057837248">
        <ele>2046.3037109375</ele>
        <time>2013-08-29T18:21:05Z</time>
      </trkpt>
      <trkpt lat="18.942997986450791" lon="-98.474335446953773">
        <ele>2048.706787109375</ele>
        <time>2013-08-29T18:21:09Z</time>
      </trkpt>
      <trkpt lat="18.943158248439431" lon="-98.47413788549602">
        <ele>2052.0712890625</ele>
        <time>2013-08-29T18:21:12Z</time>
      </trkpt>
      <trkpt lat="18.943178616464138" lon="-98.474046690389514">
        <ele>2053.513427734375</ele>
        <time>2013-08-29T18:21:13Z</time>
      </trkpt>
      <trkpt lat="18.943211724981666" lon="-98.473676377907395">
        <ele>2055.91650390625</ele>
        <time>2013-08-29T18:21:17Z</time>
      </trkpt>
      <trkpt lat="18.943461924791336" lon="-98.473404385149479">
        <ele>2056.397216796875</ele>
        <time>2013-08-29T18:21:22Z</time>
      </trkpt>
      <trkpt lat="18.943630736321211" lon="-98.4735725261271">
        <ele>2059.28125</ele>
        <time>2013-08-29T18:21:25Z</time>
      </trkpt>
      <trkpt lat="18.943763757124543" lon="-98.473925739526749">
        <ele>2062.165283203125</ele>
        <time>2013-08-29T18:21:29Z</time>
      </trkpt>
      <trkpt lat="18.943796027451754" lon="-98.474013581871986">
        <ele>2062.165283203125</ele>
        <time>2013-08-29T18:21:30Z</time>
      </trkpt>
      <trkpt lat="18.943833578377962" lon="-98.474099999293685">
        <ele>2061.684814453125</ele>
        <time>2013-08-29T18:21:31Z</time>
      </trkpt>
      <trkpt lat="18.944116048514843" lon="-98.474308541044593">
        <ele>2066.4912109375</ele>
        <time>2013-08-29T18:21:35Z</time>
      </trkpt>
      <trkpt lat="18.944295085966587" lon="-98.474276522174478">
        <ele>2068.413818359375</ele>
        <time>2013-08-29T18:21:37Z</time>
      </trkpt>
      <trkpt lat="18.944562887772918" lon="-98.474184153601527">
        <ele>2069.855712890625</ele>
        <time>2013-08-29T18:21:40Z</time>
      </trkpt>
      <trkpt lat="18.94490453414619" lon="-98.473858349025249">
        <ele>2072.259033203125</ele>
        <time>2013-08-29T18:21:45Z</time>
      </trkpt>
      <trkpt lat="18.945098575204611" lon="-98.473525838926435">
        <ele>2075.142822265625</ele>
        <time>2013-08-29T18:21:49Z</time>
      </trkpt>
      <trkpt lat="18.945150375366211" lon="-98.473448138684034">
        <ele>2075.142822265625</ele>
        <time>2013-08-29T18:21:50Z</time>
      </trkpt>
      <trkpt lat="18.945537619292736" lon="-98.473258791491389">
        <ele>2078.5078125</ele>
        <time>2013-08-29T18:21:55Z</time>
      </trkpt>
      <trkpt lat="18.945716070011258" lon="-98.473297599703074">
        <ele>2079.468994140625</ele>
        <time>2013-08-29T18:21:57Z</time>
      </trkpt>
      <trkpt lat="18.945878343656659" lon="-98.473387118428946">
        <ele>2081.3916015625</ele>
        <time>2013-08-29T18:21:59Z</time>
      </trkpt>
      <trkpt lat="18.946100044995546" lon="-98.473554169759154">
        <ele>2082.35302734375</ele>
        <time>2013-08-29T18:22:02Z</time>
      </trkpt>
      <trkpt lat="18.946387795731425" lon="-98.473926493898034">
        <ele>2086.1982421875</ele>
        <time>2013-08-29T18:22:07Z</time>
      </trkpt>
      <trkpt lat="18.946611760184169" lon="-98.474233858287334">
        <ele>2090.04345703125</ele>
        <time>2013-08-29T18:22:11Z</time>
      </trkpt>
      <trkpt lat="18.946667751297355" lon="-98.474309463053942">
        <ele>2090.04345703125</ele>
        <time>2013-08-29T18:22:12Z</time>
      </trkpt>
      <trkpt lat="18.946779817342758" lon="-98.474463270977139">
        <ele>2091.966064453125</ele>
        <time>2013-08-29T18:22:14Z</time>
      </trkpt>
      <trkpt lat="18.94699146039784" lon="-98.474654797464609">
        <ele>2093.408203125</ele>
        <time>2013-08-29T18:22:17Z</time>
      </trkpt>
      <trkpt lat="18.947262028232217" lon="-98.474685391411185">
        <ele>2097.25341796875</ele>
        <time>2013-08-29T18:22:20Z</time>
      </trkpt>
      <trkpt lat="18.947621863335371" lon="-98.474604170769453">
        <ele>2101.579345703125</ele>
        <time>2013-08-29T18:22:24Z</time>
      </trkpt>
      <trkpt lat="18.947980692610145" lon="-98.474648762494326">
        <ele>2104.463134765625</ele>
        <time>2013-08-29T18:22:28Z</time>
      </trkpt>
      <trkpt lat="18.948408924043179" lon="-98.474857723340392">
        <ele>2108.789306640625</ele>
        <time>2013-08-29T18:22:33Z</time>
      </trkpt>
      <trkpt lat="18.948491150513291" lon="-98.474902482703328">
        <ele>2109.27001953125</ele>
        <time>2013-08-29T18:22:34Z</time>
      </trkpt>
      <trkpt lat="18.94882676191628" lon="-98.475073976442218">
        <ele>2112.634521484375</ele>
        <time>2013-08-29T18:22:38Z</time>
      </trkpt>
      <trkpt lat="18.949158852919936" lon="-98.475241782143712">
        <ele>2116.479736328125</ele>
        <time>2013-08-29T18:22:42Z</time>
      </trkpt>
      <trkpt lat="18.949322551488876" lon="-98.475328367203474">
        <ele>2117.921630859375</ele>
        <time>2013-08-29T18:22:44Z</time>
      </trkpt>
      <trkpt lat="18.949571829289198" lon="-98.475456358864903">
        <ele>2120.8056640625</ele>
        <time>2013-08-29T18:22:47Z</time>
      </trkpt>
      <trkpt lat="18.949918923899531" lon="-98.475600443780422">
        <ele>2123.689453125</ele>
        <time>2013-08-29T18:22:51Z</time>
      </trkpt>
      <trkpt lat="18.9502814412117" lon="-98.475700858980417">
        <ele>2127.534912109375</ele>
        <time>2013-08-29T18:22:55Z</time>
      </trkpt>
      <trkpt lat="18.950572125613689" lon="-98.475770344957709">
        <ele>2129.45751953125</ele>
        <time>2013-08-29T18:22:58Z</time>
      </trkpt>
      <trkpt lat="18.950878484174609" lon="-98.475843351334333">
        <ele>2132.341552734375</ele>
        <time>2013-08-29T18:23:01Z</time>
      </trkpt>
      <trkpt lat="18.951445771381259" lon="-98.475962961092591">
        <ele>2136.186767578125</ele>
        <time>2013-08-29T18:23:06Z</time>
      </trkpt>
      <trkpt lat="18.951568063348532" lon="-98.475990621373057">
        <ele>2135.7060546875</ele>
        <time>2013-08-29T18:23:07Z</time>
      </trkpt>
      <trkpt lat="18.953249640762806" lon="-98.476360933855176">
        <ele>2139.070556640625</ele>
        <time>2013-08-29T18:23:20Z</time>
      </trkpt>
      <trkpt lat="18.953760182484984" lon="-98.476474592462182">
        <ele>2141.47412109375</ele>
        <time>2013-08-29T18:23:24Z</time>
      </trkpt>
      <trkpt lat="18.954517655074596" lon="-98.476642062887549">
        <ele>2144.35791015625</ele>
        <time>2013-08-29T18:23:30Z</time>
      </trkpt>
      <trkpt lat="18.954771542921662" lon="-98.47669729962945">
        <ele>2145.3193359375</ele>
        <time>2013-08-29T18:23:32Z</time>
      </trkpt>
      <trkpt lat="18.955286862328649" lon="-98.476810622960329">
        <ele>2148.683837890625</ele>
        <time>2013-08-29T18:23:36Z</time>
      </trkpt>
      <trkpt lat="18.956814631819725" lon="-98.477152772247791">
        <ele>2151.56787109375</ele>
        <time>2013-08-29T18:23:48Z</time>
      </trkpt>
      <trkpt lat="18.959177238866687" lon="-98.477701535448432">
        <ele>2154.932373046875</ele>
        <time>2013-08-29T18:24:07Z</time>
      </trkpt>
      <trkpt lat="18.960224138572812" lon="-98.478126162663102">
        <ele>2155.4130859375</ele>
        <time>2013-08-29T18:24:16Z</time>
      </trkpt>
      <trkpt lat="18.961123265326023" lon="-98.478505276143551">
        <ele>2155.8935546875</ele>
        <time>2013-08-29T18:24:25Z</time>
      </trkpt>
      <trkpt lat="18.961902698501945" lon="-98.478822782635689">
        <ele>2157.3359375</ele>
        <time>2013-08-29T18:24:35Z</time>
      </trkpt>
      <trkpt lat="18.961970927193761" lon="-98.478853963315487">
        <ele>2157.3359375</ele>
        <time>2013-08-29T18:24:36Z</time>
      </trkpt>
      <trkpt lat="18.962477780878544" lon="-98.479093182832003">
        <ele>2157.3359375</ele>
        <time>2013-08-29T18:24:44Z</time>
      </trkpt>
      <trkpt lat="18.963038865476847" lon="-98.479286637157202">
        <ele>2158.297119140625</ele>
        <time>2013-08-29T18:24:51Z</time>
      </trkpt>
      <trkpt lat="18.963792650029063" lon="-98.479365678504109">
        <ele>2156.37451171875</ele>
        <time>2013-08-29T18:24:57Z</time>
      </trkpt>
      <trkpt lat="18.9647560659796" lon="-98.479371294379234">
        <ele>2153.97119140625</ele>
        <time>2013-08-29T18:25:05Z</time>
      </trkpt>
      <trkpt lat="18.965101568028331" lon="-98.479363918304443">
        <ele>2153.009765625</ele>
        <time>2013-08-29T18:25:08Z</time>
      </trkpt>
      <trkpt lat="18.9655642490834" lon="-98.479111874476075">
        <ele>2151.56787109375</ele>
        <time>2013-08-29T18:25:13Z</time>
      </trkpt>
      <trkpt lat="18.965641194954515" lon="-98.479037778452039">
        <ele>2151.56787109375</ele>
        <time>2013-08-29T18:25:14Z</time>
      </trkpt>
      <trkpt lat="18.965819394215941" lon="-98.478717338293791">
        <ele>2149.16455078125</ele>
        <time>2013-08-29T18:25:18Z</time>
      </trkpt>
      <trkpt lat="18.966109324246645" lon="-98.478464791551232">
        <ele>2149.645263671875</ele>
        <time>2013-08-29T18:25:22Z</time>
      </trkpt>
      <trkpt lat="18.967176340520382" lon="-98.477954920381308">
        <ele>2146.28076171875</ele>
        <time>2013-08-29T18:25:31Z</time>
      </trkpt>
      <trkpt lat="18.967643547803164" lon="-98.477731375023723">
        <ele>2144.35791015625</ele>
        <time>2013-08-29T18:25:35Z</time>
      </trkpt>
      <trkpt lat="18.968010591343045" lon="-98.477578656747937">
        <ele>2140.5126953125</ele>
        <time>2013-08-29T18:25:38Z</time>
      </trkpt>
      <trkpt lat="18.968248972669244" lon="-98.477481678128242">
        <ele>2140.0322265625</ele>
        <time>2013-08-29T18:25:40Z</time>
      </trkpt>
      <trkpt lat="18.968474948778749" lon="-98.477396685630083">
        <ele>2138.109375</ele>
        <time>2013-08-29T18:25:42Z</time>
      </trkpt>
      <trkpt lat="18.96908238530159" lon="-98.477434823289514">
        <ele>2135.7060546875</ele>
        <time>2013-08-29T18:25:47Z</time>
      </trkpt>
      <trkpt lat="18.969443896785378" lon="-98.477567760273814">
        <ele>2133.302734375</ele>
        <time>2013-08-29T18:25:50Z</time>
      </trkpt>
      <trkpt lat="18.969786046072841" lon="-98.477648561820388">
        <ele>2129.938232421875</ele>
        <time>2013-08-29T18:25:53Z</time>
      </trkpt>
      <trkpt lat="18.970002634450793" lon="-98.477665660902858">
        <ele>2129.45751953125</ele>
        <time>2013-08-29T18:25:55Z</time>
      </trkpt>
      <trkpt lat="18.970422651618719" lon="-98.477547392249107">
        <ele>2128.976806640625</ele>
        <time>2013-08-29T18:25:59Z</time>
      </trkpt>
      <trkpt lat="18.971524871885777" lon="-98.476835768669844">
        <ele>2131.86083984375</ele>
        <time>2013-08-29T18:26:09Z</time>
      </trkpt>
      <trkpt lat="18.972787018865347" lon="-98.476021634414792">
        <ele>2133.302734375</ele>
        <time>2013-08-29T18:26:19Z</time>
      </trkpt>
      <trkpt lat="18.973194798454642" lon="-98.475766070187092">
        <ele>2133.302734375</ele>
        <time>2013-08-29T18:26:23Z</time>
      </trkpt>
      <trkpt lat="18.973385067656636" lon="-98.475702786818147">
        <ele>2130.899658203125</ele>
        <time>2013-08-29T18:26:26Z</time>
      </trkpt>
      <trkpt lat="18.973645241931081" lon="-98.475802531465888">
        <ele>2132.822021484375</ele>
        <time>2013-08-29T18:26:31Z</time>
      </trkpt>
      <trkpt lat="18.973756637424231" lon="-98.475978719070554">
        <ele>2133.302734375</ele>
        <time>2013-08-29T18:26:34Z</time>
      </trkpt>
      <trkpt lat="18.973971046507359" lon="-98.476285161450505">
        <ele>2136.667236328125</ele>
        <time>2013-08-29T18:26:39Z</time>
      </trkpt>
      <trkpt lat="18.973913295194507" lon="-98.476631082594395">
        <ele>2138.109375</ele>
        <time>2013-08-29T18:26:45Z</time>
      </trkpt>
      <trkpt lat="18.973569050431252" lon="-98.476751027628779">
        <ele>2137.628662109375</ele>
        <time>2013-08-29T18:26:50Z</time>
      </trkpt>
      <trkpt lat="18.973448351025581" lon="-98.476965688169003">
        <ele>2138.590087890625</ele>
        <time>2013-08-29T18:26:54Z</time>
      </trkpt>
      <trkpt lat="18.973514987155795" lon="-98.47704816609621">
        <ele>2139.070556640625</ele>
        <time>2013-08-29T18:26:56Z</time>
      </trkpt>
      <trkpt lat="18.973613642156124" lon="-98.477076329290867">
        <ele>2140.993408203125</ele>
        <time>2013-08-29T18:26:58Z</time>
      </trkpt>
      <trkpt lat="18.973719337955117" lon="-98.477081945165992">
        <ele>2142.435546875</ele>
        <time>2013-08-29T18:27:00Z</time>
      </trkpt>
      <trkpt lat="18.973815059289336" lon="-98.477126033976674">
        <ele>2142.916015625</ele>
        <time>2013-08-29T18:27:02Z</time>
      </trkpt>
      <trkpt lat="18.973933663219213" lon="-98.477283865213394">
        <ele>2144.35791015625</ele>
        <time>2013-08-29T18:27:05Z</time>
      </trkpt>
      <trkpt lat="18.974180845543742" lon="-98.477695919573307">
        <ele>2148.683837890625</ele>
        <time>2013-08-29T18:27:11Z</time>
      </trkpt>
      <trkpt lat="18.974385531619191" lon="-98.478099256753922">
        <ele>2150.1259765625</ele>
        <time>2013-08-29T18:27:16Z</time>
      </trkpt>
      <trkpt lat="18.974945191293955" lon="-98.478438388556242">
        <ele>2149.645263671875</ele>
        <time>2013-08-29T18:27:23Z</time>
      </trkpt>
      <trkpt lat="18.975282646715641" lon="-98.478352138772607">
        <ele>2148.683837890625</ele>
        <time>2013-08-29T18:27:28Z</time>
      </trkpt>
      <trkpt lat="18.975551538169384" lon="-98.478154996410012">
        <ele>2149.16455078125</ele>
        <time>2013-08-29T18:27:33Z</time>
      </trkpt>
      <trkpt lat="18.975620772689581" lon="-98.478175783529878">
        <ele>2149.645263671875</ele>
        <time>2013-08-29T18:27:34Z</time>
      </trkpt>
      <trkpt lat="18.976225694641471" lon="-98.478235462680459">
        <ele>2148.683837890625</ele>
        <time>2013-08-29T18:27:42Z</time>
      </trkpt>
      <trkpt lat="18.976292833685875" lon="-98.478234624490142">
        <ele>2147.72265625</ele>
        <time>2013-08-29T18:27:43Z</time>
      </trkpt>
      <trkpt lat="18.976446138694882" lon="-98.478234792128205">
        <ele>2148.683837890625</ele>
        <time>2013-08-29T18:27:46Z</time>
      </trkpt>
      <trkpt lat="18.976689465343952" lon="-98.478347864001989">
        <ele>2149.16455078125</ele>
        <time>2013-08-29T18:27:52Z</time>
      </trkpt>
      <trkpt lat="18.976823491975665" lon="-98.478645756840706">
        <ele>2151.087158203125</ele>
        <time>2013-08-29T18:27:57Z</time>
      </trkpt>
      <trkpt lat="18.976775044575334" lon="-98.478945661336184">
        <ele>2152.529052734375</ele>
        <time>2013-08-29T18:28:02Z</time>
      </trkpt>
      <trkpt lat="18.976743444800377" lon="-98.479100139811635">
        <ele>2153.490478515625</ele>
        <time>2013-08-29T18:28:04Z</time>
      </trkpt>
      <trkpt lat="18.976731291040778" lon="-98.479374395683408">
        <ele>2153.97119140625</ele>
        <time>2013-08-29T18:28:07Z</time>
      </trkpt>
      <trkpt lat="18.976769931614399" lon="-98.479639096185565">
        <ele>2155.8935546875</ele>
        <time>2013-08-29T18:28:10Z</time>
      </trkpt>
      <trkpt lat="18.976928098127246" lon="-98.480302942916751">
        <ele>2155.4130859375</ele>
        <time>2013-08-29T18:28:17Z</time>
      </trkpt>
      <trkpt lat="18.977006720378995" lon="-98.480656491592526">
        <ele>2158.297119140625</ele>
        <time>2013-08-29T18:28:21Z</time>
      </trkpt>
      <trkpt lat="18.977044774219394" lon="-98.480791859328747">
        <ele>2157.3359375</ele>
        <time>2013-08-29T18:28:23Z</time>
      </trkpt>
      <trkpt lat="18.97722783498466" lon="-98.48097525537014">
        <ele>2158.297119140625</ele>
        <time>2013-08-29T18:28:27Z</time>
      </trkpt>
      <trkpt lat="18.977302853018045" lon="-98.480992689728737">
        <ele>2158.297119140625</ele>
        <time>2013-08-29T18:28:28Z</time>
      </trkpt>
      <trkpt lat="18.977464288473129" lon="-98.481033341959119">
        <ele>2159.258544921875</ele>
        <time>2013-08-29T18:28:30Z</time>
      </trkpt>
      <trkpt lat="18.977726474404335" lon="-98.481077598407865">
        <ele>2160.700439453125</ele>
        <time>2013-08-29T18:28:33Z</time>
      </trkpt>
      <trkpt lat="18.978129476308823" lon="-98.480918342247605">
        <ele>2163.584228515625</ele>
        <time>2013-08-29T18:28:38Z</time>
      </trkpt>
      <trkpt lat="18.978262832388282" lon="-98.480791356414557">
        <ele>2164.545654296875</ele>
        <time>2013-08-29T18:28:40Z</time>
      </trkpt>
      <trkpt lat="18.978737499564886" lon="-98.480258183553815">
        <ele>2165.987548828125</ele>
        <time>2013-08-29T18:28:48Z</time>
      </trkpt>
      <trkpt lat="18.978782761842012" lon="-98.480214178562164">
        <ele>2165.507080078125</ele>
        <time>2013-08-29T18:28:49Z</time>
      </trkpt>
      <trkpt lat="18.978985268622637" lon="-98.480139998719096">
        <ele>2167.91015625</ele>
        <time>2013-08-29T18:28:53Z</time>
      </trkpt>
      <trkpt lat="18.979120384901762" lon="-98.48007277585566">
        <ele>2168.87158203125</ele>
        <time>2013-08-29T18:28:56Z</time>
      </trkpt>
      <trkpt lat="18.979233372956514" lon="-98.479958279058337">
        <ele>2170.3134765625</ele>
        <time>2013-08-29T18:28:59Z</time>
      </trkpt>
      <trkpt lat="18.979242173954844" lon="-98.480087276548147">
        <ele>2171.274658203125</ele>
        <time>2013-08-29T18:29:06Z</time>
      </trkpt>
      <trkpt lat="18.979039248079062" lon="-98.480330016463995">
        <ele>2174.6396484375</ele>
        <time>2013-08-29T18:29:11Z</time>
      </trkpt>
      <trkpt lat="18.978831544518471" lon="-98.480574684217572">
        <ele>2178.48486328125</ele>
        <time>2013-08-29T18:29:15Z</time>
      </trkpt>
      <trkpt lat="18.978778487071395" lon="-98.480646768584847">
        <ele>2178.96533203125</ele>
        <time>2013-08-29T18:29:16Z</time>
      </trkpt>
      <trkpt lat="18.978675724938512" lon="-98.480799738317728">
        <ele>2178.96533203125</ele>
        <time>2013-08-29T18:29:18Z</time>
      </trkpt>
      <trkpt lat="18.978553265333176" lon="-98.48105295561254">
        <ele>2180.407470703125</ele>
        <time>2013-08-29T18:29:21Z</time>
      </trkpt>
      <trkpt lat="18.97809318266809" lon="-98.481343891471624">
        <ele>2184.252685546875</ele>
        <time>2013-08-29T18:29:27Z</time>
      </trkpt>
      <trkpt lat="18.97791925817728" lon="-98.481420921161771">
        <ele>2185.2138671875</ele>
        <time>2013-08-29T18:29:29Z</time>
      </trkpt>
      <trkpt lat="18.977841222658753" lon="-98.481449587270617">
        <ele>2185.2138671875</ele>
        <time>2013-08-29T18:29:30Z</time>
      </trkpt>
      <trkpt lat="18.977448949590325" lon="-98.481465764343739">
        <ele>2186.65576171875</ele>
        <time>2013-08-29T18:29:34Z</time>
      </trkpt>
      <trkpt lat="18.97637665271759" lon="-98.481152197346091">
        <ele>2187.6171875</ele>
        <time>2013-08-29T18:29:42Z</time>
      </trkpt>
      <trkpt lat="18.976084375753999" lon="-98.481059744954109">
        <ele>2188.578857421875</ele>
        <time>2013-08-29T18:29:44Z</time>
      </trkpt>
      <trkpt lat="18.975355988368392" lon="-98.48084919154644">
        <ele>2191.462646484375</ele>
        <time>2013-08-29T18:29:49Z</time>
      </trkpt>
      <trkpt lat="18.974544033408165" lon="-98.4806561563164">
        <ele>2191.462646484375</ele>
        <time>2013-08-29T18:29:55Z</time>
      </trkpt>
      <trkpt lat="18.974349992349744" lon="-98.480587173253298">
        <ele>2191.462646484375</ele>
        <time>2013-08-29T18:29:57Z</time>
      </trkpt>
      <trkpt lat="18.974184365943074" lon="-98.480600751936436">
        <ele>2190.020751953125</ele>
        <time>2013-08-29T18:30:01Z</time>
      </trkpt>
      <trkpt lat="18.974145976826549" lon="-98.480695467442274">
        <ele>2191.462646484375</ele>
        <time>2013-08-29T18:30:04Z</time>
      </trkpt>
      <trkpt lat="18.974115047603846" lon="-98.480753134936094">
        <ele>2191.943359375</ele>
        <time>2013-08-29T18:30:06Z</time>
      </trkpt>
      <trkpt lat="18.973904075101018" lon="-98.480780459940434">
        <ele>2191.462646484375</ele>
        <time>2013-08-29T18:30:12Z</time>
      </trkpt>
      <trkpt lat="18.97385043092072" lon="-98.48079739138484">
        <ele>2190.501220703125</ele>
        <time>2013-08-29T18:30:15Z</time>
      </trkpt>
      <trkpt lat="18.97384992800653" lon="-98.480794373899698">
        <ele>2190.020751953125</ele>
        <time>2013-08-29T18:30:24Z</time>
      </trkpt>
      <trkpt lat="18.973860573023558" lon="-98.480794625356793">
        <ele>2190.98193359375</ele>
        <time>2013-08-29T18:30:35Z</time>
      </trkpt>
      <trkpt lat="18.973902985453606" lon="-98.480866458266973">
        <ele>2191.462646484375</ele>
        <time>2013-08-29T18:30:45Z</time>
      </trkpt>
      <trkpt lat="18.973984541371465" lon="-98.480908954516053">
        <ele>2192.904541015625</ele>
        <time>2013-08-29T18:30:58Z</time>
      </trkpt>
      <trkpt lat="18.973986636847258" lon="-98.480909457430243">
        <ele>2193.865966796875</ele>
        <time>2013-08-29T18:30:59Z</time>
      </trkpt>
      <trkpt lat="18.974052770063281" lon="-98.480930831283331">
        <ele>2194.346435546875</ele>
        <time>2013-08-29T18:31:03Z</time>
      </trkpt>
      <trkpt lat="18.974235160276294" lon="-98.480929993093014">
        <ele>2194.8271484375</ele>
        <time>2013-08-29T18:31:08Z</time>
      </trkpt>
      <trkpt lat="18.974294671788812" lon="-98.48108178935945">
        <ele>2197.23046875</ele>
        <time>2013-08-29T18:31:14Z</time>
      </trkpt>
      <trkpt lat="18.974187718704343" lon="-98.481324277818203">
        <ele>2197.23046875</ele>
        <time>2013-08-29T18:31:19Z</time>
      </trkpt>
      <trkpt lat="18.97412845864892" lon="-98.48140524700284">
        <ele>2197.23046875</ele>
        <time>2013-08-29T18:31:21Z</time>
      </trkpt>
      <trkpt lat="18.974100043997169" lon="-98.481721747666597">
        <ele>2200.114501953125</ele>
        <time>2013-08-29T18:31:28Z</time>
      </trkpt>
      <trkpt lat="18.974101385101676" lon="-98.481764746829867">
        <ele>2200.114501953125</ele>
        <time>2013-08-29T18:31:29Z</time>
      </trkpt>
      <trkpt lat="18.974132817238569" lon="-98.481955518946052">
        <ele>2201.556396484375</ele>
        <time>2013-08-29T18:31:35Z</time>
      </trkpt>
      <trkpt lat="18.974120328202844" lon="-98.482224997133017">
        <ele>2202.036865234375</ele>
        <time>2013-08-29T18:31:42Z</time>
      </trkpt>
      <trkpt lat="18.97410842590034" lon="-98.482433538883924">
        <ele>2201.556396484375</ele>
        <time>2013-08-29T18:31:48Z</time>
      </trkpt>
      <trkpt lat="18.97397599183023" lon="-98.482521967962384">
        <ele>2199.6337890625</ele>
        <time>2013-08-29T18:31:51Z</time>
      </trkpt>
      <trkpt lat="18.973644739016891" lon="-98.482551891356707">
        <ele>2198.67236328125</ele>
        <time>2013-08-29T18:31:57Z</time>
      </trkpt>
      <trkpt lat="18.973512472584844" lon="-98.482638224959373">
        <ele>2200.114501953125</ele>
        <time>2013-08-29T18:32:00Z</time>
      </trkpt>
      <trkpt lat="18.973456984385848" lon="-98.48290384747088">
        <ele>2202.517578125</ele>
        <time>2013-08-29T18:32:05Z</time>
      </trkpt>
      <trkpt lat="18.973352964967489" lon="-98.483022870495915">
        <ele>2204.921142578125</ele>
        <time>2013-08-29T18:32:08Z</time>
      </trkpt>
      <trkpt lat="18.973271828144789" lon="-98.483210625126958">
        <ele>2207.80517578125</ele>
        <time>2013-08-29T18:32:13Z</time>
      </trkpt>
      <trkpt lat="18.973363861441612" lon="-98.483280530199409">
        <ele>2210.68896484375</ele>
        <time>2013-08-29T18:32:16Z</time>
      </trkpt>
      <trkpt lat="18.973398730158806" lon="-98.4832947794348">
        <ele>2211.169677734375</ele>
        <time>2013-08-29T18:32:17Z</time>
      </trkpt>
      <trkpt lat="18.973520519211888" lon="-98.483331492170691">
        <ele>2213.57275390625</ele>
        <time>2013-08-29T18:32:20Z</time>
      </trkpt>
      <trkpt lat="18.973656557500362" lon="-98.483381699770689">
        <ele>2213.57275390625</ele>
        <time>2013-08-29T18:32:26Z</time>
      </trkpt>
      <trkpt lat="18.973694192245603" lon="-98.483427464962006">
        <ele>2214.5341796875</ele>
        <time>2013-08-29T18:32:34Z</time>
      </trkpt>
      <trkpt lat="18.973890077322721" lon="-98.483601389452815">
        <ele>2215.49560546875</ele>
        <time>2013-08-29T18:32:42Z</time>
      </trkpt>
      <trkpt lat="18.974006753414869" lon="-98.483757041394711">
        <ele>2214.5341796875</ele>
        <time>2013-08-29T18:32:47Z</time>
      </trkpt>
      <trkpt lat="18.973929388448596" lon="-98.484058035537601">
        <ele>2216.456787109375</ele>
        <time>2013-08-29T18:32:53Z</time>
      </trkpt>
      <trkpt lat="18.973906589671969" lon="-98.484116876497865">
        <ele>2216.456787109375</ele>
        <time>2013-08-29T18:32:54Z</time>
      </trkpt>
      <trkpt lat="18.97387096658349" lon="-98.484331872314215">
        <ele>2216.456787109375</ele>
        <time>2013-08-29T18:32:59Z</time>
      </trkpt>
      <trkpt lat="18.973891250789165" lon="-98.48440202884376">
        <ele>2214.5341796875</ele>
        <time>2013-08-29T18:33:01Z</time>
      </trkpt>
      <trkpt lat="18.974132565781474" lon="-98.484770078212023">
        <ele>2215.97607421875</ele>
        <time>2013-08-29T18:33:08Z</time>
      </trkpt>
      <trkpt lat="18.974158298224211" lon="-98.484825985506177">
        <ele>2215.49560546875</ele>
        <time>2013-08-29T18:33:09Z</time>
      </trkpt>
      <trkpt lat="18.974215965718031" lon="-98.484940566122532">
        <ele>2215.014892578125</ele>
        <time>2013-08-29T18:33:11Z</time>
      </trkpt>
      <trkpt lat="18.974483599886298" lon="-98.485191771760583">
        <ele>2218.37939453125</ele>
        <time>2013-08-29T18:33:16Z</time>
      </trkpt>
      <trkpt lat="18.974637743085623" lon="-98.485257234424353">
        <ele>2217.898681640625</ele>
        <time>2013-08-29T18:33:18Z</time>
      </trkpt>
      <trkpt lat="18.974958686158061" lon="-98.485389919951558">
        <ele>2219.3408203125</ele>
        <time>2013-08-29T18:33:22Z</time>
      </trkpt>
      <trkpt lat="18.975292453542352" lon="-98.485624445602298">
        <ele>2221.263427734375</ele>
        <time>2013-08-29T18:33:27Z</time>
      </trkpt>
      <trkpt lat="18.975397562608123" lon="-98.485717987641692">
        <ele>2221.744140625</ele>
        <time>2013-08-29T18:33:29Z</time>
      </trkpt>
      <trkpt lat="18.975588670000434" lon="-98.485869029536843">
        <ele>2221.263427734375</ele>
        <time>2013-08-29T18:33:36Z</time>
      </trkpt>
      <trkpt lat="18.975739376619458" lon="-98.485961984843016">
        <ele>2224.628173828125</ele>
        <time>2013-08-29T18:33:41Z</time>
      </trkpt>
      <trkpt lat="18.975782627239823" lon="-98.486050665378571">
        <ele>2225.58935546875</ele>
        <time>2013-08-29T18:33:43Z</time>
      </trkpt>
      <trkpt lat="18.975888825953007" lon="-98.486300362274051">
        <ele>2227.031494140625</ele>
        <time>2013-08-29T18:33:47Z</time>
      </trkpt>
      <trkpt lat="18.975956467911601" lon="-98.486562799662352">
        <ele>2226.070068359375</ele>
        <time>2013-08-29T18:33:50Z</time>
      </trkpt>
      <trkpt lat="18.975998377427459" lon="-98.486719541251659">
        <ele>2226.070068359375</ele>
        <time>2013-08-29T18:33:52Z</time>
      </trkpt>
      <trkpt lat="18.97603995166719" lon="-98.486868655309081">
        <ele>2227.511962890625</ele>
        <time>2013-08-29T18:33:54Z</time>
      </trkpt>
      <trkpt lat="18.976059230044484" lon="-98.486947864294052">
        <ele>2228.473388671875</ele>
        <time>2013-08-29T18:33:55Z</time>
      </trkpt>
      <trkpt lat="18.976374724879861" lon="-98.487612716853619">
        <ele>2227.511962890625</ele>
        <time>2013-08-29T18:34:03Z</time>
      </trkpt>
      <trkpt lat="18.976444629952312" lon="-98.48778722807765">
        <ele>2230.39599609375</ele>
        <time>2013-08-29T18:34:05Z</time>
      </trkpt>
      <trkpt lat="18.976429542526603" lon="-98.488129545003176">
        <ele>2228.473388671875</ele>
        <time>2013-08-29T18:34:09Z</time>
      </trkpt>
      <trkpt lat="18.976502967998385" lon="-98.488447386771441">
        <ele>2230.39599609375</ele>
        <time>2013-08-29T18:34:14Z</time>
      </trkpt>
      <trkpt lat="18.976546721532941" lon="-98.488497259095311">
        <ele>2229.4345703125</ele>
        <time>2013-08-29T18:34:15Z</time>
      </trkpt>
      <trkpt lat="18.977013844996691" lon="-98.489077538251877">
        <ele>2229.4345703125</ele>
        <time>2013-08-29T18:34:24Z</time>
      </trkpt>
      <trkpt lat="18.977211238816381" lon="-98.489235285669565">
        <ele>2227.99267578125</ele>
        <time>2013-08-29T18:34:27Z</time>
      </trkpt>
      <trkpt lat="18.977426989004016" lon="-98.489383729174733">
        <ele>2231.357177734375</ele>
        <time>2013-08-29T18:34:30Z</time>
      </trkpt>
      <trkpt lat="18.977579539641738" lon="-98.489476181566715">
        <ele>2232.318603515625</ele>
        <time>2013-08-29T18:34:32Z</time>
      </trkpt>
      <trkpt lat="18.9778146520257" lon="-98.489500656723976">
        <ele>2233.760498046875</ele>
        <time>2013-08-29T18:34:35Z</time>
      </trkpt>
      <trkpt lat="18.977945577353239" lon="-98.489506775513291">
        <ele>2232.318603515625</ele>
        <time>2013-08-29T18:34:37Z</time>
      </trkpt>
      <trkpt lat="18.978127548471093" lon="-98.489619344472885">
        <ele>2233.27978515625</ele>
        <time>2013-08-29T18:34:41Z</time>
      </trkpt>
      <trkpt lat="18.978527951985598" lon="-98.489825958386064">
        <ele>2233.760498046875</ele>
        <time>2013-08-29T18:34:48Z</time>
      </trkpt>
      <trkpt lat="18.978695338591933" lon="-98.490080181509256">
        <ele>2234.2412109375</ele>
        <time>2013-08-29T18:34:52Z</time>
      </trkpt>
      <trkpt lat="18.978759124875069" lon="-98.490233235061169">
        <ele>2234.721923828125</ele>
        <time>2013-08-29T18:34:54Z</time>
      </trkpt>
      <trkpt lat="18.978897677734494" lon="-98.490491816774011">
        <ele>2236.1640625</ele>
        <time>2013-08-29T18:34:58Z</time>
      </trkpt>
      <trkpt lat="18.979100771248341" lon="-98.490678481757641">
        <ele>2239.528564453125</ele>
        <time>2013-08-29T18:35:02Z</time>
      </trkpt>
      <trkpt lat="18.979232618585229" lon="-98.49077713675797">
        <ele>2239.0478515625</ele>
        <time>2013-08-29T18:35:04Z</time>
      </trkpt>
      <trkpt lat="18.979434622451663" lon="-98.491133535280824">
        <ele>2238.5673828125</ele>
        <time>2013-08-29T18:35:10Z</time>
      </trkpt>
      <trkpt lat="18.979567140340805" lon="-98.491298658773303">
        <ele>2239.528564453125</ele>
        <time>2013-08-29T18:35:13Z</time>
      </trkpt>
      <trkpt lat="18.979638470336795" lon="-98.491426231339574">
        <ele>2239.528564453125</ele>
        <time>2013-08-29T18:35:15Z</time>
      </trkpt>
      <trkpt lat="18.9799680467695" lon="-98.4916165843606">
        <ele>2239.528564453125</ele>
        <time>2013-08-29T18:35:22Z</time>
      </trkpt>
      <trkpt lat="18.980026468634605" lon="-98.491631671786308">
        <ele>2239.528564453125</ele>
        <time>2013-08-29T18:35:23Z</time>
      </trkpt>
      <trkpt lat="18.980416562408209" lon="-98.491581967100501">
        <ele>2241.451171875</ele>
        <time>2013-08-29T18:35:30Z</time>
      </trkpt>
      <trkpt lat="18.981056939810514" lon="-98.491170750930905">
        <ele>2244.3349609375</ele>
        <time>2013-08-29T18:35:39Z</time>
      </trkpt>
      <trkpt lat="18.981494391337037" lon="-98.490908397361636">
        <ele>2244.815673828125</ele>
        <time>2013-08-29T18:35:45Z</time>
      </trkpt>
      <trkpt lat="18.981997892260551" lon="-98.490543533116579">
        <ele>2245.777099609375</ele>
        <time>2013-08-29T18:35:53Z</time>
      </trkpt>
      <trkpt lat="18.982162177562714" lon="-98.490346558392048">
        <ele>2247.218994140625</ele>
        <time>2013-08-29T18:35:57Z</time>
      </trkpt>
      <trkpt lat="18.982312548905611" lon="-98.490242874249816">
        <ele>2247.69970703125</ele>
        <time>2013-08-29T18:36:00Z</time>
      </trkpt>
      <trkpt lat="18.982773888856173" lon="-98.489930061623454">
        <ele>2249.1416015625</ele>
        <time>2013-08-29T18:36:07Z</time>
      </trkpt>
      <trkpt lat="18.982950327917933" lon="-98.489693691954017">
        <ele>2247.218994140625</ele>
        <time>2013-08-29T18:36:12Z</time>
      </trkpt>
      <trkpt lat="18.983038673177361" lon="-98.48955555818975">
        <ele>2247.69970703125</ele>
        <time>2013-08-29T18:36:16Z</time>
      </trkpt>
      <trkpt lat="18.983048982918262" lon="-98.489530747756362">
        <ele>2247.69970703125</ele>
        <time>2013-08-29T18:36:24Z</time>
      </trkpt>
      <trkpt lat="18.983060717582703" lon="-98.489507781341672">
        <ele>2247.69970703125</ele>
        <time>2013-08-29T18:36:31Z</time>
      </trkpt>
      <trkpt lat="18.983115535229445" lon="-98.489489089697599">
        <ele>2249.622314453125</ele>
        <time>2013-08-29T18:36:41Z</time>
      </trkpt>
      <trkpt lat="18.98317982442677" lon="-98.489474337548018">
        <ele>2249.622314453125</ele>
        <time>2013-08-29T18:36:54Z</time>
      </trkpt>
      <trkpt lat="18.983205473050475" lon="-98.489482970908284">
        <ele>2250.58349609375</ele>
        <time>2013-08-29T18:36:57Z</time>
      </trkpt>
      <trkpt lat="18.983325753360987" lon="-98.489501159638166">
        <ele>2252.025634765625</ele>
        <time>2013-08-29T18:37:10Z</time>
      </trkpt>
      <trkpt lat="18.983457265421748" lon="-98.489541225135326">
        <ele>2253.948486328125</ele>
        <time>2013-08-29T18:37:23Z</time>
      </trkpt>
      <trkpt lat="18.983518369495869" lon="-98.489596545696259">
        <ele>2254.428955078125</ele>
        <time>2013-08-29T18:37:30Z</time>
      </trkpt>
      <trkpt lat="18.983587184920907" lon="-98.48965865559876">
        <ele>2253.948486328125</ele>
        <time>2013-08-29T18:37:43Z</time>
      </trkpt>
      <trkpt lat="18.983696568757296" lon="-98.489745995029807">
        <ele>2254.90966796875</ele>
        <time>2013-08-29T18:37:50Z</time>
      </trkpt>
      <trkpt lat="18.983830763027072" lon="-98.489810954779387">
        <ele>2254.428955078125</ele>
        <time>2013-08-29T18:37:57Z</time>
      </trkpt>
      <trkpt lat="18.983948780223727" lon="-98.489983035251498">
        <ele>2254.90966796875</ele>
        <time>2013-08-29T18:38:06Z</time>
      </trkpt>
      <trkpt lat="18.983991025015712" lon="-98.490061573684216">
        <ele>2254.90966796875</ele>
        <time>2013-08-29T18:38:08Z</time>
      </trkpt>
      <trkpt lat="18.984339963644743" lon="-98.490361226722598">
        <ele>2256.832275390625</ele>
        <time>2013-08-29T18:38:17Z</time>
      </trkpt>
      <trkpt lat="18.984806584194303" lon="-98.490749392658472">
        <ele>2259.716064453125</ele>
        <time>2013-08-29T18:38:29Z</time>
      </trkpt>
      <trkpt lat="18.984894258901477" lon="-98.490788955241442">
        <ele>2259.716064453125</ele>
        <time>2013-08-29T18:38:31Z</time>
      </trkpt>
      <trkpt lat="18.985151164233685" lon="-98.491000849753618">
        <ele>2262.119384765625</ele>
        <time>2013-08-29T18:38:40Z</time>
      </trkpt>
      <trkpt lat="18.985209753736854" lon="-98.491041837260127">
        <ele>2262.60009765625</ele>
        <time>2013-08-29T18:38:43Z</time>
      </trkpt>
      <trkpt lat="18.985285693779588" lon="-98.491112748160958">
        <ele>2264.522705078125</ele>
        <time>2013-08-29T18:38:47Z</time>
      </trkpt>
      <trkpt lat="18.985461797565222" lon="-98.491182317957282">
        <ele>2266.926025390625</ele>
        <time>2013-08-29T18:38:55Z</time>
      </trkpt>
      <trkpt lat="18.985514687374234" lon="-98.491201680153608">
        <ele>2267.406494140625</ele>
        <time>2013-08-29T18:38:57Z</time>
      </trkpt>
      <trkpt lat="18.98562247864902" lon="-98.491312740370631">
        <ele>2268.3681640625</ele>
        <time>2013-08-29T18:39:01Z</time>
      </trkpt>
      <trkpt lat="18.985757930204272" lon="-98.491430338472128">
        <ele>2268.3681640625</ele>
        <time>2013-08-29T18:39:05Z</time>
      </trkpt>
      <trkpt lat="18.985807299613953" lon="-98.491759160533547">
        <ele>2271.732666015625</ele>
        <time>2013-08-29T18:39:13Z</time>
      </trkpt>
      <trkpt lat="18.985806293785572" lon="-98.491779025644064">
        <ele>2271.732666015625</ele>
        <time>2013-08-29T18:39:14Z</time>
      </trkpt>
      <trkpt lat="18.98580227047205" lon="-98.491820180788636">
        <ele>2272.694091796875</ele>
        <time>2013-08-29T18:39:22Z</time>
      </trkpt>
      <trkpt lat="18.985783327370882" lon="-98.491972144693136">
        <ele>2273.1748046875</ele>
        <time>2013-08-29T18:39:27Z</time>
      </trkpt>
      <trkpt lat="18.985797241330147" lon="-98.492185296490788">
        <ele>2274.61669921875</ele>
        <time>2013-08-29T18:39:31Z</time>
      </trkpt>
      <trkpt lat="18.9858203753829" lon="-98.492341283708811">
        <ele>2274.61669921875</ele>
        <time>2013-08-29T18:39:34Z</time>
      </trkpt>
      <trkpt lat="18.985830936580896" lon="-98.492522751912475">
        <ele>2275.09716796875</ele>
        <time>2013-08-29T18:39:38Z</time>
      </trkpt>
      <trkpt lat="18.985911151394248" lon="-98.492733389139175">
        <ele>2275.09716796875</ele>
        <time>2013-08-29T18:39:42Z</time>
      </trkpt>
      <trkpt lat="18.986041070893407" lon="-98.493057265877724">
        <ele>2277.02001953125</ele>
        <time>2013-08-29T18:39:51Z</time>
      </trkpt>
      <trkpt lat="18.986109048128128" lon="-98.493183916434646">
        <ele>2278.9423828125</ele>
        <time>2013-08-29T18:39:59Z</time>
      </trkpt>
      <trkpt lat="18.986141234636307" lon="-98.493303945288062">
        <ele>2280.384521484375</ele>
        <time>2013-08-29T18:40:09Z</time>
      </trkpt>
      <trkpt lat="18.986200075596571" lon="-98.493410982191563">
        <ele>2281.826416015625</ele>
        <time>2013-08-29T18:40:18Z</time>
      </trkpt>
      <trkpt lat="18.986235363408923" lon="-98.493533777073026">
        <ele>2283.268310546875</ele>
        <time>2013-08-29T18:40:27Z</time>
      </trkpt>
      <trkpt lat="18.986274087801576" lon="-98.493734020739794">
        <ele>2285.191162109375</ele>
        <time>2013-08-29T18:40:33Z</time>
      </trkpt>
      <trkpt lat="18.986293030902743" lon="-98.493903083726764">
        <ele>2287.11376953125</ele>
        <time>2013-08-29T18:40:40Z</time>
      </trkpt>
      <trkpt lat="18.98633686825633" lon="-98.494096621870995">
        <ele>2288.0751953125</ele>
        <time>2013-08-29T18:40:47Z</time>
      </trkpt>
      <trkpt lat="18.986368635669351" lon="-98.494281694293022">
        <ele>2289.036376953125</ele>
        <time>2013-08-29T18:40:55Z</time>
      </trkpt>
      <trkpt lat="18.986453795805573" lon="-98.494515968486667">
        <ele>2291.92041015625</ele>
        <time>2013-08-29T18:41:02Z</time>
      </trkpt>
      <trkpt lat="18.986474331468344" lon="-98.494571121409535">
        <ele>2292.401123046875</ele>
        <time>2013-08-29T18:41:03Z</time>
      </trkpt>
      <trkpt lat="18.98650199174881" lon="-98.49463633261621">
        <ele>2292.401123046875</ele>
        <time>2013-08-29T18:41:04Z</time>
      </trkpt>
      <trkpt lat="18.986540799960494" lon="-98.494801623746753">
        <ele>2293.3623046875</ele>
        <time>2013-08-29T18:41:07Z</time>
      </trkpt>
      <trkpt lat="18.986629229038954" lon="-98.495032042264938">
        <ele>2296.246337890625</ele>
        <time>2013-08-29T18:41:13Z</time>
      </trkpt>
      <trkpt lat="18.986664852127433" lon="-98.495105048641562">
        <ele>2297.688232421875</ele>
        <time>2013-08-29T18:41:16Z</time>
      </trkpt>
      <trkpt lat="18.986650267615914" lon="-98.495168332010508">
        <ele>2300.091796875</ele>
        <time>2013-08-29T18:41:19Z</time>
      </trkpt>
      <trkpt lat="18.986610621213913" lon="-98.495274865999818">
        <ele>2299.61083984375</ele>
        <time>2013-08-29T18:41:27Z</time>
      </trkpt>
      <trkpt lat="18.986623529344797" lon="-98.495514756068587">
        <ele>2301.052978515625</ele>
        <time>2013-08-29T18:41:35Z</time>
      </trkpt>
      <trkpt lat="18.9866544585675" lon="-98.49580024369061">
        <ele>2303.93701171875</ele>
        <time>2013-08-29T18:41:42Z</time>
      </trkpt>
      <trkpt lat="18.98671749047935" lon="-98.496039882302284">
        <ele>2306.340087890625</ele>
        <time>2013-08-29T18:41:49Z</time>
      </trkpt>
      <trkpt lat="18.98672042414546" lon="-98.496136525645852">
        <ele>2306.82080078125</ele>
        <time>2013-08-29T18:41:51Z</time>
      </trkpt>
      <trkpt lat="18.986798794940114" lon="-98.496473142877221">
        <ele>2311.146728515625</ele>
        <time>2013-08-29T18:41:58Z</time>
      </trkpt>
      <trkpt lat="18.986818995326757" lon="-98.49650926887989">
        <ele>2311.62744140625</ele>
        <time>2013-08-29T18:41:59Z</time>
      </trkpt>
      <trkpt lat="18.986852942034602" lon="-98.496609097346663">
        <ele>2313.0693359375</ele>
        <time>2013-08-29T18:42:02Z</time>
      </trkpt>
      <trkpt lat="18.98685528896749" lon="-98.496633740141988">
        <ele>2313.0693359375</ele>
        <time>2013-08-29T18:42:09Z</time>
      </trkpt>
      <trkpt lat="18.986906837671995" lon="-98.496737843379378">
        <ele>2315.47265625</ele>
        <time>2013-08-29T18:42:21Z</time>
      </trkpt>
      <trkpt lat="18.986920332536101" lon="-98.496759887784719">
        <ele>2316.43408203125</ele>
        <time>2013-08-29T18:42:24Z</time>
      </trkpt>
      <trkpt lat="18.98694908246398" lon="-98.496792744845152">
        <ele>2316.914794921875</ele>
        <time>2013-08-29T18:42:28Z</time>
      </trkpt>
      <trkpt lat="18.986956123262644" lon="-98.496832642704248">
        <ele>2318.356689453125</ele>
        <time>2013-08-29T18:42:31Z</time>
      </trkpt>
      <trkpt lat="18.987008342519403" lon="-98.49689626134932">
        <ele>2319.798583984375</ele>
        <time>2013-08-29T18:42:42Z</time>
      </trkpt>
      <trkpt lat="18.987009851261973" lon="-98.496904727071524">
        <ele>2320.760009765625</ele>
        <time>2013-08-29T18:42:45Z</time>
      </trkpt>
      <trkpt lat="18.987155193462968" lon="-98.497091727331281">
        <ele>2321.72119140625</ele>
        <time>2013-08-29T18:42:52Z</time>
      </trkpt>
      <trkpt lat="18.987210346385837" lon="-98.497206056490541">
        <ele>2323.643798828125</ele>
        <time>2013-08-29T18:42:55Z</time>
      </trkpt>
      <trkpt lat="18.987218560650945" lon="-98.497296832501888">
        <ele>2325.085693359375</ele>
        <time>2013-08-29T18:42:57Z</time>
      </trkpt>
      <trkpt lat="18.987214034423232" lon="-98.497450640425086">
        <ele>2327.008544921875</ele>
        <time>2013-08-29T18:43:00Z</time>
      </trkpt>
      <trkpt lat="18.987339176237583" lon="-98.497745264321566">
        <ele>2332.2958984375</ele>
        <time>2013-08-29T18:43:05Z</time>
      </trkpt>
      <trkpt lat="18.987520057708025" lon="-98.497968725860119">
        <ele>2334.218505859375</ele>
        <time>2013-08-29T18:43:09Z</time>
      </trkpt>
      <trkpt lat="18.987559787929058" lon="-98.498021783307195">
        <ele>2334.218505859375</ele>
        <time>2013-08-29T18:43:10Z</time>
      </trkpt>
      <trkpt lat="18.98803043179214" lon="-98.49845889955759">
        <ele>2336.14111328125</ele>
        <time>2013-08-29T18:43:18Z</time>
      </trkpt>
      <trkpt lat="18.988401163369417" lon="-98.498883862048388">
        <ele>2336.62158203125</ele>
        <time>2013-08-29T18:43:26Z</time>
      </trkpt>
      <trkpt lat="18.988415244966745" lon="-98.498906241729856">
        <ele>2336.62158203125</ele>
        <time>2013-08-29T18:43:27Z</time>
      </trkpt>
      <trkpt lat="18.988391943275928" lon="-98.498920826241374">
        <ele>2334.69921875</ele>
        <time>2013-08-29T18:43:31Z</time>
      </trkpt>
      <trkpt lat="18.988407365977764" lon="-98.498994754627347">
        <ele>2336.14111328125</ele>
        <time>2013-08-29T18:43:40Z</time>
      </trkpt>
      <trkpt lat="18.988424465060234" lon="-98.499058876186609">
        <ele>2338.063720703125</ele>
        <time>2013-08-29T18:43:50Z</time>
      </trkpt>
      <trkpt lat="18.98848338983953" lon="-98.49910682067275">
        <ele>2339.505615234375</ele>
        <time>2013-08-29T18:44:00Z</time>
      </trkpt>
      <trkpt lat="18.988530747592449" lon="-98.499148227274418">
        <ele>2342.3896484375</ele>
        <time>2013-08-29T18:44:10Z</time>
      </trkpt>
      <trkpt lat="18.988559832796454" lon="-98.499179827049375">
        <ele>2342.8701171875</ele>
        <time>2013-08-29T18:44:21Z</time>
      </trkpt>
      <trkpt lat="18.988609872758389" lon="-98.4992113430053">
        <ele>2344.31201171875</ele>
        <time>2013-08-29T18:44:30Z</time>
      </trkpt>
      <trkpt lat="18.988660247996449" lon="-98.499238919466734">
        <ele>2345.754150390625</ele>
        <time>2013-08-29T18:44:39Z</time>
      </trkpt>
      <trkpt lat="18.988679023459554" lon="-98.499248391017318">
        <ele>2346.23486328125</ele>
        <time>2013-08-29T18:44:42Z</time>
      </trkpt>
      <trkpt lat="18.988768374547362" lon="-98.499307231977582">
        <ele>2347.6767578125</ele>
        <time>2013-08-29T18:44:47Z</time>
      </trkpt>
      <trkpt lat="18.988786898553371" lon="-98.499324917793274">
        <ele>2347.196044921875</ele>
        <time>2013-08-29T18:44:49Z</time>
      </trkpt>
      <trkpt lat="18.988982951268554" lon="-98.499417286366224">
        <ele>2350.560791015625</ele>
        <time>2013-08-29T18:44:58Z</time>
      </trkpt>
      <trkpt lat="18.989057298749685" lon="-98.499483084306121">
        <ele>2352.4833984375</ele>
        <time>2013-08-29T18:45:01Z</time>
      </trkpt>
      <trkpt lat="18.989189816638827" lon="-98.499628258869052">
        <ele>2353.44482421875</ele>
        <time>2013-08-29T18:45:08Z</time>
      </trkpt>
      <trkpt lat="18.989244047552347" lon="-98.499729093164206">
        <ele>2354.406005859375</ele>
        <time>2013-08-29T18:45:11Z</time>
      </trkpt>
      <trkpt lat="18.989308923482895" lon="-98.499893127009273">
        <ele>2355.367431640625</ele>
        <time>2013-08-29T18:45:14Z</time>
      </trkpt>
      <trkpt lat="18.98955199867487" lon="-98.500130753964186">
        <ele>2356.809326171875</ele>
        <time>2013-08-29T18:45:19Z</time>
      </trkpt>
      <trkpt lat="18.989986684173346" lon="-98.500376343727112">
        <ele>2358.251220703125</ele>
        <time>2013-08-29T18:45:28Z</time>
      </trkpt>
      <trkpt lat="18.990164967253804" lon="-98.500488828867674">
        <ele>2357.770751953125</ele>
        <time>2013-08-29T18:45:32Z</time>
      </trkpt>
      <trkpt lat="18.990328833460808" lon="-98.500637942925096">
        <ele>2359.693115234375</ele>
        <time>2013-08-29T18:45:36Z</time>
      </trkpt>
      <trkpt lat="18.990398989990354" lon="-98.500734586268663">
        <ele>2359.693115234375</ele>
        <time>2013-08-29T18:45:38Z</time>
      </trkpt>
      <trkpt lat="18.990561682730913" lon="-98.500908762216568">
        <ele>2361.615966796875</ele>
        <time>2013-08-29T18:45:42Z</time>
      </trkpt>
      <trkpt lat="18.990853037685156" lon="-98.501196429133415">
        <ele>2362.5771484375</ele>
        <time>2013-08-29T18:45:50Z</time>
      </trkpt>
      <trkpt lat="18.990889079868793" lon="-98.501237081363797">
        <ele>2363.057861328125</ele>
        <time>2013-08-29T18:45:58Z</time>
      </trkpt>
      <trkpt lat="18.990965271368623" lon="-98.501324756070971">
        <ele>2364.5</ele>
        <time>2013-08-29T18:46:09Z</time>
      </trkpt>
      <trkpt lat="18.991024782881141" lon="-98.501377226784825">
        <ele>2364.980712890625</ele>
        <time>2013-08-29T18:46:23Z</time>
      </trkpt>
      <trkpt lat="18.991051772609353" lon="-98.501405473798513">
        <ele>2366.9033203125</ele>
        <time>2013-08-29T18:46:54Z</time>
      </trkpt>
      <trkpt lat="18.991119163110852" lon="-98.501390973106027">
        <ele>2367.3837890625</ele>
        <time>2013-08-29T18:47:02Z</time>
      </trkpt>
      <trkpt lat="18.991181943565607" lon="-98.501394661143422">
        <ele>2369.787109375</ele>
        <time>2013-08-29T18:47:13Z</time>
      </trkpt>
      <trkpt lat="18.991181021556258" lon="-98.501390134915709">
        <ele>2370.267822265625</ele>
        <time>2013-08-29T18:47:17Z</time>
      </trkpt>
      <trkpt lat="18.991191498935223" lon="-98.501371359452605">
        <ele>2369.306640625</ele>
        <time>2013-08-29T18:47:30Z</time>
      </trkpt>
      <trkpt lat="18.991298787295818" lon="-98.501412598416209">
        <ele>2371.22900390625</ele>
        <time>2013-08-29T18:47:35Z</time>
      </trkpt>
      <trkpt lat="18.991438848897815" lon="-98.501448053866625">
        <ele>2373.63232421875</ele>
        <time>2013-08-29T18:47:39Z</time>
      </trkpt>
      <trkpt lat="18.991535324603319" lon="-98.501522233709693">
        <ele>2374.59375</ele>
        <time>2013-08-29T18:47:45Z</time>
      </trkpt>
      <trkpt lat="18.991565750911832" lon="-98.501576045528054">
        <ele>2375.554931640625</ele>
        <time>2013-08-29T18:47:48Z</time>
      </trkpt>
      <trkpt lat="18.991577066481113" lon="-98.501659277826548">
        <ele>2377.4775390625</ele>
        <time>2013-08-29T18:47:52Z</time>
      </trkpt>
      <trkpt lat="18.991614952683449" lon="-98.501707641407847">
        <ele>2377.4775390625</ele>
        <time>2013-08-29T18:47:54Z</time>
      </trkpt>
      <trkpt lat="18.991804886609316" lon="-98.501853737980127">
        <ele>2377.4775390625</ele>
        <time>2013-08-29T18:48:00Z</time>
      </trkpt>
      <trkpt lat="18.991885436698794" lon="-98.501915093511343">
        <ele>2377.4775390625</ele>
        <time>2013-08-29T18:48:02Z</time>
      </trkpt>
      <trkpt lat="18.991975374519825" lon="-98.501993883401155">
        <ele>2378.91943359375</ele>
        <time>2013-08-29T18:48:04Z</time>
      </trkpt>
      <trkpt lat="18.992222473025322" lon="-98.502190690487623">
        <ele>2379.400146484375</ele>
        <time>2013-08-29T18:48:11Z</time>
      </trkpt>
      <trkpt lat="18.992327246814966" lon="-98.502265457063913">
        <ele>2381.322998046875</ele>
        <time>2013-08-29T18:48:16Z</time>
      </trkpt>
      <trkpt lat="18.992404695600271" lon="-98.502368051558733">
        <ele>2382.284423828125</ele>
        <time>2013-08-29T18:48:22Z</time>
      </trkpt>
      <trkpt lat="18.992574093863368" lon="-98.502466874197125">
        <ele>2384.687744140625</ele>
        <time>2013-08-29T18:48:29Z</time>
      </trkpt>
      <trkpt lat="18.992662858217955" lon="-98.502529822289944">
        <ele>2386.129638671875</ele>
        <time>2013-08-29T18:48:34Z</time>
      </trkpt>
      <trkpt lat="18.992890929803252" lon="-98.502622274681926">
        <ele>2391.416748046875</ele>
        <time>2013-08-29T18:48:43Z</time>
      </trkpt>
      <trkpt lat="18.992927391082048" lon="-98.502638284116983">
        <ele>2391.416748046875</ele>
        <time>2013-08-29T18:48:44Z</time>
      </trkpt>
      <trkpt lat="18.993094442412257" lon="-98.50272755138576">
        <ele>2391.8974609375</ele>
        <time>2013-08-29T18:48:48Z</time>
      </trkpt>
      <trkpt lat="18.99325093254447" lon="-98.502854118123651">
        <ele>2394.300537109375</ele>
        <time>2013-08-29T18:48:53Z</time>
      </trkpt>
      <trkpt lat="18.993633231148124" lon="-98.503132481127977">
        <ele>2394.300537109375</ele>
        <time>2013-08-29T18:49:01Z</time>
      </trkpt>
      <trkpt lat="18.99365309625864" lon="-98.503140527755022">
        <ele>2395.261962890625</ele>
        <time>2013-08-29T18:49:02Z</time>
      </trkpt>
      <trkpt lat="18.993697939440608" lon="-98.50329827517271">
        <ele>2398.626708984375</ele>
        <time>2013-08-29T18:49:08Z</time>
      </trkpt>
      <trkpt lat="18.993800869211555" lon="-98.503412017598748">
        <ele>2399.107421875</ele>
        <time>2013-08-29T18:49:11Z</time>
      </trkpt>
      <trkpt lat="18.99402785114944" lon="-98.503588037565351">
        <ele>2399.588134765625</ele>
        <time>2013-08-29T18:49:16Z</time>
      </trkpt>
      <trkpt lat="18.994147377088666" lon="-98.503686022013426">
        <ele>2400.06884765625</ele>
        <time>2013-08-29T18:49:19Z</time>
      </trkpt>
      <trkpt lat="18.994280230253935" lon="-98.503824323415756">
        <ele>2398.626708984375</ele>
        <time>2013-08-29T18:49:22Z</time>
      </trkpt>
      <trkpt lat="18.994425069540739" lon="-98.504143254831433">
        <ele>2398.14599609375</ele>
        <time>2013-08-29T18:49:27Z</time>
      </trkpt>
      <trkpt lat="18.994490196928382" lon="-98.504194971174002">
        <ele>2396.7041015625</ele>
        <time>2013-08-29T18:49:29Z</time>
      </trkpt>
      <trkpt lat="18.994619362056255" lon="-98.504142919555306">
        <ele>2398.14599609375</ele>
        <time>2013-08-29T18:49:32Z</time>
      </trkpt>
      <trkpt lat="18.994714329019189" lon="-98.504069494083524">
        <ele>2399.107421875</ele>
        <time>2013-08-29T18:49:34Z</time>
      </trkpt>
      <trkpt lat="18.995179189369082" lon="-98.503771936520934">
        <ele>2401.9912109375</ele>
        <time>2013-08-29T18:49:43Z</time>
      </trkpt>
      <trkpt lat="18.995377672836185" lon="-98.50360706448555">
        <ele>2405.35595703125</ele>
        <time>2013-08-29T18:49:47Z</time>
      </trkpt>
      <trkpt lat="18.995563918724656" lon="-98.50352643057704">
        <ele>2408.23974609375</ele>
        <time>2013-08-29T18:49:51Z</time>
      </trkpt>
      <trkpt lat="18.99575904943049" lon="-98.50346876308322">
        <ele>2408.23974609375</ele>
        <time>2013-08-29T18:49:54Z</time>
      </trkpt>
      <trkpt lat="18.996066162362695" lon="-98.503326438367367">
        <ele>2407.278564453125</ele>
        <time>2013-08-29T18:49:59Z</time>
      </trkpt>
      <trkpt lat="18.996192226186395" lon="-98.503285869956017">
        <ele>2406.7978515625</ele>
        <time>2013-08-29T18:50:01Z</time>
      </trkpt>
      <trkpt lat="18.996519958600402" lon="-98.503153771162033">
        <ele>2407.75927734375</ele>
        <time>2013-08-29T18:50:07Z</time>
      </trkpt>
      <trkpt lat="18.997039468958974" lon="-98.503285869956017">
        <ele>2408.720458984375</ele>
        <time>2013-08-29T18:50:14Z</time>
      </trkpt>
      <trkpt lat="18.99711649864912" lon="-98.503321073949337">
        <ele>2409.201171875</ele>
        <time>2013-08-29T18:50:15Z</time>
      </trkpt>
      <trkpt lat="18.997395029291511" lon="-98.503484185785055">
        <ele>2411.6044921875</ele>
        <time>2013-08-29T18:50:19Z</time>
      </trkpt>
      <trkpt lat="18.997529475018382" lon="-98.503575967624784">
        <ele>2410.64306640625</ele>
        <time>2013-08-29T18:50:21Z</time>
      </trkpt>
      <trkpt lat="18.997848825529218" lon="-98.50369549356401">
        <ele>2413.527099609375</ele>
        <time>2013-08-29T18:50:26Z</time>
      </trkpt>
      <trkpt lat="18.998016798868775" lon="-98.503828262910247">
        <ele>2414.96923828125</ele>
        <time>2013-08-29T18:50:29Z</time>
      </trkpt>
      <trkpt lat="18.998106988146901" lon="-98.50396622903645">
        <ele>2414.96923828125</ele>
        <time>2013-08-29T18:50:31Z</time>
      </trkpt>
      <trkpt lat="18.998271776363254" lon="-98.504387922585011">
        <ele>2415.449951171875</ele>
        <time>2013-08-29T18:50:36Z</time>
      </trkpt>
      <trkpt lat="18.998380657285452" lon="-98.504720767959952">
        <ele>2413.527099609375</ele>
        <time>2013-08-29T18:50:40Z</time>
      </trkpt>
      <trkpt lat="18.99833656847477" lon="-98.504959652200341">
        <ele>2414.0078125</ele>
        <time>2013-08-29T18:50:44Z</time>
      </trkpt>
      <trkpt lat="18.998161554336548" lon="-98.505293084308505">
        <ele>2414.0078125</ele>
        <time>2013-08-29T18:50:49Z</time>
      </trkpt>
      <trkpt lat="18.99808494374156" lon="-98.505575554445386">
        <ele>2412.085205078125</ele>
        <time>2013-08-29T18:50:52Z</time>
      </trkpt>
      <trkpt lat="18.998020486906171" lon="-98.505733050405979">
        <ele>2414.0078125</ele>
        <time>2013-08-29T18:50:54Z</time>
      </trkpt>
      <trkpt lat="18.997949324548244" lon="-98.505963049829006">
        <ele>2412.085205078125</ele>
        <time>2013-08-29T18:50:57Z</time>
      </trkpt>
      <trkpt lat="18.997840695083141" lon="-98.506742734462023">
        <ele>2414.0078125</ele>
        <time>2013-08-29T18:51:05Z</time>
      </trkpt>
      <trkpt lat="18.997767940163612" lon="-98.50704506970942">
        <ele>2415.449951171875</ele>
        <time>2013-08-29T18:51:08Z</time>
      </trkpt>
      <trkpt lat="18.997552944347262" lon="-98.507704390212893">
        <ele>2416.891845703125</ele>
        <time>2013-08-29T18:51:15Z</time>
      </trkpt>
      <trkpt lat="18.997450517490506" lon="-98.507992476224899">
        <ele>2415.930419921875</ele>
        <time>2013-08-29T18:51:18Z</time>
      </trkpt>
      <trkpt lat="18.997415481135249" lon="-98.508144188672304">
        <ele>2415.449951171875</ele>
        <time>2013-08-29T18:51:20Z</time>
      </trkpt>
      <trkpt lat="18.997448086738586" lon="-98.508397070690989">
        <ele>2418.814453125</ele>
        <time>2013-08-29T18:51:25Z</time>
      </trkpt>
      <trkpt lat="18.99751371704042" lon="-98.508681384846568">
        <ele>2415.449951171875</ele>
        <time>2013-08-29T18:51:30Z</time>
      </trkpt>
      <trkpt lat="18.997513465583324" lon="-98.508929070085287">
        <ele>2411.6044921875</ele>
        <time>2013-08-29T18:51:34Z</time>
      </trkpt>
      <trkpt lat="18.997578592970967" lon="-98.509063683450222">
        <ele>2409.681640625</ele>
        <time>2013-08-29T18:51:37Z</time>
      </trkpt>
      <trkpt lat="18.997597368434072" lon="-98.509522592648864">
        <ele>2406.317138671875</ele>
        <time>2013-08-29T18:51:43Z</time>
      </trkpt>
      <trkpt lat="18.99753525853157" lon="-98.509707245975733">
        <ele>2404.875244140625</ele>
        <time>2013-08-29T18:51:45Z</time>
      </trkpt>
      <trkpt lat="18.997339373454452" lon="-98.510009497404099">
        <ele>2404.39453125</ele>
        <time>2013-08-29T18:51:49Z</time>
      </trkpt>
      <trkpt lat="18.997254883870482" lon="-98.510233629494905">
        <ele>2403.9140625</ele>
        <time>2013-08-29T18:51:52Z</time>
      </trkpt>
      <trkpt lat="18.997189421206713" lon="-98.510588016360998">
        <ele>2404.39453125</ele>
        <time>2013-08-29T18:51:57Z</time>
      </trkpt>
      <trkpt lat="18.997200066223741" lon="-98.5107087995857">
        <ele>2404.39453125</ele>
        <time>2013-08-29T18:51:59Z</time>
      </trkpt>
      <trkpt lat="18.997226720675826" lon="-98.510834779590368">
        <ele>2402.471923828125</ele>
        <time>2013-08-29T18:52:01Z</time>
      </trkpt>
      <trkpt lat="18.997331075370312" lon="-98.511071735993028">
        <ele>2399.588134765625</ele>
        <time>2013-08-29T18:52:06Z</time>
      </trkpt>
      <trkpt lat="18.997399555519223" lon="-98.511131331324577">
        <ele>2398.626708984375</ele>
        <time>2013-08-29T18:52:09Z</time>
      </trkpt>
      <trkpt lat="18.99757431820035" lon="-98.511242559179664">
        <ele>2395.261962890625</ele>
        <time>2013-08-29T18:52:15Z</time>
      </trkpt>
      <trkpt lat="18.997604995965958" lon="-98.511269968003035">
        <ele>2395.261962890625</ele>
        <time>2013-08-29T18:52:16Z</time>
      </trkpt>
      <trkpt lat="18.997676493600011" lon="-98.511480856686831">
        <ele>2394.300537109375</ele>
        <time>2013-08-29T18:52:20Z</time>
      </trkpt>
      <trkpt lat="18.997675655409694" lon="-98.51166358217597">
        <ele>2393.33935546875</ele>
        <time>2013-08-29T18:52:23Z</time>
      </trkpt>
      <trkpt lat="18.997546238824725" lon="-98.511798446998">
        <ele>2394.300537109375</ele>
        <time>2013-08-29T18:52:29Z</time>
      </trkpt>
      <trkpt lat="18.997457977384329" lon="-98.511726697906852">
        <ele>2394.78125</ele>
        <time>2013-08-29T18:52:31Z</time>
      </trkpt>
      <trkpt lat="18.997353790327907" lon="-98.511618571355939">
        <ele>2393.820068359375</ele>
        <time>2013-08-29T18:52:33Z</time>
      </trkpt>
      <trkpt lat="18.997007282450795" lon="-98.511375663802028">
        <ele>2390.93603515625</ele>
        <time>2013-08-29T18:52:38Z</time>
      </trkpt>
      <trkpt lat="18.996719196438789" lon="-98.511245660483837">
        <ele>2389.974853515625</ele>
        <time>2013-08-29T18:52:42Z</time>
      </trkpt>
      <trkpt lat="18.996265148743987" lon="-98.511260580271482">
        <ele>2388.532958984375</ele>
        <time>2013-08-29T18:52:48Z</time>
      </trkpt>
      <trkpt lat="18.996048476547003" lon="-98.511296454817057">
        <ele>2384.687744140625</ele>
        <time>2013-08-29T18:52:52Z</time>
      </trkpt>
      <trkpt lat="18.995856195688248" lon="-98.511345237493515">
        <ele>2381.8037109375</ele>
        <time>2013-08-29T18:52:59Z</time>
      </trkpt>
      <trkpt lat="18.995582275092602" lon="-98.511332329362631">
        <ele>2380.842529296875</ele>
        <time>2013-08-29T18:53:04Z</time>
      </trkpt>
      <trkpt lat="18.995242640376091" lon="-98.511403994634748">
        <ele>2380.842529296875</ele>
        <time>2013-08-29T18:53:08Z</time>
      </trkpt>
      <trkpt lat="18.995080450549722" lon="-98.511420087888837">
        <ele>2379.880859375</ele>
        <time>2013-08-29T18:53:10Z</time>
      </trkpt>
      <trkpt lat="18.994833687320352" lon="-98.511552354320884">
        <ele>2377.4775390625</ele>
        <time>2013-08-29T18:53:14Z</time>
      </trkpt>
      <trkpt lat="18.994671329855919" lon="-98.511583870276809">
        <ele>2377.4775390625</ele>
        <time>2013-08-29T18:53:18Z</time>
      </trkpt>
      <trkpt lat="18.994492376223207" lon="-98.511370299383998">
        <ele>2379.880859375</ele>
        <time>2013-08-29T18:53:23Z</time>
      </trkpt>
      <trkpt lat="18.994137737900019" lon="-98.510622130706906">
        <ele>2380.842529296875</ele>
        <time>2013-08-29T18:53:33Z</time>
      </trkpt>
      <trkpt lat="18.993719229474664" lon="-98.509942190721631">
        <ele>2377.958251953125</ele>
        <time>2013-08-29T18:53:41Z</time>
      </trkpt>
      <trkpt lat="18.993674721568823" lon="-98.509886534884572">
        <ele>2376.516357421875</ele>
        <time>2013-08-29T18:53:42Z</time>
      </trkpt>
      <trkpt lat="18.993455031886697" lon="-98.509717974811792">
        <ele>2374.113037109375</ele>
        <time>2013-08-29T18:53:46Z</time>
      </trkpt>
      <trkpt lat="18.993193432688713" lon="-98.509727027267218">
        <ele>2374.113037109375</ele>
        <time>2013-08-29T18:53:50Z</time>
      </trkpt>
      <trkpt lat="18.992975419387221" lon="-98.509689727798104">
        <ele>2374.59375</ele>
        <time>2013-08-29T18:53:53Z</time>
      </trkpt>
      <trkpt lat="18.992812391370535" lon="-98.50962501950562">
        <ele>2374.113037109375</ele>
        <time>2013-08-29T18:53:55Z</time>
      </trkpt>
      <trkpt lat="18.992545763030648" lon="-98.509570453315973">
        <ele>2374.59375</ele>
        <time>2013-08-29T18:53:58Z</time>
      </trkpt>
      <trkpt lat="18.992168242111802" lon="-98.509382531046867">
        <ele>2373.63232421875</ele>
        <time>2013-08-29T18:54:03Z</time>
      </trkpt>
      <trkpt lat="18.991873199120164" lon="-98.509158566594124">
        <ele>2373.63232421875</ele>
        <time>2013-08-29T18:54:07Z</time>
      </trkpt>
      <trkpt lat="18.99167069233954" lon="-98.509062845259905">
        <ele>2371.22900390625</ele>
        <time>2013-08-29T18:54:10Z</time>
      </trkpt>
      <trkpt lat="18.991337427869439" lon="-98.509098719805479">
        <ele>2367.3837890625</ele>
        <time>2013-08-29T18:54:15Z</time>
      </trkpt>
      <trkpt lat="18.991113295778632" lon="-98.509380016475916">
        <ele>2365.94189453125</ele>
        <time>2013-08-29T18:54:20Z</time>
      </trkpt>
      <trkpt lat="18.990965858101845" lon="-98.509819060564041">
        <ele>2361.615966796875</ele>
        <time>2013-08-29T18:54:27Z</time>
      </trkpt>
      <trkpt lat="18.990947417914867" lon="-98.509872118011117">
        <ele>2360.654541015625</ele>
        <time>2013-08-29T18:54:28Z</time>
      </trkpt>
      <trkpt lat="18.990782294422388" lon="-98.5099973436445">
        <ele>2359.693115234375</ele>
        <time>2013-08-29T18:54:32Z</time>
      </trkpt>
      <trkpt lat="18.990406952798367" lon="-98.510264558717608">
        <ele>2358.251220703125</ele>
        <time>2013-08-29T18:54:40Z</time>
      </trkpt>
      <trkpt lat="18.990308465436101" lon="-98.510303031653166">
        <ele>2358.251220703125</ele>
        <time>2013-08-29T18:54:42Z</time>
      </trkpt>
      <trkpt lat="18.9900719281286" lon="-98.510428844019771">
        <ele>2357.770751953125</ele>
        <time>2013-08-29T18:54:47Z</time>
      </trkpt>
      <trkpt lat="18.989907139912248" lon="-98.510567480698228">
        <ele>2356.809326171875</ele>
        <time>2013-08-29T18:54:50Z</time>
      </trkpt>
      <trkpt lat="18.98979146964848" lon="-98.510630428791046">
        <ele>2355.847900390625</ele>
        <time>2013-08-29T18:54:52Z</time>
      </trkpt>
      <trkpt lat="18.989651156589389" lon="-98.510660184547305">
        <ele>2356.32861328125</ele>
        <time>2013-08-29T18:54:54Z</time>
      </trkpt>
      <trkpt lat="18.989437753334641" lon="-98.510737717151642">
        <ele>2355.847900390625</ele>
        <time>2013-08-29T18:54:57Z</time>
      </trkpt>
      <trkpt lat="18.989322921261191" lon="-98.510802760720253">
        <ele>2354.88671875</ele>
        <time>2013-08-29T18:54:59Z</time>
      </trkpt>
      <trkpt lat="18.989139860495925" lon="-98.51090325973928">
        <ele>2354.88671875</ele>
        <time>2013-08-29T18:55:02Z</time>
      </trkpt>
      <trkpt lat="18.988910531625152" lon="-98.510939637199044">
        <ele>2353.925537109375</ele>
        <time>2013-08-29T18:55:06Z</time>
      </trkpt>
      <trkpt lat="18.988720262423158" lon="-98.510957071557641">
        <ele>2352.964111328125</ele>
        <time>2013-08-29T18:55:10Z</time>
      </trkpt>
      <trkpt lat="18.988504344597459" lon="-98.510916419327259">
        <ele>2352.002685546875</ele>
        <time>2013-08-29T18:55:15Z</time>
      </trkpt>
      <trkpt lat="18.988414658233523" lon="-98.510773340240121">
        <ele>2351.04150390625</ele>
        <time>2013-08-29T18:55:21Z</time>
      </trkpt>
      <trkpt lat="18.988409293815494" lon="-98.510669656097889">
        <ele>2351.04150390625</ele>
        <time>2013-08-29T18:55:23Z</time>
      </trkpt>
      <trkpt lat="18.988366378471255" lon="-98.510383833199739">
        <ele>2352.964111328125</ele>
        <time>2013-08-29T18:55:28Z</time>
      </trkpt>
      <trkpt lat="18.988353470340371" lon="-98.510200940072536">
        <ele>2352.4833984375</ele>
        <time>2013-08-29T18:55:31Z</time>
      </trkpt>
      <trkpt lat="18.988234866410494" lon="-98.509801542386413">
        <ele>2351.522216796875</ele>
        <time>2013-08-29T18:55:38Z</time>
      </trkpt>
      <trkpt lat="18.988143419846892" lon="-98.509575482457876">
        <ele>2350.560791015625</ele>
        <time>2013-08-29T18:55:42Z</time>
      </trkpt>
      <trkpt lat="18.98809346370399" lon="-98.509268956258893">
        <ele>2354.406005859375</ele>
        <time>2013-08-29T18:55:49Z</time>
      </trkpt>
      <trkpt lat="18.988132439553738" lon="-98.509053289890289">
        <ele>2354.88671875</ele>
        <time>2013-08-29T18:55:53Z</time>
      </trkpt>
      <trkpt lat="18.988149119541049" lon="-98.508821530267596">
        <ele>2357.770751953125</ele>
        <time>2013-08-29T18:55:57Z</time>
      </trkpt>
      <trkpt lat="18.988153142854571" lon="-98.508773250505328">
        <ele>2359.212646484375</ele>
        <time>2013-08-29T18:55:58Z</time>
      </trkpt>
      <trkpt lat="18.988148029893637" lon="-98.508687587454915">
        <ele>2360.173828125</ele>
        <time>2013-08-29T18:56:00Z</time>
      </trkpt>
      <trkpt lat="18.988140486180782" lon="-98.508628327399492">
        <ele>2362.096435546875</ele>
        <time>2013-08-29T18:56:03Z</time>
      </trkpt>
      <trkpt lat="18.988099498674273" lon="-98.508541826158762">
        <ele>2362.096435546875</ele>
        <time>2013-08-29T18:56:15Z</time>
      </trkpt>
      <trkpt lat="18.988062031567097" lon="-98.508447362110019">
        <ele>2364.019287109375</ele>
        <time>2013-08-29T18:56:26Z</time>
      </trkpt>
      <trkpt lat="18.987983074039221" lon="-98.508422467857599">
        <ele>2365.94189453125</ele>
        <time>2013-08-29T18:56:37Z</time>
      </trkpt>
      <trkpt lat="18.987892884761095" lon="-98.508408553898335">
        <ele>2368.825927734375</ele>
        <time>2013-08-29T18:56:48Z</time>
      </trkpt>
      <trkpt lat="18.987791547551751" lon="-98.508470328524709">
        <ele>2369.306640625</ele>
        <time>2013-08-29T18:57:01Z</time>
      </trkpt>
      <trkpt lat="18.987713763490319" lon="-98.508487595245242">
        <ele>2371.709716796875</ele>
        <time>2013-08-29T18:57:10Z</time>
      </trkpt>
      <trkpt lat="18.987636649981141" lon="-98.508475860580802">
        <ele>2371.709716796875</ele>
        <time>2013-08-29T18:57:24Z</time>
      </trkpt>
      <trkpt lat="18.987534558400512" lon="-98.508458845317364">
        <ele>2373.63232421875</ele>
        <time>2013-08-29T18:57:28Z</time>
      </trkpt>
      <trkpt lat="18.987419558688998" lon="-98.508338984102011">
        <ele>2375.07421875</ele>
        <time>2013-08-29T18:57:33Z</time>
      </trkpt>
      <trkpt lat="18.987394580617547" lon="-98.508240329101682">
        <ele>2375.554931640625</ele>
        <time>2013-08-29T18:57:35Z</time>
      </trkpt>
      <trkpt lat="18.987333476543427" lon="-98.508086772635579">
        <ele>2375.07421875</ele>
        <time>2013-08-29T18:57:41Z</time>
      </trkpt>
      <trkpt lat="18.987254519015551" lon="-98.507858281955123">
        <ele>2375.554931640625</ele>
        <time>2013-08-29T18:57:46Z</time>
      </trkpt>
      <trkpt lat="18.987220153212547" lon="-98.507681926712394">
        <ele>2376.9970703125</ele>
        <time>2013-08-29T18:57:49Z</time>
      </trkpt>
      <trkpt lat="18.987197270616889" lon="-98.507328378036618">
        <ele>2374.59375</ele>
        <time>2013-08-29T18:57:54Z</time>
      </trkpt>
      <trkpt lat="18.987181847915053" lon="-98.507154453545809">
        <ele>2373.63232421875</ele>
        <time>2013-08-29T18:57:56Z</time>
      </trkpt>
      <trkpt lat="18.986994596198201" lon="-98.506882041692734">
        <ele>2371.709716796875</ele>
        <time>2013-08-29T18:58:01Z</time>
      </trkpt>
      <trkpt lat="18.986721597611904" lon="-98.506604852154851">
        <ele>2371.22900390625</ele>
        <time>2013-08-29T18:58:06Z</time>
      </trkpt>
      <trkpt lat="18.986578099429607" lon="-98.506414331495762">
        <ele>2369.306640625</ele>
        <time>2013-08-29T18:58:09Z</time>
      </trkpt>
      <trkpt lat="18.986368048936129" lon="-98.506242586299777">
        <ele>2368.825927734375</ele>
        <time>2013-08-29T18:58:13Z</time>
      </trkpt>
      <trkpt lat="18.986227232962847" lon="-98.506068158894777">
        <ele>2366.9033203125</ele>
        <time>2013-08-29T18:58:17Z</time>
      </trkpt>
      <trkpt lat="18.98618197068572" lon="-98.50598325021565">
        <ele>2365.46142578125</ele>
        <time>2013-08-29T18:58:19Z</time>
      </trkpt>
      <trkpt lat="18.986119190230966" lon="-98.505881242454052">
        <ele>2364.980712890625</ele>
        <time>2013-08-29T18:58:21Z</time>
      </trkpt>
      <trkpt lat="18.985925149172544" lon="-98.505687620490789">
        <ele>2364.019287109375</ele>
        <time>2013-08-29T18:58:25Z</time>
      </trkpt>
      <trkpt lat="18.985713254660368" lon="-98.505644118413329">
        <ele>2361.615966796875</ele>
        <time>2013-08-29T18:58:29Z</time>
      </trkpt>
      <trkpt lat="18.98536398075521" lon="-98.505509421229362">
        <ele>2359.212646484375</ele>
        <time>2013-08-29T18:58:36Z</time>
      </trkpt>
      <trkpt lat="18.985198773443699" lon="-98.505355948582292">
        <ele>2356.809326171875</ele>
        <time>2013-08-29T18:58:40Z</time>
      </trkpt>
      <trkpt lat="18.985075056552887" lon="-98.505274727940559">
        <ele>2355.367431640625</ele>
        <time>2013-08-29T18:58:43Z</time>
      </trkpt>
      <trkpt lat="18.984974976629019" lon="-98.505404144525528">
        <ele>2355.367431640625</ele>
        <time>2013-08-29T18:58:46Z</time>
      </trkpt>
      <trkpt lat="18.984865173697472" lon="-98.505518222227693">
        <ele>2355.847900390625</ele>
        <time>2013-08-29T18:58:48Z</time>
      </trkpt>
      <trkpt lat="18.984670797362924" lon="-98.505827849730849">
        <ele>2354.88671875</ele>
        <time>2013-08-29T18:58:53Z</time>
      </trkpt>
      <trkpt lat="18.984464770182967" lon="-98.505973359569907">
        <ele>2354.88671875</ele>
        <time>2013-08-29T18:58:57Z</time>
      </trkpt>
      <trkpt lat="18.984377179294825" lon="-98.506034379824996">
        <ele>2352.964111328125</ele>
        <time>2013-08-29T18:58:59Z</time>
      </trkpt>
      <trkpt lat="18.984200321137905" lon="-98.506278125569224">
        <ele>2349.118896484375</ele>
        <time>2013-08-29T18:59:03Z</time>
      </trkpt>
      <trkpt lat="18.984155226498842" lon="-98.506342498585582">
        <ele>2349.599609375</ele>
        <time>2013-08-29T18:59:04Z</time>
      </trkpt>
      <trkpt lat="18.984073754400015" lon="-98.506458755582571">
        <ele>2346.71533203125</ele>
        <time>2013-08-29T18:59:06Z</time>
      </trkpt>
      <trkpt lat="18.983927825465798" lon="-98.506604684516788">
        <ele>2346.71533203125</ele>
        <time>2013-08-29T18:59:09Z</time>
      </trkpt>
      <trkpt lat="18.983841659501195" lon="-98.506708284839988">
        <ele>2347.196044921875</ele>
        <time>2013-08-29T18:59:11Z</time>
      </trkpt>
      <trkpt lat="18.98355508223176" lon="-98.506839796900749">
        <ele>2345.2734375</ele>
        <time>2013-08-29T18:59:17Z</time>
      </trkpt>
      <trkpt lat="18.983349055051804" lon="-98.506784895434976">
        <ele>2343.350830078125</ele>
        <time>2013-08-29T18:59:20Z</time>
      </trkpt>
      <trkpt lat="18.983209999278188" lon="-98.506741393357515">
        <ele>2340.947509765625</ele>
        <time>2013-08-29T18:59:22Z</time>
      </trkpt>
      <trkpt lat="18.982908753678203" lon="-98.506551962345839">
        <ele>2338.063720703125</ele>
        <time>2013-08-29T18:59:28Z</time>
      </trkpt>
      <trkpt lat="18.982889140024781" lon="-98.506503263488412">
        <ele>2337.102294921875</ele>
        <time>2013-08-29T18:59:29Z</time>
      </trkpt>
      <trkpt lat="18.98284463211894" lon="-98.506246022880077">
        <ele>2334.218505859375</ele>
        <time>2013-08-29T18:59:33Z</time>
      </trkpt>
      <trkpt lat="18.982810853049159" lon="-98.506103279069066">
        <ele>2331.81494140625</ele>
        <time>2013-08-29T18:59:35Z</time>
      </trkpt>
      <trkpt lat="18.982741869986057" lon="-98.505988195538521">
        <ele>2331.334228515625</ele>
        <time>2013-08-29T18:59:37Z</time>
      </trkpt>
      <trkpt lat="18.982527544721961" lon="-98.505994565784931">
        <ele>2330.373046875</ele>
        <time>2013-08-29T18:59:41Z</time>
      </trkpt>
      <trkpt lat="18.98239997215569" lon="-98.506180895492435">
        <ele>2328.450439453125</ele>
        <time>2013-08-29T18:59:44Z</time>
      </trkpt>
      <trkpt lat="18.982363594695926" lon="-98.506242334842682">
        <ele>2327.489013671875</ele>
        <time>2013-08-29T18:59:45Z</time>
      </trkpt>
      <trkpt lat="18.982291175052524" lon="-98.506550537422299">
        <ele>2328.450439453125</ele>
        <time>2013-08-29T18:59:50Z</time>
      </trkpt>
      <trkpt lat="18.982316739857197" lon="-98.506952365860343">
        <ele>2328.450439453125</ele>
        <time>2013-08-29T18:59:56Z</time>
      </trkpt>
      <trkpt lat="18.982194531708956" lon="-98.506972566246986">
        <ele>2325.56640625</ele>
        <time>2013-08-29T19:00:01Z</time>
      </trkpt>
      <trkpt lat="18.982102079316974" lon="-98.506987737491727">
        <ele>2323.163330078125</ele>
        <time>2013-08-29T19:00:06Z</time>
      </trkpt>
      <trkpt lat="18.981995126232505" lon="-98.507040878757834">
        <ele>2320.760009765625</ele>
        <time>2013-08-29T19:00:10Z</time>
      </trkpt>
      <trkpt lat="18.981882724910975" lon="-98.507041549310088">
        <ele>2322.201904296875</ele>
        <time>2013-08-29T19:00:12Z</time>
      </trkpt>
      <trkpt lat="18.9815394859761" lon="-98.506923783570528">
        <ele>2323.643798828125</ele>
        <time>2013-08-29T19:00:18Z</time>
      </trkpt>
      <trkpt lat="18.981301775202155" lon="-98.506839377805591">
        <ele>2324.12451171875</ele>
        <time>2013-08-29T19:00:22Z</time>
      </trkpt>
      <trkpt lat="18.981155678629875" lon="-98.506844071671367">
        <ele>2323.163330078125</ele>
        <time>2013-08-29T19:00:25Z</time>
      </trkpt>
      <trkpt lat="18.9810801576823" lon="-98.506989330053329">
        <ele>2322.6826171875</ele>
        <time>2013-08-29T19:00:29Z</time>
      </trkpt>
      <trkpt lat="18.981064734980464" lon="-98.507097372785211">
        <ele>2322.201904296875</ele>
        <time>2013-08-29T19:00:31Z</time>
      </trkpt>
      <trkpt lat="18.981030285358429" lon="-98.507453687489033">
        <ele>2322.6826171875</ele>
        <time>2013-08-29T19:00:38Z</time>
      </trkpt>
      <trkpt lat="18.980867341160774" lon="-98.507451759651303">
        <ele>2320.760009765625</ele>
        <time>2013-08-29T19:00:42Z</time>
      </trkpt>
      <trkpt lat="18.98078553378582" lon="-98.507402641698718">
        <ele>2318.83740234375</ele>
        <time>2013-08-29T19:00:44Z</time>
      </trkpt>
      <trkpt lat="18.980683945119381" lon="-98.50727129727602">
        <ele>2316.914794921875</ele>
        <time>2013-08-29T19:00:48Z</time>
      </trkpt>
      <trkpt lat="18.980632144957781" lon="-98.50714229978621">
        <ele>2316.43408203125</ele>
        <time>2013-08-29T19:00:51Z</time>
      </trkpt>
      <trkpt lat="18.980564251542091" lon="-98.506954545155168">
        <ele>2311.62744140625</ele>
        <time>2013-08-29T19:00:56Z</time>
      </trkpt>
      <trkpt lat="18.980544386431575" lon="-98.506927136331797">
        <ele>2311.62744140625</ele>
        <time>2013-08-29T19:00:57Z</time>
      </trkpt>
      <trkpt lat="18.980453191325068" lon="-98.506700489670038">
        <ele>2310.185302734375</ele>
        <time>2013-08-29T19:01:03Z</time>
      </trkpt>
      <trkpt lat="18.98042687214911" lon="-98.506665034219623">
        <ele>2309.22412109375</ele>
        <time>2013-08-29T19:01:10Z</time>
      </trkpt>
      <trkpt lat="18.98032427765429" lon="-98.506631925702095">
        <ele>2305.859375</ele>
        <time>2013-08-29T19:01:21Z</time>
      </trkpt>
      <trkpt lat="18.980323020368814" lon="-98.506633182987571">
        <ele>2305.859375</ele>
        <time>2013-08-29T19:01:22Z</time>
      </trkpt>
      <trkpt lat="18.980333833023906" lon="-98.506591692566872">
        <ele>2305.37890625</ele>
        <time>2013-08-29T19:01:32Z</time>
      </trkpt>
      <trkpt lat="18.980343975126743" lon="-98.506564786657691">
        <ele>2303.93701171875</ele>
        <time>2013-08-29T19:01:35Z</time>
      </trkpt>
      <trkpt lat="18.980303490534425" lon="-98.506456995382905">
        <ele>2301.53369140625</ele>
        <time>2013-08-29T19:01:48Z</time>
      </trkpt>
      <trkpt lat="18.980250684544444" lon="-98.506448278203607">
        <ele>2300.091796875</ele>
        <time>2013-08-29T19:01:57Z</time>
      </trkpt>
      <trkpt lat="18.980231322348118" lon="-98.506454145535827">
        <ele>2297.688232421875</ele>
        <time>2013-08-29T19:02:01Z</time>
      </trkpt>
      <trkpt lat="18.980171727016568" lon="-98.506516171619296">
        <ele>2296.726806640625</ele>
        <time>2013-08-29T19:02:09Z</time>
      </trkpt>
      <trkpt lat="18.98009511642158" lon="-98.506539473310113">
        <ele>2294.323486328125</ele>
        <time>2013-08-29T19:02:18Z</time>
      </trkpt>
      <trkpt lat="18.980076173320413" lon="-98.506543496623635">
        <ele>2294.323486328125</ele>
        <time>2013-08-29T19:02:25Z</time>
      </trkpt>
      <trkpt lat="18.979961592704058" lon="-98.506628321483731">
        <ele>2293.3623046875</ele>
        <time>2013-08-29T19:02:32Z</time>
      </trkpt>
      <trkpt lat="18.97983661852777" lon="-98.50672303698957">
        <ele>2291.92041015625</ele>
        <time>2013-08-29T19:02:38Z</time>
      </trkpt>
      <trkpt lat="18.979829745367169" lon="-98.506743237376213">
        <ele>2292.401123046875</ele>
        <time>2013-08-29T19:02:39Z</time>
      </trkpt>
      <trkpt lat="18.979740981012583" lon="-98.506766790524125">
        <ele>2289.997802734375</ele>
        <time>2013-08-29T19:02:46Z</time>
      </trkpt>
      <trkpt lat="18.97966118529439" lon="-98.506741728633642">
        <ele>2288.555908203125</ele>
        <time>2013-08-29T19:02:49Z</time>
      </trkpt>
      <trkpt lat="18.979543838649988" lon="-98.506740974262357">
        <ele>2286.633056640625</ele>
        <time>2013-08-29T19:02:57Z</time>
      </trkpt>
      <trkpt lat="18.979485919699073" lon="-98.506752960383892">
        <ele>2286.152587890625</ele>
        <time>2013-08-29T19:03:06Z</time>
      </trkpt>
      <trkpt lat="18.979459768161178" lon="-98.506769221276045">
        <ele>2285.191162109375</ele>
        <time>2013-08-29T19:03:11Z</time>
      </trkpt>
      <trkpt lat="18.979438981041312" lon="-98.506804089993238">
        <ele>2283.7490234375</ele>
        <time>2013-08-29T19:03:15Z</time>
      </trkpt>
      <trkpt lat="18.979407465085387" lon="-98.506818758323789">
        <ele>2282.78759765625</ele>
        <time>2013-08-29T19:03:19Z</time>
      </trkpt>
      <trkpt lat="18.979359688237309" lon="-98.506807945668697">
        <ele>2282.30712890625</ele>
        <time>2013-08-29T19:03:23Z</time>
      </trkpt>
      <trkpt lat="18.979324148967862" lon="-98.506813729181886">
        <ele>2280.865234375</ele>
        <time>2013-08-29T19:03:27Z</time>
      </trkpt>
      <trkpt lat="18.979229433462024" lon="-98.506829235702753">
        <ele>2280.384521484375</ele>
        <time>2013-08-29T19:03:33Z</time>
      </trkpt>
      <trkpt lat="18.978968756273389" lon="-98.50688623264432">
        <ele>2279.90380859375</ele>
        <time>2013-08-29T19:03:38Z</time>
      </trkpt>
      <trkpt lat="18.978808242827654" lon="-98.506977260112762">
        <ele>2278.4619140625</ele>
        <time>2013-08-29T19:03:42Z</time>
      </trkpt>
      <trkpt lat="18.978489981964231" lon="-98.506969381123781">
        <ele>2277.981201171875</ele>
        <time>2013-08-29T19:03:47Z</time>
      </trkpt>
      <trkpt lat="18.978062923997641" lon="-98.50674306973815">
        <ele>2277.50048828125</ele>
        <time>2013-08-29T19:03:53Z</time>
      </trkpt>
      <trkpt lat="18.97782445885241" lon="-98.506501838564873">
        <ele>2275.577880859375</ele>
        <time>2013-08-29T19:03:57Z</time>
      </trkpt>
      <trkpt lat="18.9775884244591" lon="-98.506107637658715">
        <ele>2274.61669921875</ele>
        <time>2013-08-29T19:04:02Z</time>
      </trkpt>
      <trkpt lat="18.977517932653427" lon="-98.505964390933514">
        <ele>2274.61669921875</ele>
        <time>2013-08-29T19:04:04Z</time>
      </trkpt>
      <trkpt lat="18.97739639505744" lon="-98.505764063447714">
        <ele>2274.61669921875</ele>
        <time>2013-08-29T19:04:07Z</time>
      </trkpt>
      <trkpt lat="18.977301931008697" lon="-98.505657026544213">
        <ele>2273.1748046875</ele>
        <time>2013-08-29T19:04:09Z</time>
      </trkpt>
      <trkpt lat="18.976943520829082" lon="-98.505324348807335">
        <ele>2269.81005859375</ele>
        <time>2013-08-29T19:04:16Z</time>
      </trkpt>
      <trkpt lat="18.976803291589022" lon="-98.505170457065105">
        <ele>2269.81005859375</ele>
        <time>2013-08-29T19:04:19Z</time>
      </trkpt>
      <trkpt lat="18.976738667115569" lon="-98.504801485687494">
        <ele>2268.848876953125</ele>
        <time>2013-08-29T19:04:25Z</time>
      </trkpt>
      <trkpt lat="18.976664822548628" lon="-98.504588836804032">
        <ele>2266.926025390625</ele>
        <time>2013-08-29T19:04:28Z</time>
      </trkpt>
      <trkpt lat="18.976579075679183" lon="-98.504372667521238">
        <ele>2265.484130859375</ele>
        <time>2013-08-29T19:04:31Z</time>
      </trkpt>
      <trkpt lat="18.976384531706572" lon="-98.504193127155304">
        <ele>2265.00341796875</ele>
        <time>2013-08-29T19:04:35Z</time>
      </trkpt>
      <trkpt lat="18.976114466786385" lon="-98.503993051126599">
        <ele>2264.0419921875</ele>
        <time>2013-08-29T19:04:39Z</time>
      </trkpt>
      <trkpt lat="18.975980188697577" lon="-98.503918116912246">
        <ele>2264.522705078125</ele>
        <time>2013-08-29T19:04:41Z</time>
      </trkpt>
      <trkpt lat="18.975757230073214" lon="-98.503883248195052">
        <ele>2263.080810546875</ele>
        <time>2013-08-29T19:04:44Z</time>
      </trkpt>
      <trkpt lat="18.975503342226148" lon="-98.503815857693553">
        <ele>2263.561279296875</ele>
        <time>2013-08-29T19:04:48Z</time>
      </trkpt>
      <trkpt lat="18.975375266745687" lon="-98.503728099167347">
        <ele>2261.638916015625</ele>
        <time>2013-08-29T19:04:51Z</time>
      </trkpt>
      <trkpt lat="18.97535883821547" lon="-98.503688452765346">
        <ele>2260.677490234375</ele>
        <time>2013-08-29T19:04:52Z</time>
      </trkpt>
      <trkpt lat="18.975279545411468" lon="-98.503536069765687">
        <ele>2259.235595703125</ele>
        <time>2013-08-29T19:04:55Z</time>
      </trkpt>
      <trkpt lat="18.975071255117655" lon="-98.503447640687227">
        <ele>2256.832275390625</ele>
        <time>2013-08-29T19:05:00Z</time>
      </trkpt>
      <trkpt lat="18.975071255117655" lon="-98.503494998440146">
        <ele>2257.31298828125</ele>
        <time>2013-08-29T19:05:02Z</time>
      </trkpt>
      <trkpt lat="18.975137053057551" lon="-98.503674035891891">
        <ele>2260.19677734375</ele>
        <time>2013-08-29T19:05:07Z</time>
      </trkpt>
      <trkpt lat="18.975132778286934" lon="-98.50376539863646">
        <ele>2261.638916015625</ele>
        <time>2013-08-29T19:05:09Z</time>
      </trkpt>
      <trkpt lat="18.975110147148371" lon="-98.50392616353929">
        <ele>2262.60009765625</ele>
        <time>2013-08-29T19:05:12Z</time>
      </trkpt>
      <trkpt lat="18.975001266226172" lon="-98.504153983667493">
        <ele>2265.964599609375</ele>
        <time>2013-08-29T19:05:16Z</time>
      </trkpt>
      <trkpt lat="18.974958937615156" lon="-98.504515495151281">
        <ele>2266.4453125</ele>
        <time>2013-08-29T19:05:21Z</time>
      </trkpt>
      <trkpt lat="18.975051892921329" lon="-98.504760749638081">
        <ele>2267.406494140625</ele>
        <time>2013-08-29T19:05:24Z</time>
      </trkpt>
      <trkpt lat="18.975367471575737" lon="-98.505111029371619">
        <ele>2269.32958984375</ele>
        <time>2013-08-29T19:05:29Z</time>
      </trkpt>
      <trkpt lat="18.975468724966049" lon="-98.505320157855749">
        <ele>2267.406494140625</ele>
        <time>2013-08-29T19:05:33Z</time>
      </trkpt>
      <trkpt lat="18.975545167922974" lon="-98.50565099157393">
        <ele>2270.290771484375</ele>
        <time>2013-08-29T19:05:39Z</time>
      </trkpt>
      <trkpt lat="18.975597219541669" lon="-98.505870178341866">
        <ele>2272.21337890625</ele>
        <time>2013-08-29T19:05:42Z</time>
      </trkpt>
      <trkpt lat="18.975731329992414" lon="-98.506246944889426">
        <ele>2275.09716796875</ele>
        <time>2013-08-29T19:05:47Z</time>
      </trkpt>
      <trkpt lat="18.97577759809792" lon="-98.506368147209287">
        <ele>2275.09716796875</ele>
        <time>2013-08-29T19:05:49Z</time>
      </trkpt>
      <trkpt lat="18.975852951407433" lon="-98.506611222401261">
        <ele>2278.9423828125</ele>
        <time>2013-08-29T19:05:53Z</time>
      </trkpt>
      <trkpt lat="18.975921431556344" lon="-98.506878353655338">
        <ele>2281.826416015625</ele>
        <time>2013-08-29T19:05:57Z</time>
      </trkpt>
      <trkpt lat="18.975906344130635" lon="-98.507086727768183">
        <ele>2281.826416015625</ele>
        <time>2013-08-29T19:06:00Z</time>
      </trkpt>
      <trkpt lat="18.975929142907262" lon="-98.507377579808235">
        <ele>2283.7490234375</ele>
        <time>2013-08-29T19:06:04Z</time>
      </trkpt>
      <trkpt lat="18.975958144292235" lon="-98.507574470713735">
        <ele>2287.11376953125</ele>
        <time>2013-08-29T19:06:07Z</time>
      </trkpt>
      <trkpt lat="18.975936770439148" lon="-98.507711095735431">
        <ele>2288.555908203125</ele>
        <time>2013-08-29T19:06:09Z</time>
      </trkpt>
      <trkpt lat="18.975900560617447" lon="-98.508003121241927">
        <ele>2290.958984375</ele>
        <time>2013-08-29T19:06:13Z</time>
      </trkpt>
      <trkpt lat="18.975972393527627" lon="-98.508145697414875">
        <ele>2290.478271484375</ele>
        <time>2013-08-29T19:06:15Z</time>
      </trkpt>
      <trkpt lat="18.976064845919609" lon="-98.508263127878308">
        <ele>2291.92041015625</ele>
        <time>2013-08-29T19:06:17Z</time>
      </trkpt>
      <trkpt lat="18.976269699633121" lon="-98.508528163656592">
        <ele>2295.765625</ele>
        <time>2013-08-29T19:06:22Z</time>
      </trkpt>
      <trkpt lat="18.976337676867843" lon="-98.508630841970444">
        <ele>2296.726806640625</ele>
        <time>2013-08-29T19:06:24Z</time>
      </trkpt>
      <trkpt lat="18.976525431498885" lon="-98.50896343588829">
        <ele>2300.091796875</ele>
        <time>2013-08-29T19:06:29Z</time>
      </trkpt>
      <trkpt lat="18.976667756214738" lon="-98.509213132783771">
        <ele>2301.53369140625</ele>
        <time>2013-08-29T19:06:32Z</time>
      </trkpt>
      <trkpt lat="18.976743696257472" lon="-98.50937875919044">
        <ele>2302.494873046875</ele>
        <time>2013-08-29T19:06:34Z</time>
      </trkpt>
      <trkpt lat="18.97677194327116" lon="-98.509471463039517">
        <ele>2302.9755859375</ele>
        <time>2013-08-29T19:06:35Z</time>
      </trkpt>
      <trkpt lat="18.976898426190019" lon="-98.509758543223143">
        <ele>2303.456298828125</ele>
        <time>2013-08-29T19:06:38Z</time>
      </trkpt>
      <trkpt lat="18.977138232439756" lon="-98.510130448266864">
        <ele>2306.340087890625</ele>
        <time>2013-08-29T19:06:43Z</time>
      </trkpt>
      <trkpt lat="18.977270666509867" lon="-98.510458264499903">
        <ele>2306.82080078125</ele>
        <time>2013-08-29T19:06:47Z</time>
      </trkpt>
      <trkpt lat="18.977262368425727" lon="-98.51097023114562">
        <ele>2307.301513671875</ele>
        <time>2013-08-29T19:06:53Z</time>
      </trkpt>
      <trkpt lat="18.977165892720222" lon="-98.511141473427415">
        <ele>2309.22412109375</ele>
        <time>2013-08-29T19:06:55Z</time>
      </trkpt>
      <trkpt lat="18.977024657651782" lon="-98.511438528075814">
        <ele>2308.2626953125</ele>
        <time>2013-08-29T19:06:58Z</time>
      </trkpt>
      <trkpt lat="18.976975036785007" lon="-98.511621840298176">
        <ele>2306.82080078125</ele>
        <time>2013-08-29T19:07:00Z</time>
      </trkpt>
      <trkpt lat="18.976940084248781" lon="-98.51189567707479">
        <ele>2306.340087890625</ele>
        <time>2013-08-29T19:07:03Z</time>
      </trkpt>
      <trkpt lat="18.976799519732594" lon="-98.512210249900818">
        <ele>2307.7822265625</ele>
        <time>2013-08-29T19:07:07Z</time>
      </trkpt>
      <trkpt lat="18.976581254974008" lon="-98.512548627331853">
        <ele>2307.7822265625</ele>
        <time>2013-08-29T19:07:11Z</time>
      </trkpt>
      <trkpt lat="18.97643675096333" lon="-98.512919023633003">
        <ele>2306.340087890625</ele>
        <time>2013-08-29T19:07:15Z</time>
      </trkpt>
      <trkpt lat="18.976351087912917" lon="-98.513099486008286">
        <ele>2307.7822265625</ele>
        <time>2013-08-29T19:07:17Z</time>
      </trkpt>
      <trkpt lat="18.976195519790053" lon="-98.513690829277039">
        <ele>2310.666015625</ele>
        <time>2013-08-29T19:07:23Z</time>
      </trkpt>
      <trkpt lat="18.976104240864515" lon="-98.514218721538782">
        <ele>2312.588623046875</ele>
        <time>2013-08-29T19:07:28Z</time>
      </trkpt>
      <trkpt lat="18.976162578910589" lon="-98.514818781986833">
        <ele>2310.666015625</ele>
        <time>2013-08-29T19:07:34Z</time>
      </trkpt>
      <trkpt lat="18.976350165903568" lon="-98.515125643461943">
        <ele>2310.185302734375</ele>
        <time>2013-08-29T19:07:39Z</time>
      </trkpt>
      <trkpt lat="18.976523755118251" lon="-98.515238547697663">
        <ele>2311.62744140625</ele>
        <time>2013-08-29T19:07:42Z</time>
      </trkpt>
      <trkpt lat="18.97677194327116" lon="-98.515406688675284">
        <ele>2313.0693359375</ele>
        <time>2013-08-29T19:07:46Z</time>
      </trkpt>
      <trkpt lat="18.976807147264481" lon="-98.515577176585793">
        <ele>2311.62744140625</ele>
        <time>2013-08-29T19:07:52Z</time>
      </trkpt>
      <trkpt lat="18.976748390123248" lon="-98.515641884878278">
        <ele>2311.62744140625</ele>
        <time>2013-08-29T19:07:54Z</time>
      </trkpt>
      <trkpt lat="18.976412694901228" lon="-98.515819329768419">
        <ele>2313.5498046875</ele>
        <time>2013-08-29T19:08:00Z</time>
      </trkpt>
      <trkpt lat="18.976243799552321" lon="-98.516078079119325">
        <ele>2313.5498046875</ele>
        <time>2013-08-29T19:08:04Z</time>
      </trkpt>
      <trkpt lat="18.976031737402081" lon="-98.516362896189094">
        <ele>2315.47265625</ele>
        <time>2013-08-29T19:08:09Z</time>
      </trkpt>
      <trkpt lat="18.975948672741652" lon="-98.516634972766042">
        <ele>2315.953125</ele>
        <time>2013-08-29T19:08:13Z</time>
      </trkpt>
      <trkpt lat="18.976021260023117" lon="-98.517012828961015">
        <ele>2318.356689453125</ele>
        <time>2013-08-29T19:08:19Z</time>
      </trkpt>
      <trkpt lat="18.976071132346988" lon="-98.517608279362321">
        <ele>2321.72119140625</ele>
        <time>2013-08-29T19:08:29Z</time>
      </trkpt>
      <trkpt lat="18.976065181195736" lon="-98.517717998474836">
        <ele>2322.6826171875</ele>
        <time>2013-08-29T19:08:31Z</time>
      </trkpt>
      <trkpt lat="18.976049842312932" lon="-98.518256871029735">
        <ele>2326.047119140625</ele>
        <time>2013-08-29T19:08:40Z</time>
      </trkpt>
      <trkpt lat="18.97608102299273" lon="-98.518509166315198">
        <ele>2327.9697265625</ele>
        <time>2013-08-29T19:08:44Z</time>
      </trkpt>
      <trkpt lat="18.976138858124614" lon="-98.518810160458088">
        <ele>2329.892333984375</ele>
        <time>2013-08-29T19:08:49Z</time>
      </trkpt>
      <trkpt lat="18.976152939721942" lon="-98.519038567319512">
        <ele>2330.853759765625</ele>
        <time>2013-08-29T19:08:53Z</time>
      </trkpt>
      <trkpt lat="18.976176995784044" lon="-98.519282564520836">
        <ele>2332.7763671875</ele>
        <time>2013-08-29T19:08:57Z</time>
      </trkpt>
      <trkpt lat="18.976167859509587" lon="-98.519404353573918">
        <ele>2334.218505859375</ele>
        <time>2013-08-29T19:08:59Z</time>
      </trkpt>
      <trkpt lat="18.976230639964342" lon="-98.519668048247695">
        <ele>2335.1796875</ele>
        <time>2013-08-29T19:09:03Z</time>
      </trkpt>
      <trkpt lat="18.976304065436125" lon="-98.519985387101769">
        <ele>2336.62158203125</ele>
        <time>2013-08-29T19:09:09Z</time>
      </trkpt>
      <trkpt lat="18.976392243057489" lon="-98.520331224426627">
        <ele>2339.02490234375</ele>
        <time>2013-08-29T19:09:17Z</time>
      </trkpt>
      <trkpt lat="18.976549822837114" lon="-98.520936230197549">
        <ele>2339.986328125</ele>
        <time>2013-08-29T19:09:25Z</time>
      </trkpt>
      <trkpt lat="18.976617129519582" lon="-98.521124068647623">
        <ele>2340.947509765625</ele>
        <time>2013-08-29T19:09:30Z</time>
      </trkpt>
      <trkpt lat="18.976630624383688" lon="-98.521161871030927">
        <ele>2340.947509765625</ele>
        <time>2013-08-29T19:09:31Z</time>
      </trkpt>
      <trkpt lat="18.976660631597042" lon="-98.521298747509718">
        <ele>2342.3896484375</ele>
        <time>2013-08-29T19:09:34Z</time>
      </trkpt>
      <trkpt lat="18.976932289078832" lon="-98.521786238998175">
        <ele>2346.71533203125</ele>
        <time>2013-08-29T19:09:42Z</time>
      </trkpt>
      <trkpt lat="18.977023651823401" lon="-98.521896544843912">
        <ele>2348.157470703125</ele>
        <time>2013-08-29T19:09:44Z</time>
      </trkpt>
      <trkpt lat="18.977070674300194" lon="-98.522017998620868">
        <ele>2349.118896484375</ele>
        <time>2013-08-29T19:09:46Z</time>
      </trkpt>
      <trkpt lat="18.977126581594348" lon="-98.522595847025514">
        <ele>2349.599609375</ele>
        <time>2013-08-29T19:09:54Z</time>
      </trkpt>
      <trkpt lat="18.97721953690052" lon="-98.522832384333014">
        <ele>2350.080322265625</ele>
        <time>2013-08-29T19:09:59Z</time>
      </trkpt>
      <trkpt lat="18.97726153023541" lon="-98.522991891950369">
        <ele>2352.4833984375</ele>
        <time>2013-08-29T19:10:03Z</time>
      </trkpt>
      <trkpt lat="18.977212496101856" lon="-98.523381985723972">
        <ele>2354.406005859375</ele>
        <time>2013-08-29T19:10:10Z</time>
      </trkpt>
      <trkpt lat="18.977166479453444" lon="-98.523607039824128">
        <ele>2354.406005859375</ele>
        <time>2013-08-29T19:10:13Z</time>
      </trkpt>
      <trkpt lat="18.97719363681972" lon="-98.523837793618441">
        <ele>2356.32861328125</ele>
        <time>2013-08-29T19:10:16Z</time>
      </trkpt>
      <trkpt lat="18.9773362968117" lon="-98.524149768054485">
        <ele>2359.212646484375</ele>
        <time>2013-08-29T19:10:22Z</time>
      </trkpt>
      <trkpt lat="18.977344762533903" lon="-98.524164771661162">
        <ele>2358.73193359375</ele>
        <time>2013-08-29T19:10:29Z</time>
      </trkpt>
      <trkpt lat="18.977385330945253" lon="-98.524285219609737">
        <ele>2359.212646484375</ele>
        <time>2013-08-29T19:10:37Z</time>
      </trkpt>
      <trkpt lat="18.977535283192992" lon="-98.524587722495198">
        <ele>2360.173828125</ele>
        <time>2013-08-29T19:10:43Z</time>
      </trkpt>
      <trkpt lat="18.97772672586143" lon="-98.525041854009032">
        <ele>2361.615966796875</ele>
        <time>2013-08-29T19:10:51Z</time>
      </trkpt>
      <trkpt lat="18.977747345343232" lon="-98.525090971961617">
        <ele>2361.13525390625</ele>
        <time>2013-08-29T19:10:52Z</time>
      </trkpt>
      <trkpt lat="18.97783275693655" lon="-98.525405880063772">
        <ele>2364.5</ele>
        <time>2013-08-29T19:10:58Z</time>
      </trkpt>
      <trkpt lat="18.977948762476444" lon="-98.525922372937202">
        <ele>2366.422607421875</ele>
        <time>2013-08-29T19:11:07Z</time>
      </trkpt>
      <trkpt lat="18.977993354201317" lon="-98.52611817419529">
        <ele>2366.9033203125</ele>
        <time>2013-08-29T19:11:10Z</time>
      </trkpt>
      <trkpt lat="18.978185299783945" lon="-98.526404667645693">
        <ele>2365.46142578125</ele>
        <time>2013-08-29T19:11:16Z</time>
      </trkpt>
      <trkpt lat="18.977977177128196" lon="-98.52655696682632">
        <ele>2366.422607421875</ele>
        <time>2013-08-29T19:11:21Z</time>
      </trkpt>
      <trkpt lat="18.977905595675111" lon="-98.526547579094768">
        <ele>2366.9033203125</ele>
        <time>2013-08-29T19:11:22Z</time>
      </trkpt>
      <trkpt lat="18.977610720321536" lon="-98.526486223563552">
        <ele>2365.46142578125</ele>
        <time>2013-08-29T19:11:26Z</time>
      </trkpt>
      <trkpt lat="18.977333195507526" lon="-98.526355130597949">
        <ele>2364.019287109375</ele>
        <time>2013-08-29T19:11:31Z</time>
      </trkpt>
      <trkpt lat="18.976992387324572" lon="-98.526406260207295">
        <ele>2361.13525390625</ele>
        <time>2013-08-29T19:11:38Z</time>
      </trkpt>
      <trkpt lat="18.976905047893524" lon="-98.526415899395943">
        <ele>2360.173828125</ele>
        <time>2013-08-29T19:11:40Z</time>
      </trkpt>
      <trkpt lat="18.97671083919704" lon="-98.526253961026669">
        <ele>2358.73193359375</ele>
        <time>2013-08-29T19:11:46Z</time>
      </trkpt>
      <trkpt lat="18.976562060415745" lon="-98.526040893048048">
        <ele>2357.2900390625</ele>
        <time>2013-08-29T19:11:52Z</time>
      </trkpt>
      <trkpt lat="18.976422250270844" lon="-98.525855233892798">
        <ele>2356.32861328125</ele>
        <time>2013-08-29T19:11:58Z</time>
      </trkpt>
      <trkpt lat="18.976366259157658" lon="-98.525783065706491">
        <ele>2355.367431640625</ele>
        <time>2013-08-29T19:12:08Z</time>
      </trkpt>
      <trkpt lat="18.97636198438704" lon="-98.525779461488128">
        <ele>2355.367431640625</ele>
        <time>2013-08-29T19:12:09Z</time>
      </trkpt>
      <trkpt lat="18.97630775347352" lon="-98.525765966624022">
        <ele>2354.88671875</ele>
        <time>2013-08-29T19:12:13Z</time>
      </trkpt>
      <trkpt lat="18.976263664662838" lon="-98.525775941088796">
        <ele>2354.406005859375</ele>
        <time>2013-08-29T19:12:21Z</time>
      </trkpt>
      <trkpt lat="18.976212032139301" lon="-98.525779545307159">
        <ele>2352.964111328125</ele>
        <time>2013-08-29T19:12:28Z</time>
      </trkpt>
      <trkpt lat="18.976173894479871" lon="-98.52574685588479">
        <ele>2352.4833984375</ele>
        <time>2013-08-29T19:12:33Z</time>
      </trkpt>
      <trkpt lat="18.976134499534965" lon="-98.525644093751907">
        <ele>2352.964111328125</ele>
        <time>2013-08-29T19:12:43Z</time>
      </trkpt>
      <trkpt lat="18.976088231429458" lon="-98.52557678706944">
        <ele>2352.964111328125</ele>
        <time>2013-08-29T19:12:51Z</time>
      </trkpt>
      <trkpt lat="18.976023020222783" lon="-98.525537727400661">
        <ele>2353.44482421875</ele>
        <time>2013-08-29T19:13:01Z</time>
      </trkpt>
      <trkpt lat="18.975843647494912" lon="-98.525477545335889">
        <ele>2352.4833984375</ele>
        <time>2013-08-29T19:13:08Z</time>
      </trkpt>
      <trkpt lat="18.97564809769392" lon="-98.525326671078801">
        <ele>2350.560791015625</ele>
        <time>2013-08-29T19:13:16Z</time>
      </trkpt>
      <trkpt lat="18.975627729669213" lon="-98.525309488177299">
        <ele>2350.080322265625</ele>
        <time>2013-08-29T19:13:17Z</time>
      </trkpt>
      <trkpt lat="18.975614234805107" lon="-98.525142436847091">
        <ele>2350.080322265625</ele>
        <time>2013-08-29T19:13:22Z</time>
      </trkpt>
      <trkpt lat="18.975610043853521" lon="-98.524925680831075">
        <ele>2349.118896484375</ele>
        <time>2013-08-29T19:13:26Z</time>
      </trkpt>
      <trkpt lat="18.975563524290919" lon="-98.524771872907877">
        <ele>2347.196044921875</ele>
        <time>2013-08-29T19:13:29Z</time>
      </trkpt>
      <trkpt lat="18.975537540391088" lon="-98.524628039449453">
        <ele>2345.754150390625</ele>
        <time>2013-08-29T19:13:32Z</time>
      </trkpt>
      <trkpt lat="18.975379122421145" lon="-98.524443218484521">
        <ele>2343.350830078125</ele>
        <time>2013-08-29T19:13:38Z</time>
      </trkpt>
      <trkpt lat="18.97532606497407" lon="-98.524394435808063">
        <ele>2343.350830078125</ele>
        <time>2013-08-29T19:13:40Z</time>
      </trkpt>
      <trkpt lat="18.97520687431097" lon="-98.524054465815425">
        <ele>2341.42822265625</ele>
        <time>2013-08-29T19:13:48Z</time>
      </trkpt>
      <trkpt lat="18.975127246230841" lon="-98.523910967633128">
        <ele>2340.947509765625</ele>
        <time>2013-08-29T19:13:54Z</time>
      </trkpt>
      <trkpt lat="18.975111739709973" lon="-98.523875176906586">
        <ele>2340.947509765625</ele>
        <time>2013-08-29T19:13:55Z</time>
      </trkpt>
      <trkpt lat="18.975048791617155" lon="-98.523615673184395">
        <ele>2339.986328125</ele>
        <time>2013-08-29T19:14:02Z</time>
      </trkpt>
      <trkpt lat="18.975023897364736" lon="-98.523516179993749">
        <ele>2338.54443359375</ele>
        <time>2013-08-29T19:14:04Z</time>
      </trkpt>
      <trkpt lat="18.975018197670579" lon="-98.523461949080229">
        <ele>2339.02490234375</ele>
        <time>2013-08-29T19:14:05Z</time>
      </trkpt>
      <trkpt lat="18.974968744441867" lon="-98.523244690150023">
        <ele>2338.063720703125</ele>
        <time>2013-08-29T19:14:09Z</time>
      </trkpt>
      <trkpt lat="18.974915016442537" lon="-98.523072358220816">
        <ele>2338.063720703125</ele>
        <time>2013-08-29T19:14:12Z</time>
      </trkpt>
      <trkpt lat="18.97465911693871" lon="-98.522667093202472">
        <ele>2336.62158203125</ele>
        <time>2013-08-29T19:14:19Z</time>
      </trkpt>
      <trkpt lat="18.974593486636877" lon="-98.522572545334697">
        <ele>2336.14111328125</ele>
        <time>2013-08-29T19:14:21Z</time>
      </trkpt>
      <trkpt lat="18.97437522187829" lon="-98.522466346621513">
        <ele>2334.69921875</ele>
        <time>2013-08-29T19:14:25Z</time>
      </trkpt>
      <trkpt lat="18.974231136962771" lon="-98.52236308157444">
        <ele>2333.257080078125</ele>
        <time>2013-08-29T19:14:28Z</time>
      </trkpt>
      <trkpt lat="18.974193334579468" lon="-98.522319328039885">
        <ele>2332.2958984375</ele>
        <time>2013-08-29T19:14:29Z</time>
      </trkpt>
      <trkpt lat="18.974099960178137" lon="-98.522207345813513">
        <ele>2330.373046875</ele>
        <time>2013-08-29T19:14:36Z</time>
      </trkpt>
      <trkpt lat="18.974083447828889" lon="-98.522183038294315">
        <ele>2330.373046875</ele>
        <time>2013-08-29T19:14:46Z</time>
      </trkpt>
      <trkpt lat="18.974068779498339" lon="-98.522170046344399">
        <ele>2330.853759765625</ele>
        <time>2013-08-29T19:14:58Z</time>
      </trkpt>
      <trkpt lat="18.974070623517036" lon="-98.522161496803164">
        <ele>2330.853759765625</ele>
        <time>2013-08-29T19:15:03Z</time>
      </trkpt>
      <trkpt lat="18.97406199015677" lon="-98.522079857066274">
        <ele>2329.892333984375</ele>
        <time>2013-08-29T19:15:14Z</time>
      </trkpt>
      <trkpt lat="18.974046986550093" lon="-98.52205035276711">
        <ele>2330.373046875</ele>
        <time>2013-08-29T19:15:15Z</time>
      </trkpt>
      <trkpt lat="18.97386166267097" lon="-98.521918756887317">
        <ele>2328.930908203125</ele>
        <time>2013-08-29T19:15:20Z</time>
      </trkpt>
      <trkpt lat="18.973762169480324" lon="-98.521873829886317">
        <ele>2327.9697265625</ele>
        <time>2013-08-29T19:15:23Z</time>
      </trkpt>
      <trkpt lat="18.973659994080663" lon="-98.521567974239588">
        <ele>2325.56640625</ele>
        <time>2013-08-29T19:15:30Z</time>
      </trkpt>
      <trkpt lat="18.973674830049276" lon="-98.521207217127085">
        <ele>2324.605224609375</ele>
        <time>2013-08-29T19:15:37Z</time>
      </trkpt>
      <trkpt lat="18.973484141752124" lon="-98.521005883812904">
        <ele>2323.643798828125</ele>
        <time>2013-08-29T19:15:42Z</time>
      </trkpt>
      <trkpt lat="18.973393868654966" lon="-98.520919047296047">
        <ele>2322.6826171875</ele>
        <time>2013-08-29T19:15:44Z</time>
      </trkpt>
      <trkpt lat="18.973241988569498" lon="-98.520559463649988">
        <ele>2321.72119140625</ele>
        <time>2013-08-29T19:15:50Z</time>
      </trkpt>
      <trkpt lat="18.97314484231174" lon="-98.520284621044993">
        <ele>2319.318115234375</ele>
        <time>2013-08-29T19:15:55Z</time>
      </trkpt>
      <trkpt lat="18.973214579746127" lon="-98.520107343792915">
        <ele>2318.83740234375</ele>
        <time>2013-08-29T19:15:59Z</time>
      </trkpt>
      <trkpt lat="18.973097987473011" lon="-98.519725548103452">
        <ele>2316.43408203125</ele>
        <time>2013-08-29T19:16:05Z</time>
      </trkpt>
      <trkpt lat="18.973068064078689" lon="-98.519666539505124">
        <ele>2316.43408203125</ele>
        <time>2013-08-29T19:16:06Z</time>
      </trkpt>
      <trkpt lat="18.972803028300405" lon="-98.519219029694796">
        <ele>2315.47265625</ele>
        <time>2013-08-29T19:16:12Z</time>
      </trkpt>
      <trkpt lat="18.972550230100751" lon="-98.518901690840721">
        <ele>2314.991943359375</ele>
        <time>2013-08-29T19:16:17Z</time>
      </trkpt>
      <trkpt lat="18.97248862311244" lon="-98.51884494535625">
        <ele>2313.5498046875</ele>
        <time>2013-08-29T19:16:18Z</time>
      </trkpt>
      <trkpt lat="18.97233615629375" lon="-98.518654592335224">
        <ele>2311.62744140625</ele>
        <time>2013-08-29T19:16:21Z</time>
      </trkpt>
      <trkpt lat="18.972224341705441" lon="-98.518481254577637">
        <ele>2310.185302734375</ele>
        <time>2013-08-29T19:16:24Z</time>
      </trkpt>
      <trkpt lat="18.972133984789252" lon="-98.518351670354605">
        <ele>2308.2626953125</ele>
        <time>2013-08-29T19:16:26Z</time>
      </trkpt>
      <trkpt lat="18.971912199631333" lon="-98.518074061721563">
        <ele>2308.743408203125</ele>
        <time>2013-08-29T19:16:30Z</time>
      </trkpt>
      <trkpt lat="18.971794852986932" lon="-98.517860658466816">
        <ele>2307.301513671875</ele>
        <time>2013-08-29T19:16:33Z</time>
      </trkpt>
      <trkpt lat="18.971536187455058" lon="-98.517693523317575">
        <ele>2303.93701171875</ele>
        <time>2013-08-29T19:16:38Z</time>
      </trkpt>
      <trkpt lat="18.971465947106481" lon="-98.517624121159315">
        <ele>2303.93701171875</ele>
        <time>2013-08-29T19:16:40Z</time>
      </trkpt>
      <trkpt lat="18.971222117543221" lon="-98.517396384850144">
        <ele>2300.572265625</ele>
        <time>2013-08-29T19:16:45Z</time>
      </trkpt>
      <trkpt lat="18.971009468659759" lon="-98.517220197245479">
        <ele>2300.572265625</ele>
        <time>2013-08-29T19:16:49Z</time>
      </trkpt>
      <trkpt lat="18.970932522788644" lon="-98.517062952741981">
        <ele>2300.091796875</ele>
        <time>2013-08-29T19:16:51Z</time>
      </trkpt>
      <trkpt lat="18.970807380974293" lon="-98.516864972189069">
        <ele>2298.168701171875</ele>
        <time>2013-08-29T19:16:54Z</time>
      </trkpt>
      <trkpt lat="18.970615938305855" lon="-98.51676338352263">
        <ele>2295.284912109375</ele>
        <time>2013-08-29T19:16:59Z</time>
      </trkpt>
      <trkpt lat="18.970349729061127" lon="-98.51653128862381">
        <ele>2294.323486328125</ele>
        <time>2013-08-29T19:17:06Z</time>
      </trkpt>
      <trkpt lat="18.970332965254784" lon="-98.516105152666569">
        <ele>2292.881591796875</ele>
        <time>2013-08-29T19:17:14Z</time>
      </trkpt>
      <trkpt lat="18.97029222920537" lon="-98.516070116311312">
        <ele>2292.401123046875</ele>
        <time>2013-08-29T19:17:15Z</time>
      </trkpt>
      <trkpt lat="18.970011435449123" lon="-98.515842463821173">
        <ele>2289.997802734375</ele>
        <time>2013-08-29T19:17:21Z</time>
      </trkpt>
      <trkpt lat="18.969932561740279" lon="-98.515733499079943">
        <ele>2289.51708984375</ele>
        <time>2013-08-29T19:17:23Z</time>
      </trkpt>
      <trkpt lat="18.969811862334609" lon="-98.515468379482627">
        <ele>2289.51708984375</ele>
        <time>2013-08-29T19:17:27Z</time>
      </trkpt>
      <trkpt lat="18.969760732725263" lon="-98.515272662043571">
        <ele>2287.594482421875</ele>
        <time>2013-08-29T19:17:30Z</time>
      </trkpt>
      <trkpt lat="18.969756625592709" lon="-98.515160595998168">
        <ele>2286.633056640625</ele>
        <time>2013-08-29T19:17:32Z</time>
      </trkpt>
      <trkpt lat="18.969730474054813" lon="-98.514956077560782">
        <ele>2284.710693359375</ele>
        <time>2013-08-29T19:17:36Z</time>
      </trkpt>
      <trkpt lat="18.969634585082531" lon="-98.514834456145763">
        <ele>2284.710693359375</ele>
        <time>2013-08-29T19:17:39Z</time>
      </trkpt>
      <trkpt lat="18.96949234418571" lon="-98.514469591900706">
        <ele>2283.7490234375</ele>
        <time>2013-08-29T19:17:45Z</time>
      </trkpt>
      <trkpt lat="18.96945814602077" lon="-98.514416618272662">
        <ele>2282.78759765625</ele>
        <time>2013-08-29T19:17:46Z</time>
      </trkpt>
      <trkpt lat="18.969286987558007" lon="-98.51420296356082">
        <ele>2281.826416015625</ele>
        <time>2013-08-29T19:17:50Z</time>
      </trkpt>
      <trkpt lat="18.969224123284221" lon="-98.513998864218593">
        <ele>2279.423095703125</ele>
        <time>2013-08-29T19:17:54Z</time>
      </trkpt>
      <trkpt lat="18.969109458848834" lon="-98.513734331354499">
        <ele>2279.423095703125</ele>
        <time>2013-08-29T19:17:58Z</time>
      </trkpt>
      <trkpt lat="18.969059754163027" lon="-98.51338111795485">
        <ele>2277.981201171875</ele>
        <time>2013-08-29T19:18:03Z</time>
      </trkpt>
      <trkpt lat="18.968979958444834" lon="-98.513073334470391">
        <ele>2277.50048828125</ele>
        <time>2013-08-29T19:18:07Z</time>
      </trkpt>
      <trkpt lat="18.968923632055521" lon="-98.512902092188597">
        <ele>2276.539306640625</ele>
        <time>2013-08-29T19:18:09Z</time>
      </trkpt>
      <trkpt lat="18.968695979565382" lon="-98.5124287661165">
        <ele>2272.694091796875</ele>
        <time>2013-08-29T19:18:15Z</time>
      </trkpt>
      <trkpt lat="18.968566479161382" lon="-98.512115199118853">
        <ele>2271.251953125</ele>
        <time>2013-08-29T19:18:19Z</time>
      </trkpt>
      <trkpt lat="18.968502273783088" lon="-98.511979831382632">
        <ele>2269.81005859375</ele>
        <time>2013-08-29T19:18:21Z</time>
      </trkpt>
      <trkpt lat="18.968434548005462" lon="-98.511853851377964">
        <ele>2269.32958984375</ele>
        <time>2013-08-29T19:18:23Z</time>
      </trkpt>
      <trkpt lat="18.968329522758722" lon="-98.511505918577313">
        <ele>2267.406494140625</ele>
        <time>2013-08-29T19:18:28Z</time>
      </trkpt>
      <trkpt lat="18.968241680413485" lon="-98.511252198368311">
        <ele>2263.561279296875</ele>
        <time>2013-08-29T19:18:32Z</time>
      </trkpt>
      <trkpt lat="18.968243021517992" lon="-98.511183131486177">
        <ele>2263.561279296875</ele>
        <time>2013-08-29T19:18:33Z</time>
      </trkpt>
      <trkpt lat="18.968207649886608" lon="-98.510857746005058">
        <ele>2262.119384765625</ele>
        <time>2013-08-29T19:18:37Z</time>
      </trkpt>
      <trkpt lat="18.968092733994126" lon="-98.510509394109249">
        <ele>2261.158203125</ele>
        <time>2013-08-29T19:18:41Z</time>
      </trkpt>
      <trkpt lat="18.967929286882281" lon="-98.510305043309927">
        <ele>2260.19677734375</ele>
        <time>2013-08-29T19:18:45Z</time>
      </trkpt>
      <trkpt lat="18.967519998550415" lon="-98.510062890127301">
        <ele>2258.274169921875</ele>
        <time>2013-08-29T19:18:51Z</time>
      </trkpt>
      <trkpt lat="18.967443555593491" lon="-98.509936071932316">
        <ele>2256.3515625</ele>
        <time>2013-08-29T19:18:54Z</time>
      </trkpt>
      <trkpt lat="18.967390079051256" lon="-98.509723674505949">
        <ele>2256.832275390625</ele>
        <time>2013-08-29T19:18:57Z</time>
      </trkpt>
      <trkpt lat="18.967267870903015" lon="-98.509498871862888">
        <ele>2255.390380859375</ele>
        <time>2013-08-29T19:19:00Z</time>
      </trkpt>
      <trkpt lat="18.96715035662055" lon="-98.509303070604801">
        <ele>2253.948486328125</ele>
        <time>2013-08-29T19:19:03Z</time>
      </trkpt>
      <trkpt lat="18.966912226751447" lon="-98.508792025968432">
        <ele>2251.544921875</ele>
        <time>2013-08-29T19:19:09Z</time>
      </trkpt>
      <trkpt lat="18.96684642881155" lon="-98.508652551099658">
        <ele>2250.58349609375</ele>
        <time>2013-08-29T19:19:11Z</time>
      </trkpt>
      <trkpt lat="18.966819690540433" lon="-98.508500168099999">
        <ele>2249.1416015625</ele>
        <time>2013-08-29T19:19:13Z</time>
      </trkpt>
      <trkpt lat="18.966736542060971" lon="-98.508258853107691">
        <ele>2248.18017578125</ele>
        <time>2013-08-29T19:19:17Z</time>
      </trkpt>
      <trkpt lat="18.966658171266317" lon="-98.50812641903758">
        <ele>2248.18017578125</ele>
        <time>2013-08-29T19:19:19Z</time>
      </trkpt>
      <trkpt lat="18.966507548466325" lon="-98.507964732125401">
        <ele>2248.660888671875</ele>
        <time>2013-08-29T19:19:22Z</time>
      </trkpt>
      <trkpt lat="18.9664242323488" lon="-98.507841434329748">
        <ele>2246.73828125</ele>
        <time>2013-08-29T19:19:24Z</time>
      </trkpt>
      <trkpt lat="18.966293726116419" lon="-98.507536333054304">
        <ele>2246.73828125</ele>
        <time>2013-08-29T19:19:28Z</time>
      </trkpt>
      <trkpt lat="18.966264640912414" lon="-98.50747112184763">
        <ele>2245.777099609375</ele>
        <time>2013-08-29T19:19:29Z</time>
      </trkpt>
      <trkpt lat="18.966222060844302" lon="-98.507330724969506">
        <ele>2244.3349609375</ele>
        <time>2013-08-29T19:19:31Z</time>
      </trkpt>
      <trkpt lat="18.966140756383538" lon="-98.507129224017262">
        <ele>2244.3349609375</ele>
        <time>2013-08-29T19:19:34Z</time>
      </trkpt>
      <trkpt lat="18.965979069471359" lon="-98.506914898753166">
        <ele>2241.931884765625</ele>
        <time>2013-08-29T19:19:38Z</time>
      </trkpt>
      <trkpt lat="18.965928191319108" lon="-98.506653467193246">
        <ele>2240.00927734375</ele>
        <time>2013-08-29T19:19:44Z</time>
      </trkpt>
      <trkpt lat="18.966016955673695" lon="-98.506520865485072">
        <ele>2239.0478515625</ele>
        <time>2013-08-29T19:19:48Z</time>
      </trkpt>
      <trkpt lat="18.966056434437633" lon="-98.506413158029318">
        <ele>2238.5673828125</ele>
        <time>2013-08-29T19:19:50Z</time>
      </trkpt>
      <trkpt lat="18.966121897101402" lon="-98.506288938224316">
        <ele>2237.60595703125</ele>
        <time>2013-08-29T19:19:52Z</time>
      </trkpt>
      <trkpt lat="18.966301688924432" lon="-98.505612686276436">
        <ele>2237.125244140625</ele>
        <time>2013-08-29T19:20:00Z</time>
      </trkpt>
      <trkpt lat="18.966409731656313" lon="-98.505065180361271">
        <ele>2235.202392578125</ele>
        <time>2013-08-29T19:20:05Z</time>
      </trkpt>
      <trkpt lat="18.966466058045626" lon="-98.504701154306531">
        <ele>2238.086669921875</ele>
        <time>2013-08-29T19:20:08Z</time>
      </trkpt>
      <trkpt lat="18.966643083840609" lon="-98.503786018118262">
        <ele>2236.64453125</ele>
        <time>2013-08-29T19:20:15Z</time>
      </trkpt>
      <trkpt lat="18.966719275340438" lon="-98.50330607034266">
        <ele>2235.202392578125</ele>
        <time>2013-08-29T19:20:19Z</time>
      </trkpt>
      <trkpt lat="18.966881046071649" lon="-98.502355478703976">
        <ele>2232.318603515625</ele>
        <time>2013-08-29T19:20:27Z</time>
      </trkpt>
      <trkpt lat="18.966900995001197" lon="-98.502213656902313">
        <ele>2230.876708984375</ele>
        <time>2013-08-29T19:20:29Z</time>
      </trkpt>
      <trkpt lat="18.967000572010875" lon="-98.501638825982809">
        <ele>2230.39599609375</ele>
        <time>2013-08-29T19:20:37Z</time>
      </trkpt>
      <trkpt lat="18.967016749083996" lon="-98.501415867358446">
        <ele>2227.031494140625</ele>
        <time>2013-08-29T19:20:40Z</time>
      </trkpt>
      <trkpt lat="18.967089084908366" lon="-98.500724527984858">
        <ele>2229.4345703125</ele>
        <time>2013-08-29T19:20:48Z</time>
      </trkpt>
      <trkpt lat="18.967254040762782" lon="-98.499745689332485">
        <ele>2227.99267578125</ele>
        <time>2013-08-29T19:20:56Z</time>
      </trkpt>
      <trkpt lat="18.967468617483974" lon="-98.498461581766605">
        <ele>2225.108642578125</ele>
        <time>2013-08-29T19:21:06Z</time>
      </trkpt>
      <trkpt lat="18.967562327161431" lon="-98.497891696169972">
        <ele>2221.744140625</ele>
        <time>2013-08-29T19:21:12Z</time>
      </trkpt>
      <trkpt lat="18.967579929158092" lon="-98.497636970132589">
        <ele>2218.860107421875</ele>
        <time>2013-08-29T19:21:16Z</time>
      </trkpt>
      <trkpt lat="18.967605996876955" lon="-98.497508224099874">
        <ele>2217.898681640625</ele>
        <time>2013-08-29T19:21:18Z</time>
      </trkpt>
      <trkpt lat="18.967565260827541" lon="-98.497026097029448">
        <ele>2217.41796875</ele>
        <time>2013-08-29T19:21:23Z</time>
      </trkpt>
      <trkpt lat="18.967488734051585" lon="-98.496017418801785">
        <ele>2221.263427734375</ele>
        <time>2013-08-29T19:21:32Z</time>
      </trkpt>
      <trkpt lat="18.967449171468616" lon="-98.495351057499647">
        <ele>2217.41796875</ele>
        <time>2013-08-29T19:21:37Z</time>
      </trkpt>
      <trkpt lat="18.967389073222876" lon="-98.494743788614869">
        <ele>2216.9375</ele>
        <time>2013-08-29T19:21:43Z</time>
      </trkpt>
      <trkpt lat="18.967380858957767" lon="-98.494668686762452">
        <ele>2216.9375</ele>
        <time>2013-08-29T19:21:44Z</time>
      </trkpt>
      <trkpt lat="18.967366777360439" lon="-98.494309522211552">
        <ele>2215.97607421875</ele>
        <time>2013-08-29T19:21:49Z</time>
      </trkpt>
      <trkpt lat="18.967357389628887" lon="-98.493511229753494">
        <ele>2215.014892578125</ele>
        <time>2013-08-29T19:21:57Z</time>
      </trkpt>
      <trkpt lat="18.9673653524369" lon="-98.493384746834636">
        <ele>2214.5341796875</ele>
        <time>2013-08-29T19:21:58Z</time>
      </trkpt>
      <trkpt lat="18.967380439862609" lon="-98.492101645097136">
        <ele>2214.053466796875</ele>
        <time>2013-08-29T19:22:07Z</time>
      </trkpt>
      <trkpt lat="18.967388989403844" lon="-98.49167819134891">
        <ele>2212.611572265625</ele>
        <time>2013-08-29T19:22:10Z</time>
      </trkpt>
      <trkpt lat="18.967383038252592" lon="-98.49144022911787">
        <ele>2211.650390625</ele>
        <time>2013-08-29T19:22:12Z</time>
      </trkpt>
      <trkpt lat="18.967335680499673" lon="-98.490408081561327">
        <ele>2209.7275390625</ele>
        <time>2013-08-29T19:22:20Z</time>
      </trkpt>
      <trkpt lat="18.967318749055266" lon="-98.490131897851825">
        <ele>2206.363037109375</ele>
        <time>2013-08-29T19:22:22Z</time>
      </trkpt>
      <trkpt lat="18.967309026047587" lon="-98.490006839856505">
        <ele>2206.363037109375</ele>
        <time>2013-08-29T19:22:23Z</time>
      </trkpt>
      <trkpt lat="18.967290669679642" lon="-98.489711126312613">
        <ele>2204.921142578125</ele>
        <time>2013-08-29T19:22:26Z</time>
      </trkpt>
      <trkpt lat="18.967156559228897" lon="-98.489595456048846">
        <ele>2204.4404296875</ele>
        <time>2013-08-29T19:22:31Z</time>
      </trkpt>
      <trkpt lat="18.967054551467299" lon="-98.489680029451847">
        <ele>2205.40185546875</ele>
        <time>2013-08-29T19:22:33Z</time>
      </trkpt>
      <trkpt lat="18.966594217345119" lon="-98.490058723837137">
        <ele>2202.998291015625</ele>
        <time>2013-08-29T19:22:39Z</time>
      </trkpt>
      <trkpt lat="18.96632163785398" lon="-98.490319987758994">
        <ele>2202.517578125</ele>
        <time>2013-08-29T19:22:43Z</time>
      </trkpt>
      <trkpt lat="18.966164644807577" lon="-98.490440938621759">
        <ele>2203.959716796875</ele>
        <time>2013-08-29T19:22:45Z</time>
      </trkpt>
      <trkpt lat="18.965511778369546" lon="-98.490981319919229">
        <ele>2204.4404296875</ele>
        <time>2013-08-29T19:22:52Z</time>
      </trkpt>
      <trkpt lat="18.964319368824363" lon="-98.491981029510498">
        <ele>2207.80517578125</ele>
        <time>2013-08-29T19:23:03Z</time>
      </trkpt>
      <trkpt lat="18.963784351944923" lon="-98.492394173517823">
        <ele>2202.998291015625</ele>
        <time>2013-08-29T19:23:08Z</time>
      </trkpt>
      <trkpt lat="18.963603051379323" lon="-98.49254546687007">
        <ele>2201.07568359375</ele>
        <time>2013-08-29T19:23:10Z</time>
      </trkpt>
      <trkpt lat="18.963146740570664" lon="-98.492894070222974">
        <ele>2196.749755859375</ele>
        <time>2013-08-29T19:23:16Z</time>
      </trkpt>
      <trkpt lat="18.962777769193053" lon="-98.49314502440393">
        <ele>2193.38525390625</ele>
        <time>2013-08-29T19:23:21Z</time>
      </trkpt>
      <trkpt lat="18.962551541626453" lon="-98.493091380223632">
        <ele>2193.38525390625</ele>
        <time>2013-08-29T19:23:26Z</time>
      </trkpt>
      <trkpt lat="18.962480379268527" lon="-98.493006974458694">
        <ele>2191.943359375</ele>
        <time>2013-08-29T19:23:28Z</time>
      </trkpt>
      <trkpt lat="18.962217187508941" lon="-98.492830954492092">
        <ele>2190.501220703125</ele>
        <time>2013-08-29T19:23:33Z</time>
      </trkpt>
      <trkpt lat="18.962038569152355" lon="-98.492762139067054">
        <ele>2189.5400390625</ele>
        <time>2013-08-29T19:23:36Z</time>
      </trkpt>
      <trkpt lat="18.961629197001457" lon="-98.492576144635677">
        <ele>2189.5400390625</ele>
        <time>2013-08-29T19:23:43Z</time>
      </trkpt>
      <trkpt lat="18.961340272799134" lon="-98.492514621466398">
        <ele>2186.17529296875</ele>
        <time>2013-08-29T19:23:49Z</time>
      </trkpt>
      <trkpt lat="18.96116659976542" lon="-98.492472795769572">
        <ele>2186.17529296875</ele>
        <time>2013-08-29T19:23:55Z</time>
      </trkpt>
      <trkpt lat="18.960925117135048" lon="-98.492371458560228">
        <ele>2185.694580078125</ele>
        <time>2013-08-29T19:24:01Z</time>
      </trkpt>
      <trkpt lat="18.960521277040243" lon="-98.492198456078768">
        <ele>2184.252685546875</ele>
        <time>2013-08-29T19:24:10Z</time>
      </trkpt>
      <trkpt lat="18.960476350039244" lon="-98.492180099710822">
        <ele>2184.252685546875</ele>
        <time>2013-08-29T19:24:11Z</time>
      </trkpt>
      <trkpt lat="18.960348023101687" lon="-98.492148751392961">
        <ele>2182.810546875</ele>
        <time>2013-08-29T19:24:14Z</time>
      </trkpt>
      <trkpt lat="18.960298066958785" lon="-98.492155959829688">
        <ele>2182.810546875</ele>
        <time>2013-08-29T19:24:15Z</time>
      </trkpt>
      <trkpt lat="18.960067564621568" lon="-98.492182698100805">
        <ele>2182.810546875</ele>
        <time>2013-08-29T19:24:19Z</time>
      </trkpt>
      <trkpt lat="18.959903279319406" lon="-98.492234582081437">
        <ele>2182.330078125</ele>
        <time>2013-08-29T19:24:22Z</time>
      </trkpt>
      <trkpt lat="18.959412854164839" lon="-98.492239695042372">
        <ele>2181.849365234375</ele>
        <time>2013-08-29T19:24:30Z</time>
      </trkpt>
      <trkpt lat="18.959297686815262" lon="-98.492223182693124">
        <ele>2180.407470703125</ele>
        <time>2013-08-29T19:24:32Z</time>
      </trkpt>
      <trkpt lat="18.959134239703417" lon="-98.492228295654058">
        <ele>2179.9267578125</ele>
        <time>2013-08-29T19:24:35Z</time>
      </trkpt>
      <trkpt lat="18.958917232230306" lon="-98.492160486057401">
        <ele>2178.48486328125</ele>
        <time>2013-08-29T19:24:39Z</time>
      </trkpt>
      <trkpt lat="18.958869790658355" lon="-98.492121594026685">
        <ele>2178.004150390625</ele>
        <time>2013-08-29T19:24:40Z</time>
      </trkpt>
      <trkpt lat="18.958729561418295" lon="-98.491980694234371">
        <ele>2177.5234375</ele>
        <time>2013-08-29T19:24:43Z</time>
      </trkpt>
      <trkpt lat="18.9583027549088" lon="-98.49176025018096">
        <ele>2173.67822265625</ele>
        <time>2013-08-29T19:24:52Z</time>
      </trkpt>
      <trkpt lat="18.95823142491281" lon="-98.491777181625366">
        <ele>2173.19775390625</ele>
        <time>2013-08-29T19:24:56Z</time>
      </trkpt>
      <trkpt lat="18.957938980311155" lon="-98.491705935448408">
        <ele>2173.19775390625</ele>
        <time>2013-08-29T19:25:04Z</time>
      </trkpt>
      <trkpt lat="18.95781559869647" lon="-98.491679951548576">
        <ele>2170.794189453125</ele>
        <time>2013-08-29T19:25:08Z</time>
      </trkpt>
      <trkpt lat="18.957767318934202" lon="-98.491630330681801">
        <ele>2170.794189453125</ele>
        <time>2013-08-29T19:25:10Z</time>
      </trkpt>
      <trkpt lat="18.957631783559918" lon="-98.491436541080475">
        <ele>2169.832763671875</ele>
        <time>2013-08-29T19:25:18Z</time>
      </trkpt>
      <trkpt lat="18.957525920122862" lon="-98.491375269368291">
        <ele>2169.352294921875</ele>
        <time>2013-08-29T19:25:21Z</time>
      </trkpt>
      <trkpt lat="18.957206653431058" lon="-98.491290025413036">
        <ele>2169.352294921875</ele>
        <time>2013-08-29T19:25:30Z</time>
      </trkpt>
      <trkpt lat="18.957025520503521" lon="-98.491216180846095">
        <ele>2166.948974609375</ele>
        <time>2013-08-29T19:25:36Z</time>
      </trkpt>
      <trkpt lat="18.957009762525558" lon="-98.491215845569968">
        <ele>2166.46826171875</ele>
        <time>2013-08-29T19:25:38Z</time>
      </trkpt>
      <trkpt lat="18.956912029534578" lon="-98.491195561364293">
        <ele>2167.429443359375</ele>
        <time>2013-08-29T19:25:43Z</time>
      </trkpt>
      <trkpt lat="18.956710360944271" lon="-98.491227580234408">
        <ele>2168.87158203125</ele>
        <time>2013-08-29T19:25:48Z</time>
      </trkpt>
      <trkpt lat="18.956549596041441" lon="-98.491369653493166">
        <ele>2168.390869140625</ele>
        <time>2013-08-29T19:25:52Z</time>
      </trkpt>
      <trkpt lat="18.956513050943613" lon="-98.49142849445343">
        <ele>2168.390869140625</ele>
        <time>2013-08-29T19:25:55Z</time>
      </trkpt>
      <trkpt lat="18.95639612339437" lon="-98.491468979045749">
        <ele>2169.352294921875</ele>
        <time>2013-08-29T19:26:03Z</time>
      </trkpt>
      <trkpt lat="18.956334097310901" lon="-98.49151398986578">
        <ele>2170.3134765625</ele>
        <time>2013-08-29T19:26:05Z</time>
      </trkpt>
      <trkpt lat="18.956151539459825" lon="-98.49159806035459">
        <ele>2172.236328125</ele>
        <time>2013-08-29T19:26:09Z</time>
      </trkpt>
      <trkpt lat="18.95566999912262" lon="-98.491858150810003">
        <ele>2172.236328125</ele>
        <time>2013-08-29T19:26:15Z</time>
      </trkpt>
      <trkpt lat="18.955486267805099" lon="-98.491957057267427">
        <ele>2171.274658203125</ele>
        <time>2013-08-29T19:26:17Z</time>
      </trkpt>
      <trkpt lat="18.954819655045867" lon="-98.492349246516824">
        <ele>2169.352294921875</ele>
        <time>2013-08-29T19:26:24Z</time>
      </trkpt>
      <trkpt lat="18.954746061936021" lon="-98.492393251508474">
        <ele>2168.390869140625</ele>
        <time>2013-08-29T19:26:25Z</time>
      </trkpt>
      <trkpt lat="18.954363344237208" lon="-98.492472376674414">
        <ele>2165.507080078125</ele>
        <time>2013-08-29T19:26:30Z</time>
      </trkpt>
      <trkpt lat="18.954128818586469" lon="-98.492524093016982">
        <ele>2162.623046875</ele>
        <time>2013-08-29T19:26:33Z</time>
      </trkpt>
      <trkpt lat="18.953787591308355" lon="-98.492500958964229">
        <ele>2165.507080078125</ele>
        <time>2013-08-29T19:26:37Z</time>
      </trkpt>
      <trkpt lat="18.953417781740427" lon="-98.492373637855053">
        <ele>2164.545654296875</ele>
        <time>2013-08-29T19:26:41Z</time>
      </trkpt>
      <trkpt lat="18.953084517270327" lon="-98.492340445518494">
        <ele>2160.700439453125</ele>
        <time>2013-08-29T19:26:45Z</time>
      </trkpt>
      <trkpt lat="18.952600378543139" lon="-98.49240817129612">
        <ele>2158.297119140625</ele>
        <time>2013-08-29T19:26:51Z</time>
      </trkpt>
      <trkpt lat="18.95229946821928" lon="-98.492381433025002">
        <ele>2156.37451171875</ele>
        <time>2013-08-29T19:26:55Z</time>
      </trkpt>
      <trkpt lat="18.951979447156191" lon="-98.492509759962559">
        <ele>2154.45166015625</ele>
        <time>2013-08-29T19:27:01Z</time>
      </trkpt>
      <trkpt lat="18.951699072495103" lon="-98.492705896496773">
        <ele>2153.97119140625</ele>
        <time>2013-08-29T19:27:07Z</time>
      </trkpt>
      <trkpt lat="18.951522465795279" lon="-98.492652336135507">
        <ele>2153.97119140625</ele>
        <time>2013-08-29T19:27:11Z</time>
      </trkpt>
      <trkpt lat="18.951206551864743" lon="-98.492393754422665">
        <ele>2150.6064453125</ele>
        <time>2013-08-29T19:27:17Z</time>
      </trkpt>
      <trkpt lat="18.951148884370923" lon="-98.492348324507475">
        <ele>2151.087158203125</ele>
        <time>2013-08-29T19:27:18Z</time>
      </trkpt>
      <trkpt lat="18.950968757271767" lon="-98.492206335067749">
        <ele>2148.203125</ele>
        <time>2013-08-29T19:27:21Z</time>
      </trkpt>
      <trkpt lat="18.950903294607997" lon="-98.492158139124513">
        <ele>2147.72265625</ele>
        <time>2013-08-29T19:27:22Z</time>
      </trkpt>
      <trkpt lat="18.950647981837392" lon="-98.49191271699965">
        <ele>2147.241943359375</ele>
        <time>2013-08-29T19:27:26Z</time>
      </trkpt>
      <trkpt lat="18.95038889721036" lon="-98.491789670661092">
        <ele>2145.800048828125</ele>
        <time>2013-08-29T19:27:31Z</time>
      </trkpt>
      <trkpt lat="18.950302731245756" lon="-98.491749269887805">
        <ele>2144.838623046875</ele>
        <time>2013-08-29T19:27:33Z</time>
      </trkpt>
      <trkpt lat="18.950269874185324" lon="-98.491739295423031">
        <ele>2144.838623046875</ele>
        <time>2013-08-29T19:27:34Z</time>
      </trkpt>
      <trkpt lat="18.950318656861782" lon="-98.491686154156923">
        <ele>2144.838623046875</ele>
        <time>2013-08-29T19:27:40Z</time>
      </trkpt>
      <trkpt lat="18.950460562482476" lon="-98.49157358519733">
        <ele>2146.76123046875</ele>
        <time>2013-08-29T19:27:47Z</time>
      </trkpt>
      <trkpt lat="18.950521750375628" lon="-98.491488844156265">
        <ele>2148.683837890625</ele>
        <time>2013-08-29T19:27:50Z</time>
      </trkpt>
      <trkpt lat="18.95073582418263" lon="-98.49116463214159">
        <ele>2151.087158203125</ele>
        <time>2013-08-29T19:27:57Z</time>
      </trkpt>
      <trkpt lat="18.951113261282444" lon="-98.490631459280849">
        <ele>2153.97119140625</ele>
        <time>2013-08-29T19:28:06Z</time>
      </trkpt>
      <trkpt lat="18.951488770544529" lon="-98.490164335817099">
        <ele>2154.45166015625</ele>
        <time>2013-08-29T19:28:14Z</time>
      </trkpt>
      <trkpt lat="18.951971987262368" lon="-98.489512978121638">
        <ele>2155.8935546875</ele>
        <time>2013-08-29T19:28:25Z</time>
      </trkpt>
      <trkpt lat="18.952070474624634" lon="-98.489428572356701">
        <ele>2155.4130859375</ele>
        <time>2013-08-29T19:28:28Z</time>
      </trkpt>
      <trkpt lat="18.952162759378552" lon="-98.489524126052856">
        <ele>2154.932373046875</ele>
        <time>2013-08-29T19:28:32Z</time>
      </trkpt>
      <trkpt lat="18.95228136330843" lon="-98.489767285063863">
        <ele>2155.4130859375</ele>
        <time>2013-08-29T19:28:38Z</time>
      </trkpt>
      <trkpt lat="18.952546063810587" lon="-98.489822940900922">
        <ele>2158.297119140625</ele>
        <time>2013-08-29T19:28:43Z</time>
      </trkpt>
      <trkpt lat="18.952669948339462" lon="-98.489800645038486">
        <ele>2158.297119140625</ele>
        <time>2013-08-29T19:28:45Z</time>
      </trkpt>
      <trkpt lat="18.952948898077011" lon="-98.489870717749">
        <ele>2159.258544921875</ele>
        <time>2013-08-29T19:28:49Z</time>
      </trkpt>
      <trkpt lat="18.953315857797861" lon="-98.490065261721611">
        <ele>2161.18115234375</ele>
        <time>2013-08-29T19:28:55Z</time>
      </trkpt>
      <trkpt lat="18.953413255512714" lon="-98.490221835672855">
        <ele>2159.258544921875</ele>
        <time>2013-08-29T19:28:58Z</time>
      </trkpt>
      <trkpt lat="18.953701173886657" lon="-98.490167772397399">
        <ele>2156.37451171875</ele>
        <time>2013-08-29T19:29:05Z</time>
      </trkpt>
      <trkpt lat="18.953779628500342" lon="-98.490050258114934">
        <ele>2155.4130859375</ele>
        <time>2013-08-29T19:29:08Z</time>
      </trkpt>
      <trkpt lat="18.953775437548757" lon="-98.489835094660521">
        <ele>2152.529052734375</ele>
        <time>2013-08-29T19:29:15Z</time>
      </trkpt>
      <trkpt lat="18.95366077311337" lon="-98.489646166563034">
        <ele>2152.04833984375</ele>
        <time>2013-08-29T19:29:22Z</time>
      </trkpt>
      <trkpt lat="18.953507216647267" lon="-98.489505434408784">
        <ele>2154.45166015625</ele>
        <time>2013-08-29T19:29:30Z</time>
      </trkpt>
      <trkpt lat="18.953453069552779" lon="-98.489435780793428">
        <ele>2153.97119140625</ele>
        <time>2013-08-29T19:29:37Z</time>
      </trkpt>
      <trkpt lat="18.953433958813548" lon="-98.489426393061876">
        <ele>2153.97119140625</ele>
        <time>2013-08-29T19:29:46Z</time>
      </trkpt>
      <trkpt lat="18.95335634239018" lon="-98.489373670890927">
        <ele>2156.37451171875</ele>
        <time>2013-08-29T19:29:59Z</time>
      </trkpt>
      <trkpt lat="18.95331627689302" lon="-98.489369982853532">
        <ele>2156.855224609375</ele>
        <time>2013-08-29T19:30:04Z</time>
      </trkpt>
      <trkpt lat="18.95327914506197" lon="-98.489361181855202">
        <ele>2156.855224609375</ele>
        <time>2013-08-29T19:30:08Z</time>
      </trkpt>
      <trkpt lat="18.953185183927417" lon="-98.489295719191432">
        <ele>2157.3359375</ele>
        <time>2013-08-29T19:30:21Z</time>
      </trkpt>
      <trkpt lat="18.953129192814231" lon="-98.489231849089265">
        <ele>2157.816650390625</ele>
        <time>2013-08-29T19:30:24Z</time>
      </trkpt>
      <trkpt lat="18.952978737652302" lon="-98.489110646769404">
        <ele>2157.3359375</ele>
        <time>2013-08-29T19:30:28Z</time>
      </trkpt>
      <trkpt lat="18.95295568741858" lon="-98.488901099190116">
        <ele>2157.816650390625</ele>
        <time>2013-08-29T19:30:33Z</time>
      </trkpt>
      <trkpt lat="18.952853931114078" lon="-98.488805294036865">
        <ele>2156.855224609375</ele>
        <time>2013-08-29T19:30:37Z</time>
      </trkpt>
      <trkpt lat="18.952615298330784" lon="-98.488792050629854">
        <ele>2156.855224609375</ele>
        <time>2013-08-29T19:30:42Z</time>
      </trkpt>
      <trkpt lat="18.952429974451661" lon="-98.488800432533026">
        <ele>2154.932373046875</ele>
        <time>2013-08-29T19:30:45Z</time>
      </trkpt>
      <trkpt lat="18.952358728274703" lon="-98.48879967816174">
        <ele>2155.4130859375</ele>
        <time>2013-08-29T19:30:46Z</time>
      </trkpt>
      <trkpt lat="18.952218918129802" lon="-98.488778723403811">
        <ele>2156.37451171875</ele>
        <time>2013-08-29T19:30:48Z</time>
      </trkpt>
      <trkpt lat="18.952045496553183" lon="-98.488719295710325">
        <ele>2155.4130859375</ele>
        <time>2013-08-29T19:30:51Z</time>
      </trkpt>
      <trkpt lat="18.951830836012959" lon="-98.488628854975104">
        <ele>2154.932373046875</ele>
        <time>2013-08-29T19:30:55Z</time>
      </trkpt>
      <trkpt lat="18.951441664248705" lon="-98.488479154184461">
        <ele>2152.529052734375</ele>
        <time>2013-08-29T19:31:02Z</time>
      </trkpt>
      <trkpt lat="18.95141308195889" lon="-98.488429365679622">
        <ele>2152.529052734375</ele>
        <time>2013-08-29T19:31:03Z</time>
      </trkpt>
      <trkpt lat="18.951178472489119" lon="-98.488247394561768">
        <ele>2150.1259765625</ele>
        <time>2013-08-29T19:31:10Z</time>
      </trkpt>
      <trkpt lat="18.950884267687798" lon="-98.488259380683303">
        <ele>2150.6064453125</ele>
        <time>2013-08-29T19:31:15Z</time>
      </trkpt>
      <trkpt lat="18.950634989887476" lon="-98.488209592178464">
        <ele>2149.16455078125</ele>
        <time>2013-08-29T19:31:19Z</time>
      </trkpt>
      <trkpt lat="18.950437344610691" lon="-98.487937599420547">
        <ele>2147.241943359375</ele>
        <time>2013-08-29T19:31:26Z</time>
      </trkpt>
      <trkpt lat="18.950349753722548" lon="-98.487805332988501">
        <ele>2147.241943359375</ele>
        <time>2013-08-29T19:31:31Z</time>
      </trkpt>
      <trkpt lat="18.949882043525577" lon="-98.487779349088669">
        <ele>2146.28076171875</ele>
        <time>2013-08-29T19:31:38Z</time>
      </trkpt>
      <trkpt lat="18.949671741575003" lon="-98.487753784283996">
        <ele>2144.838623046875</ele>
        <time>2013-08-29T19:31:41Z</time>
      </trkpt>
      <trkpt lat="18.949498739093542" lon="-98.487742217257619">
        <ele>2143.396728515625</ele>
        <time>2013-08-29T19:31:44Z</time>
      </trkpt>
      <trkpt lat="18.949266392737627" lon="-98.487745234742761">
        <ele>2142.435546875</ele>
        <time>2013-08-29T19:31:48Z</time>
      </trkpt>
      <trkpt lat="18.949188021942973" lon="-98.487637024372816">
        <ele>2141.47412109375</ele>
        <time>2013-08-29T19:31:52Z</time>
      </trkpt>
      <trkpt lat="18.948997417464852" lon="-98.48746913485229">
        <ele>2143.396728515625</ele>
        <time>2013-08-29T19:31:58Z</time>
      </trkpt>
      <trkpt lat="18.948844699189067" lon="-98.487600395455956">
        <ele>2140.5126953125</ele>
        <time>2013-08-29T19:32:01Z</time>
      </trkpt>
      <trkpt lat="18.948720982298255" lon="-98.487712377682328">
        <ele>2139.070556640625</ele>
        <time>2013-08-29T19:32:04Z</time>
      </trkpt>
      <trkpt lat="18.948601288720965" lon="-98.487710282206535">
        <ele>2139.070556640625</ele>
        <time>2013-08-29T19:32:06Z</time>
      </trkpt>
      <trkpt lat="18.948163334280252" lon="-98.487520096823573">
        <ele>2139.070556640625</ele>
        <time>2013-08-29T19:32:12Z</time>
      </trkpt>
      <trkpt lat="18.948039198294282" lon="-98.487375676631927">
        <ele>2138.590087890625</ele>
        <time>2013-08-29T19:32:15Z</time>
      </trkpt>
      <trkpt lat="18.947855634614825" lon="-98.487299233675003">
        <ele>2138.109375</ele>
        <time>2013-08-29T19:32:19Z</time>
      </trkpt>
      <trkpt lat="18.947355821728706" lon="-98.487306777387857">
        <ele>2135.225341796875</ele>
        <time>2013-08-29T19:32:27Z</time>
      </trkpt>
      <trkpt lat="18.947045523673296" lon="-98.487325720489025">
        <ele>2133.302734375</ele>
        <time>2013-08-29T19:32:32Z</time>
      </trkpt>
      <trkpt lat="18.946927757933736" lon="-98.487337874248624">
        <ele>2133.783447265625</ele>
        <time>2013-08-29T19:32:34Z</time>
      </trkpt>
      <trkpt lat="18.946672780439258" lon="-98.487301161512733">
        <ele>2132.822021484375</ele>
        <time>2013-08-29T19:32:38Z</time>
      </trkpt>
      <trkpt lat="18.946457365527749" lon="-98.487401157617569">
        <ele>2129.938232421875</ele>
        <time>2013-08-29T19:32:42Z</time>
      </trkpt>
      <trkpt lat="18.946207081899047" lon="-98.487524790689349">
        <ele>2130.4189453125</ele>
        <time>2013-08-29T19:32:46Z</time>
      </trkpt>
      <trkpt lat="18.945822017267346" lon="-98.487614057958126">
        <ele>2128.976806640625</ele>
        <time>2013-08-29T19:32:51Z</time>
      </trkpt>
      <trkpt lat="18.945609116926789" lon="-98.487607520073652">
        <ele>2127.054443359375</ele>
        <time>2013-08-29T19:32:54Z</time>
      </trkpt>
      <trkpt lat="18.945324635133147" lon="-98.487540381029248">
        <ele>2125.6123046875</ele>
        <time>2013-08-29T19:32:58Z</time>
      </trkpt>
      <trkpt lat="18.94500176422298" lon="-98.487535770982504">
        <ele>2121.766845703125</ele>
        <time>2013-08-29T19:33:03Z</time>
      </trkpt>
      <trkpt lat="18.944740667939186" lon="-98.487533759325743">
        <ele>2120.8056640625</ele>
        <time>2013-08-29T19:33:08Z</time>
      </trkpt>
      <trkpt lat="18.944487031549215" lon="-98.487560832872987">
        <ele>2120.8056640625</ele>
        <time>2013-08-29T19:33:12Z</time>
      </trkpt>
      <trkpt lat="18.944342276081443" lon="-98.487560246139765">
        <ele>2119.36376953125</ele>
        <time>2013-08-29T19:33:14Z</time>
      </trkpt>
      <trkpt lat="18.944154772907495" lon="-98.487537195906043">
        <ele>2117.44091796875</ele>
        <time>2013-08-29T19:33:17Z</time>
      </trkpt>
      <trkpt lat="18.944008089601994" lon="-98.48756292834878">
        <ele>2115.9990234375</ele>
        <time>2013-08-29T19:33:20Z</time>
      </trkpt>
      <trkpt lat="18.943926449865103" lon="-98.487592181190848">
        <ele>2114.55712890625</ele>
        <time>2013-08-29T19:33:22Z</time>
      </trkpt>
      <trkpt lat="18.943798039108515" lon="-98.487630067393184">
        <ele>2113.115234375</ele>
        <time>2013-08-29T19:33:27Z</time>
      </trkpt>
      <trkpt lat="18.943758644163609" lon="-98.487406941130757">
        <ele>2116.479736328125</ele>
        <time>2013-08-29T19:33:34Z</time>
      </trkpt>
      <trkpt lat="18.943738443776965" lon="-98.487365869805217">
        <ele>2117.44091796875</ele>
        <time>2013-08-29T19:33:35Z</time>
      </trkpt>
      <trkpt lat="18.943431917577982" lon="-98.487117597833276">
        <ele>2119.84423828125</ele>
        <time>2013-08-29T19:33:42Z</time>
      </trkpt>
      <trkpt lat="18.942997818812728" lon="-98.486772682517767">
        <ele>2119.36376953125</ele>
        <time>2013-08-29T19:33:50Z</time>
      </trkpt>
      <trkpt lat="18.942719455808401" lon="-98.486546454951167">
        <ele>2117.921630859375</ele>
        <time>2013-08-29T19:33:55Z</time>
      </trkpt>
      <trkpt lat="18.942528767511249" lon="-98.48647085018456">
        <ele>2118.40234375</ele>
        <time>2013-08-29T19:33:58Z</time>
      </trkpt>
      <trkpt lat="18.941832147538662" lon="-98.486281335353851">
        <ele>2115.5185546875</ele>
        <time>2013-08-29T19:34:08Z</time>
      </trkpt>
      <trkpt lat="18.941772552207112" lon="-98.486258620396256">
        <ele>2115.037841796875</ele>
        <time>2013-08-29T19:34:09Z</time>
      </trkpt>
      <trkpt lat="18.941633831709623" lon="-98.486161474138498">
        <ele>2113.115234375</ele>
        <time>2013-08-29T19:34:13Z</time>
      </trkpt>
      <trkpt lat="18.941255640238523" lon="-98.486076733097434">
        <ele>2112.634521484375</ele>
        <time>2013-08-29T19:34:21Z</time>
      </trkpt>
      <trkpt lat="18.941206438466907" lon="-98.48609852604568">
        <ele>2112.15380859375</ele>
        <time>2013-08-29T19:34:22Z</time>
      </trkpt>
      <trkpt lat="18.941067298874259" lon="-98.486148398369551">
        <ele>2111.67333984375</ele>
        <time>2013-08-29T19:34:25Z</time>
      </trkpt>
      <trkpt lat="18.940774686634541" lon="-98.48606675863266">
        <ele>2110.231201171875</ele>
        <time>2013-08-29T19:34:31Z</time>
      </trkpt>
      <trkpt lat="18.940640827640891" lon="-98.485929630696774">
        <ele>2108.789306640625</ele>
        <time>2013-08-29T19:34:37Z</time>
      </trkpt>
      <trkpt lat="18.940809722989798" lon="-98.485955027863383">
        <ele>2106.866455078125</ele>
        <time>2013-08-29T19:34:44Z</time>
      </trkpt>
      <trkpt lat="18.941048942506313" lon="-98.48594656214118">
        <ele>2103.982666015625</ele>
        <time>2013-08-29T19:34:51Z</time>
      </trkpt>
      <trkpt lat="18.941118093207479" lon="-98.485883781686425">
        <ele>2103.021240234375</ele>
        <time>2013-08-29T19:34:54Z</time>
      </trkpt>
      <trkpt lat="18.94112303853035" lon="-98.485768865793943">
        <ele>2104.463134765625</ele>
        <time>2013-08-29T19:34:57Z</time>
      </trkpt>
      <trkpt lat="18.941138964146376" lon="-98.485679095610976">
        <ele>2105.424560546875</ele>
        <time>2013-08-29T19:34:59Z</time>
      </trkpt>
      <trkpt lat="18.941159332171082" lon="-98.485634168609977">
        <ele>2106.3857421875</ele>
        <time>2013-08-29T19:35:00Z</time>
      </trkpt>
      <trkpt lat="18.941281791776419" lon="-98.485501147806644">
        <ele>2108.789306640625</ele>
        <time>2013-08-29T19:35:04Z</time>
      </trkpt>
      <trkpt lat="18.941345075145364" lon="-98.485473487526178">
        <ele>2109.27001953125</ele>
        <time>2013-08-29T19:35:06Z</time>
      </trkpt>
      <trkpt lat="18.941408358514309" lon="-98.485461082309484">
        <ele>2111.192626953125</ele>
        <time>2013-08-29T19:35:08Z</time>
      </trkpt>
      <trkpt lat="18.941399222239852" lon="-98.485363516956568">
        <ele>2111.67333984375</ele>
        <time>2013-08-29T19:35:13Z</time>
      </trkpt>
      <trkpt lat="18.941317331045866" lon="-98.48536804318428">
        <ele>2112.634521484375</ele>
        <time>2013-08-29T19:35:15Z</time>
      </trkpt>
      <trkpt lat="18.941177688539028" lon="-98.485415484756231">
        <ele>2111.67333984375</ele>
        <time>2013-08-29T19:35:18Z</time>
      </trkpt>
      <trkpt lat="18.941012732684612" lon="-98.485537022352219">
        <ele>2110.7119140625</ele>
        <time>2013-08-29T19:35:22Z</time>
      </trkpt>
      <trkpt lat="18.940698746591806" lon="-98.485571891069412">
        <ele>2109.75048828125</ele>
        <time>2013-08-29T19:35:28Z</time>
      </trkpt>
      <trkpt lat="18.940491965040565" lon="-98.485502153635025">
        <ele>2107.827880859375</ele>
        <time>2013-08-29T19:35:32Z</time>
      </trkpt>
      <trkpt lat="18.940298091620207" lon="-98.485499555245042">
        <ele>2107.34716796875</ele>
        <time>2013-08-29T19:35:36Z</time>
      </trkpt>
      <trkpt lat="18.940078821033239" lon="-98.485539788380265">
        <ele>2106.866455078125</ele>
        <time>2013-08-29T19:35:40Z</time>
      </trkpt>
      <trkpt lat="18.939925851300359" lon="-98.485537525266409">
        <ele>2105.905029296875</ele>
        <time>2013-08-29T19:35:43Z</time>
      </trkpt>
      <trkpt lat="18.93955159932375" lon="-98.485536519438028">
        <ele>2104.94384765625</ele>
        <time>2013-08-29T19:35:50Z</time>
      </trkpt>
      <trkpt lat="18.939380273222923" lon="-98.485561832785606">
        <ele>2103.982666015625</ele>
        <time>2013-08-29T19:35:53Z</time>
      </trkpt>
      <trkpt lat="18.939163349568844" lon="-98.485624780878425">
        <ele>2102.54052734375</ele>
        <time>2013-08-29T19:35:57Z</time>
      </trkpt>
      <trkpt lat="18.938985653221607" lon="-98.485631486400962">
        <ele>2102.059814453125</ele>
        <time>2013-08-29T19:36:01Z</time>
      </trkpt>
      <trkpt lat="18.938762191683054" lon="-98.485817229375243">
        <ele>2101.0986328125</ele>
        <time>2013-08-29T19:36:07Z</time>
      </trkpt>
      <trkpt lat="18.938403697684407" lon="-98.485916219651699">
        <ele>2100.617919921875</ele>
        <time>2013-08-29T19:36:13Z</time>
      </trkpt>
      <trkpt lat="18.938187528401613" lon="-98.485941952094436">
        <ele>2100.137451171875</ele>
        <time>2013-08-29T19:36:16Z</time>
      </trkpt>
      <trkpt lat="18.938044868409634" lon="-98.485941030085087">
        <ele>2099.176025390625</ele>
        <time>2013-08-29T19:36:18Z</time>
      </trkpt>
      <trkpt lat="18.937704646959901" lon="-98.485875818878412">
        <ele>2097.25341796875</ele>
        <time>2013-08-29T19:36:23Z</time>
      </trkpt>
      <trkpt lat="18.937612362205982" lon="-98.48581463098526">
        <ele>2096.292236328125</ele>
        <time>2013-08-29T19:36:25Z</time>
      </trkpt>
      <trkpt lat="18.937574895098805" lon="-98.485700972378254">
        <ele>2096.772705078125</ele>
        <time>2013-08-29T19:36:27Z</time>
      </trkpt>
      <trkpt lat="18.937431061640382" lon="-98.485493436455727">
        <ele>2096.772705078125</ele>
        <time>2013-08-29T19:36:32Z</time>
      </trkpt>
      <trkpt lat="18.937079440802336" lon="-98.485376844182611">
        <ele>2095.330810546875</ele>
        <time>2013-08-29T19:36:37Z</time>
      </trkpt>
      <trkpt lat="18.9369413908571" lon="-98.485281961038709">
        <ele>2094.369384765625</ele>
        <time>2013-08-29T19:36:39Z</time>
      </trkpt>
      <trkpt lat="18.936595050618052" lon="-98.485015751793981">
        <ele>2093.408203125</ele>
        <time>2013-08-29T19:36:45Z</time>
      </trkpt>
      <trkpt lat="18.936279723420739" lon="-98.484969818964601">
        <ele>2092.927490234375</ele>
        <time>2013-08-29T19:36:49Z</time>
      </trkpt>
      <trkpt lat="18.935920391231775" lon="-98.484836043789983">
        <ele>2091.4853515625</ele>
        <time>2013-08-29T19:36:53Z</time>
      </trkpt>
      <trkpt lat="18.935750154778361" lon="-98.48476747982204">
        <ele>2091.966064453125</ele>
        <time>2013-08-29T19:36:55Z</time>
      </trkpt>
      <trkpt lat="18.935376154258847" lon="-98.484753482043743">
        <ele>2089.08203125</ele>
        <time>2013-08-29T19:37:00Z</time>
      </trkpt>
      <trkpt lat="18.93525704741478" lon="-98.484820453450084">
        <ele>2088.6015625</ele>
        <time>2013-08-29T19:37:02Z</time>
      </trkpt>
      <trkpt lat="18.934790175408125" lon="-98.484808886423707">
        <ele>2087.159423828125</ele>
        <time>2013-08-29T19:37:08Z</time>
      </trkpt>
      <trkpt lat="18.934361860156059" lon="-98.484843755140901">
        <ele>2084.275634765625</ele>
        <time>2013-08-29T19:37:13Z</time>
      </trkpt>
      <trkpt lat="18.934236885979772" lon="-98.4847919549793">
        <ele>2084.75634765625</ele>
        <time>2013-08-29T19:37:15Z</time>
      </trkpt>
      <trkpt lat="18.934110654518008" lon="-98.484717439860106">
        <ele>2085.23681640625</ele>
        <time>2013-08-29T19:37:17Z</time>
      </trkpt>
      <trkpt lat="18.933997079730034" lon="-98.484391132369637">
        <ele>2083.314208984375</ele>
        <time>2013-08-29T19:37:22Z</time>
      </trkpt>
      <trkpt lat="18.933976963162422" lon="-98.483659224584699">
        <ele>2080.9111328125</ele>
        <time>2013-08-29T19:37:31Z</time>
      </trkpt>
      <trkpt lat="18.933877469971776" lon="-98.483359990641475">
        <ele>2080.430419921875</ele>
        <time>2013-08-29T19:37:35Z</time>
      </trkpt>
      <trkpt lat="18.933765236288309" lon="-98.483062852174044">
        <ele>2079.94970703125</ele>
        <time>2013-08-29T19:37:39Z</time>
      </trkpt>
      <trkpt lat="18.933729780837893" lon="-98.482919353991747">
        <ele>2078.98828125</ele>
        <time>2013-08-29T19:37:41Z</time>
      </trkpt>
      <trkpt lat="18.933598520234227" lon="-98.482622383162379">
        <ele>2076.1044921875</ele>
        <time>2013-08-29T19:37:45Z</time>
      </trkpt>
      <trkpt lat="18.933518473058939" lon="-98.482481148093939">
        <ele>2074.662353515625</ele>
        <time>2013-08-29T19:37:47Z</time>
      </trkpt>
      <trkpt lat="18.933388218283653" lon="-98.482207898050547">
        <ele>2075.62353515625</ele>
        <time>2013-08-29T19:37:51Z</time>
      </trkpt>
      <trkpt lat="18.933287467807531" lon="-98.48201653920114">
        <ele>2071.7783203125</ele>
        <time>2013-08-29T19:37:55Z</time>
      </trkpt>
      <trkpt lat="18.933229381218553" lon="-98.481907490640879">
        <ele>2070.817138671875</ele>
        <time>2013-08-29T19:37:57Z</time>
      </trkpt>
      <trkpt lat="18.933006087318063" lon="-98.48146484233439">
        <ele>2066.971923828125</ele>
        <time>2013-08-29T19:38:05Z</time>
      </trkpt>
      <trkpt lat="18.932939451187849" lon="-98.481369456276298">
        <ele>2066.010498046875</ele>
        <time>2013-08-29T19:38:08Z</time>
      </trkpt>
      <trkpt lat="18.93275823444128" lon="-98.481535837054253">
        <ele>2067.452392578125</ele>
        <time>2013-08-29T19:38:14Z</time>
      </trkpt>
      <trkpt lat="18.932564863935113" lon="-98.481773799285293">
        <ele>2070.33642578125</ele>
        <time>2013-08-29T19:38:18Z</time>
      </trkpt>
      <trkpt lat="18.932418935000896" lon="-98.481967337429523">
        <ele>2073.700927734375</ele>
        <time>2013-08-29T19:38:21Z</time>
      </trkpt>
      <trkpt lat="18.932326650246978" lon="-98.482103040441871">
        <ele>2074.181640625</ele>
        <time>2013-08-29T19:38:23Z</time>
      </trkpt>
      <trkpt lat="18.93204627558589" lon="-98.482492296025157">
        <ele>2073.700927734375</ele>
        <time>2013-08-29T19:38:28Z</time>
      </trkpt>
      <trkpt lat="18.931775791570544" lon="-98.482937542721629">
        <ele>2073.220458984375</ele>
        <time>2013-08-29T19:38:35Z</time>
      </trkpt>
      <trkpt lat="18.931642267853022" lon="-98.483117921277881">
        <ele>2072.259033203125</ele>
        <time>2013-08-29T19:38:38Z</time>
      </trkpt>
      <trkpt lat="18.931405395269394" lon="-98.483240380883217">
        <ele>2069.375244140625</ele>
        <time>2013-08-29T19:38:44Z</time>
      </trkpt>
      <trkpt lat="18.93120146356523" lon="-98.483070647343993">
        <ele>2067.93310546875</ele>
        <time>2013-08-29T19:38:50Z</time>
      </trkpt>
      <trkpt lat="18.931027539074421" lon="-98.48307735286653">
        <ele>2065.04931640625</ele>
        <time>2013-08-29T19:38:55Z</time>
      </trkpt>
      <trkpt lat="18.930760491639376" lon="-98.483167374506593">
        <ele>2064.087890625</ele>
        <time>2013-08-29T19:39:02Z</time>
      </trkpt>
      <trkpt lat="18.930489253252745" lon="-98.483140887692571">
        <ele>2065.04931640625</ele>
        <time>2013-08-29T19:39:08Z</time>
      </trkpt>
      <trkpt lat="18.930269395932555" lon="-98.48319754935801">
        <ele>2062.165283203125</ele>
        <time>2013-08-29T19:39:13Z</time>
      </trkpt>
      <trkpt lat="18.930190186947584" lon="-98.483215486630797">
        <ele>2061.684814453125</ele>
        <time>2013-08-29T19:39:15Z</time>
      </trkpt>
      <trkpt lat="18.930103182792664" lon="-98.483207272365689">
        <ele>2060.723388671875</ele>
        <time>2013-08-29T19:39:17Z</time>
      </trkpt>
      <trkpt lat="18.930059764534235" lon="-98.483027564361691">
        <ele>2061.684814453125</ele>
        <time>2013-08-29T19:39:22Z</time>
      </trkpt>
      <trkpt lat="18.930113157257438" lon="-98.482944248244166">
        <ele>2063.126708984375</ele>
        <time>2013-08-29T19:39:24Z</time>
      </trkpt>
      <trkpt lat="18.930226983502507" lon="-98.482770659029484">
        <ele>2065.04931640625</ele>
        <time>2013-08-29T19:39:28Z</time>
      </trkpt>
      <trkpt lat="18.930290937423706" lon="-98.482694551348686">
        <ele>2066.4912109375</ele>
        <time>2013-08-29T19:39:30Z</time>
      </trkpt>
      <trkpt lat="18.930337289348245" lon="-98.482628334313631">
        <ele>2066.971923828125</ele>
        <time>2013-08-29T19:39:32Z</time>
      </trkpt>
      <trkpt lat="18.930267971009016" lon="-98.48235122859478">
        <ele>2070.817138671875</ele>
        <time>2013-08-29T19:39:38Z</time>
      </trkpt>
      <trkpt lat="18.93023394048214" lon="-98.482313845306635">
        <ele>2070.33642578125</ele>
        <time>2013-08-29T19:39:39Z</time>
      </trkpt>
      <trkpt lat="18.930179039016366" lon="-98.482263553887606">
        <ele>2069.855712890625</ele>
        <time>2013-08-29T19:39:41Z</time>
      </trkpt>
      <trkpt lat="18.930184068158269" lon="-98.482122318819165">
        <ele>2070.33642578125</ele>
        <time>2013-08-29T19:39:46Z</time>
      </trkpt>
      <trkpt lat="18.930322369560599" lon="-98.481876729056239">
        <ele>2073.220458984375</ele>
        <time>2013-08-29T19:39:55Z</time>
      </trkpt>
      <trkpt lat="18.930390179157257" lon="-98.481806321069598">
        <ele>2074.662353515625</ele>
        <time>2013-08-29T19:39:58Z</time>
      </trkpt>
      <trkpt lat="18.930564187467098" lon="-98.481478756293654">
        <ele>2073.220458984375</ele>
        <time>2013-08-29T19:40:05Z</time>
      </trkpt>
      <trkpt lat="18.93044114112854" lon="-98.481406252831221">
        <ele>2070.817138671875</ele>
        <time>2013-08-29T19:40:11Z</time>
      </trkpt>
      <trkpt lat="18.9304069429636" lon="-98.481410024687648">
        <ele>2070.33642578125</ele>
        <time>2013-08-29T19:40:12Z</time>
      </trkpt>
      <trkpt lat="18.930307952687144" lon="-98.481425028294325">
        <ele>2067.452392578125</ele>
        <time>2013-08-29T19:40:19Z</time>
      </trkpt>
      <trkpt lat="18.930285321548581" lon="-98.481440870091319">
        <ele>2067.452392578125</ele>
        <time>2013-08-29T19:40:28Z</time>
      </trkpt>
      <trkpt lat="18.930229665711522" lon="-98.481415472924709">
        <ele>2064.568603515625</ele>
        <time>2013-08-29T19:40:38Z</time>
      </trkpt>
      <trkpt lat="18.930225558578968" lon="-98.481379179283977">
        <ele>2064.568603515625</ele>
        <time>2013-08-29T19:40:52Z</time>
      </trkpt>
      <trkpt lat="18.930180799216032" lon="-98.481222689151764">
        <ele>2063.126708984375</ele>
        <time>2013-08-29T19:41:07Z</time>
      </trkpt>
      <trkpt lat="18.930166885256767" lon="-98.481203326955438">
        <ele>2062.64599609375</ele>
        <time>2013-08-29T19:41:09Z</time>
      </trkpt>
      <trkpt lat="18.930141823366284" lon="-98.481142055243254">
        <ele>2062.64599609375</ele>
        <time>2013-08-29T19:41:15Z</time>
      </trkpt>
      <trkpt lat="18.930109553039074" lon="-98.481097798794508">
        <ele>2061.684814453125</ele>
        <time>2013-08-29T19:41:20Z</time>
      </trkpt>
      <trkpt lat="18.930078288540244" lon="-98.481069887056947">
        <ele>2060.723388671875</ele>
        <time>2013-08-29T19:41:24Z</time>
      </trkpt>
      <trkpt lat="18.930059932172298" lon="-98.481022864580154">
        <ele>2061.2041015625</ele>
        <time>2013-08-29T19:41:28Z</time>
      </trkpt>
      <trkpt lat="18.930024057626724" lon="-98.48097181878984">
        <ele>2059.28125</ele>
        <time>2013-08-29T19:41:34Z</time>
      </trkpt>
      <trkpt lat="18.929948285222054" lon="-98.480883222073317">
        <ele>2056.8779296875</ele>
        <time>2013-08-29T19:41:44Z</time>
      </trkpt>
      <trkpt lat="18.929873099550605" lon="-98.480919431895018">
        <ele>2054.955322265625</ele>
        <time>2013-08-29T19:41:52Z</time>
      </trkpt>
      <trkpt lat="18.929887684062123" lon="-98.481113640591502">
        <ele>2053.03271484375</ele>
        <time>2013-08-29T19:42:05Z</time>
      </trkpt>
      <trkpt lat="18.929903693497181" lon="-98.481268621981144">
        <ele>2051.5908203125</ele>
        <time>2013-08-29T19:42:17Z</time>
      </trkpt>
      <trkpt lat="18.929903022944927" lon="-98.481339197605848">
        <ele>2050.62939453125</ele>
        <time>2013-08-29T19:42:23Z</time>
      </trkpt>
      <trkpt lat="18.929889025166631" lon="-98.481419831514359">
        <ele>2049.668212890625</ele>
        <time>2013-08-29T19:42:30Z</time>
      </trkpt>
      <trkpt lat="18.929881229996681" lon="-98.481536088511348">
        <ele>2048.706787109375</ele>
        <time>2013-08-29T19:42:40Z</time>
      </trkpt>
      <trkpt lat="18.929843679070473" lon="-98.481567353010178">
        <ele>2046.7841796875</ele>
        <time>2013-08-29T19:42:44Z</time>
      </trkpt>
      <trkpt lat="18.929698839783669" lon="-98.48167254589498">
        <ele>2044.861572265625</ele>
        <time>2013-08-29T19:42:58Z</time>
      </trkpt>
      <trkpt lat="18.929549138993025" lon="-98.481789473444223">
        <ele>2044.380859375</ele>
        <time>2013-08-29T19:43:13Z</time>
      </trkpt>
      <trkpt lat="18.929340429604053" lon="-98.481853846460581">
        <ele>2041.9775390625</ele>
        <time>2013-08-29T19:43:30Z</time>
      </trkpt>
      <trkpt lat="18.929192153736949" lon="-98.481890140101314">
        <ele>2040.535400390625</ele>
        <time>2013-08-29T19:43:42Z</time>
      </trkpt>
      <trkpt lat="18.929019067436457" lon="-98.481894079595804">
        <ele>2038.613037109375</ele>
        <time>2013-08-29T19:43:56Z</time>
      </trkpt>
      <trkpt lat="18.928911024704576" lon="-98.481898354366422">
        <ele>2038.13232421875</ele>
        <time>2013-08-29T19:44:05Z</time>
      </trkpt>
      <trkpt lat="18.928844472393394" lon="-98.481888798996806">
        <ele>2036.690185546875</ele>
        <time>2013-08-29T19:44:11Z</time>
      </trkpt>
      <trkpt lat="18.928801221773028" lon="-98.481883853673935">
        <ele>2035.248291015625</ele>
        <time>2013-08-29T19:44:15Z</time>
      </trkpt>
      <trkpt lat="18.928760569542646" lon="-98.481833226978779">
        <ele>2033.806396484375</ele>
        <time>2013-08-29T19:44:21Z</time>
      </trkpt>
      <trkpt lat="18.928691586479545" lon="-98.481783187016845">
        <ele>2032.844970703125</ele>
        <time>2013-08-29T19:44:27Z</time>
      </trkpt>
      <trkpt lat="18.928520176559687" lon="-98.481721999123693">
        <ele>2030.44189453125</ele>
        <time>2013-08-29T19:44:41Z</time>
      </trkpt>
      <trkpt lat="18.928466783836484" lon="-98.481703642755747">
        <ele>2029.48046875</ele>
        <time>2013-08-29T19:44:45Z</time>
      </trkpt>
      <trkpt lat="18.928474495187402" lon="-98.481515217572451">
        <ele>2029.961181640625</ele>
        <time>2013-08-29T19:45:01Z</time>
      </trkpt>
      <trkpt lat="18.928457563742995" lon="-98.481389656662941">
        <ele>2028.03857421875</ele>
        <time>2013-08-29T19:45:15Z</time>
      </trkpt>
      <trkpt lat="18.928443482145667" lon="-98.481254624202847">
        <ele>2027.0771484375</ele>
        <time>2013-08-29T19:45:23Z</time>
      </trkpt>
      <trkpt lat="18.928572228178382" lon="-98.48103241994977">
        <ele>2027.0771484375</ele>
        <time>2013-08-29T19:45:33Z</time>
      </trkpt>
      <trkpt lat="18.928705081343651" lon="-98.480815747752786">
        <ele>2026.596435546875</ele>
        <time>2013-08-29T19:45:41Z</time>
      </trkpt>
      <trkpt lat="18.928769119083881" lon="-98.480540066957474">
        <ele>2026.11572265625</ele>
        <time>2013-08-29T19:45:49Z</time>
      </trkpt>
      <trkpt lat="18.928771130740643" lon="-98.480268241837621">
        <ele>2025.154296875</ele>
        <time>2013-08-29T19:45:57Z</time>
      </trkpt>
      <trkpt lat="18.928871043026447" lon="-98.479965319857001">
        <ele>2026.596435546875</ele>
        <time>2013-08-29T19:46:06Z</time>
      </trkpt>
      <trkpt lat="18.928885627537966" lon="-98.479819893836975">
        <ele>2026.11572265625</ele>
        <time>2013-08-29T19:46:10Z</time>
      </trkpt>
      <trkpt lat="18.929135324433446" lon="-98.479504063725471">
        <ele>2026.596435546875</ele>
        <time>2013-08-29T19:46:18Z</time>
      </trkpt>
      <trkpt lat="18.929554335772991" lon="-98.478999640792608">
        <ele>2028.519287109375</ele>
        <time>2013-08-29T19:46:25Z</time>
      </trkpt>
      <trkpt lat="18.929785341024399" lon="-98.478825548663735">
        <ele>2027.0771484375</ele>
        <time>2013-08-29T19:46:28Z</time>
      </trkpt>
      <trkpt lat="18.930436028167605" lon="-98.47839186899364">
        <ele>2024.673828125</ele>
        <time>2013-08-29T19:46:36Z</time>
      </trkpt>
      <trkpt lat="18.930921340361238" lon="-98.478135718032718">
        <ele>2021.789794921875</ele>
        <time>2013-08-29T19:46:43Z</time>
      </trkpt>
      <trkpt lat="18.930963920429349" lon="-98.478137729689479">
        <ele>2020.82861328125</ele>
        <time>2013-08-29T19:46:48Z</time>
      </trkpt>
      <trkpt lat="18.930959058925509" lon="-98.478127755224705">
        <ele>2021.30908203125</ele>
        <time>2013-08-29T19:46:58Z</time>
      </trkpt>
      <trkpt lat="18.93097129650414" lon="-98.478108895942569">
        <ele>2021.30908203125</ele>
        <time>2013-08-29T19:47:09Z</time>
      </trkpt>
      <trkpt lat="18.931052098050714" lon="-98.47801853902638">
        <ele>2018.906005859375</ele>
        <time>2013-08-29T19:47:20Z</time>
      </trkpt>
      <trkpt lat="18.931125858798623" lon="-98.477986939251423">
        <ele>2017.4638671875</ele>
        <time>2013-08-29T19:47:28Z</time>
      </trkpt>
      <trkpt lat="18.931204816326499" lon="-98.477945616468787">
        <ele>2015.54150390625</ele>
        <time>2013-08-29T19:47:40Z</time>
      </trkpt>
      <trkpt lat="18.931251838803291" lon="-98.477902868762612">
        <ele>2014.099365234375</ele>
        <time>2013-08-29T19:47:50Z</time>
      </trkpt>
      <trkpt lat="18.931265668943524" lon="-98.477855259552598">
        <ele>2014.580078125</ele>
        <time>2013-08-29T19:48:01Z</time>
      </trkpt>
      <trkpt lat="18.931273045018315" lon="-98.477843189612031">
        <ele>2013.61865234375</ele>
        <time>2013-08-29T19:48:03Z</time>
      </trkpt>
      <trkpt lat="18.931302297860384" lon="-98.477697763592005">
        <ele>2010.734619140625</ele>
        <time>2013-08-29T19:48:15Z</time>
      </trkpt>
      <trkpt lat="18.931342028081417" lon="-98.477584943175316">
        <ele>2008.331298828125</ele>
        <time>2013-08-29T19:48:25Z</time>
      </trkpt>
      <trkpt lat="18.931361055001616" lon="-98.477496178820729">
        <ele>2007.3701171875</ele>
        <time>2013-08-29T19:48:36Z</time>
      </trkpt>
      <trkpt lat="18.931385027244687" lon="-98.477469943463802">
        <ele>2007.850830078125</ele>
        <time>2013-08-29T19:48:46Z</time>
      </trkpt>
      <trkpt lat="18.931394163519144" lon="-98.477390818297863">
        <ele>2005.927978515625</ele>
        <time>2013-08-29T19:48:56Z</time>
      </trkpt>
      <trkpt lat="18.931397348642349" lon="-98.477386375889182">
        <ele>2005.447509765625</ele>
        <time>2013-08-29T19:48:57Z</time>
      </trkpt>
      <trkpt lat="18.931424170732498" lon="-98.477352345362306">
        <ele>2006.40869140625</ele>
        <time>2013-08-29T19:49:02Z</time>
      </trkpt>
      <trkpt lat="18.931431882083416" lon="-98.477219240739942">
        <ele>2004.966796875</ele>
        <time>2013-08-29T19:49:14Z</time>
      </trkpt>
      <trkpt lat="18.931440180167556" lon="-98.477202225476503">
        <ele>2005.447509765625</ele>
        <time>2013-08-29T19:49:16Z</time>
      </trkpt>
      <trkpt lat="18.931558784097433" lon="-98.477177750319242">
        <ele>2005.447509765625</ele>
        <time>2013-08-29T19:49:27Z</time>
      </trkpt>
      <trkpt lat="18.931725081056356" lon="-98.477028133347631">
        <ele>2005.927978515625</ele>
        <time>2013-08-29T19:49:45Z</time>
      </trkpt>
      <trkpt lat="18.931878553703427" lon="-98.476834259927273">
        <ele>2004.966796875</ele>
        <time>2013-08-29T19:50:03Z</time>
      </trkpt>
      <trkpt lat="18.9320008456707" lon="-98.476647343486547">
        <ele>2005.447509765625</ele>
        <time>2013-08-29T19:50:19Z</time>
      </trkpt>
      <trkpt lat="18.932105619460344" lon="-98.476441064849496">
        <ele>2004.966796875</ele>
        <time>2013-08-29T19:50:36Z</time>
      </trkpt>
      <trkpt lat="18.932225061580539" lon="-98.476216597482562">
        <ele>2004.966796875</ele>
        <time>2013-08-29T19:50:55Z</time>
      </trkpt>
      <trkpt lat="18.932236628606915" lon="-98.476193463429809">
        <ele>2005.447509765625</ele>
        <time>2013-08-29T19:50:57Z</time>
      </trkpt>
      <trkpt lat="18.932317346334457" lon="-98.475990369915962">
        <ele>2005.447509765625</ele>
        <time>2013-08-29T19:51:14Z</time>
      </trkpt>
      <trkpt lat="18.932334445416927" lon="-98.47596338018775">
        <ele>2005.927978515625</ele>
        <time>2013-08-29T19:51:16Z</time>
      </trkpt>
      <trkpt lat="18.932437039911747" lon="-98.475761627778411">
        <ele>2005.927978515625</ele>
        <time>2013-08-29T19:51:34Z</time>
      </trkpt>
      <trkpt lat="18.932525720447302" lon="-98.475650399923325">
        <ele>2008.81201171875</ele>
        <time>2013-08-29T19:51:46Z</time>
      </trkpt>
      <trkpt lat="18.932657819241285" lon="-98.475548224523664">
        <ele>2010.734619140625</ele>
        <time>2013-08-29T19:52:00Z</time>
      </trkpt>
      <trkpt lat="18.932775249704719" lon="-98.475439343601465">
        <ele>2013.61865234375</ele>
        <time>2013-08-29T19:52:14Z</time>
      </trkpt>
      <trkpt lat="18.932850351557136" lon="-98.475361643359065">
        <ele>2013.61865234375</ele>
        <time>2013-08-29T19:52:27Z</time>
      </trkpt>
      <trkpt lat="18.932879352942109" lon="-98.475356781855226">
        <ele>2014.580078125</ele>
        <time>2013-08-29T19:52:38Z</time>
      </trkpt>
      <trkpt lat="18.932915478944778" lon="-98.475317051634192">
        <ele>2014.580078125</ele>
        <time>2013-08-29T19:52:42Z</time>
      </trkpt>
      <trkpt lat="18.932960657402873" lon="-98.475221749395132">
        <ele>2016.502685546875</ele>
        <time>2013-08-29T19:52:44Z</time>
      </trkpt>
      <trkpt lat="18.933094181120396" lon="-98.475003987550735">
        <ele>2016.502685546875</ele>
        <time>2013-08-29T19:52:48Z</time>
      </trkpt>
      <trkpt lat="18.93340322189033" lon="-98.474754793569446">
        <ele>2016.502685546875</ele>
        <time>2013-08-29T19:52:54Z</time>
      </trkpt>
      <trkpt lat="18.934166477993131" lon="-98.474507695063949">
        <ele>2016.9833984375</ele>
        <time>2013-08-29T19:53:03Z</time>
      </trkpt>
      <trkpt lat="18.934820853173733" lon="-98.474268559366465">
        <ele>2016.9833984375</ele>
        <time>2013-08-29T19:53:10Z</time>
      </trkpt>
      <trkpt lat="18.935362575575709" lon="-98.474089270457625">
        <ele>2016.502685546875</ele>
        <time>2013-08-29T19:53:18Z</time>
      </trkpt>
      <trkpt lat="18.935847217217088" lon="-98.473904617130756">
        <ele>2016.9833984375</ele>
        <time>2013-08-29T19:53:25Z</time>
      </trkpt>
      <trkpt lat="18.936288272961974" lon="-98.473736895248294">
        <ele>2015.54150390625</ele>
        <time>2013-08-29T19:53:30Z</time>
      </trkpt>
      <trkpt lat="18.936492875218391" lon="-98.473663637414575">
        <ele>2014.580078125</ele>
        <time>2013-08-29T19:53:35Z</time>
      </trkpt>
      <trkpt lat="18.936527157202363" lon="-98.473652321845293">
        <ele>2012.1767578125</ele>
        <time>2013-08-29T19:53:39Z</time>
      </trkpt>
      <trkpt lat="18.936526151373982" lon="-98.473651399835944">
        <ele>1875.66943359375</ele>
        <time>2013-08-29T19:47:38Z</time>
      </trkpt>
    </trkseg>
  </trk>

</gpx>
